<?xml version="1.0" encoding="UTF-8" standalone="no" ?>
<gpx xmlns="http://www.topografix.com/GPX/1/1" xmlns:xsi="http://www.w3.org/2001/XMLSchema-instance" xsi:schemaLocation="http://www.topografix.com/GPX/1/1 http://www.topografix.com/GPX/1/1/gpx.xsd" version="1.1" creator="VisuGPX - https://www.visugpx.com">
  <metadata>
    <name>VTT avec JF à Faverney</name>
    <desc><![CDATA[Beau circuit, sens ah. 
Avec Chris JF et les Hany]]></desc>
  </metadata>
  <trk>
    <name><![CDATA[VTT Port avec JF]]></name>
    <desc><![CDATA[JF, Christine et les Hany.
TB ce parcours]]></desc>
    <trkseg>
      <trkpt lat="47.68627" lon="6.0455">
        <ele>233</ele>
        <time>2013-08-07T07:02:29.000Z</time>
      </trkpt>
      <trkpt lat="47.68632" lon="6.04536">
        <ele>232</ele>
        <time>2013-08-07T07:02:37.000Z</time>
      </trkpt>
      <trkpt lat="47.68638" lon="6.04534">
        <ele>232.60000610352</ele>
        <time>2013-08-07T07:02:40.000Z</time>
      </trkpt>
      <trkpt lat="47.68652" lon="6.04545">
        <ele>232.80000305176</ele>
        <time>2013-08-07T07:02:46.000Z</time>
      </trkpt>
      <trkpt lat="47.68664" lon="6.0456">
        <ele>234</ele>
        <time>2013-08-07T07:02:52.000Z</time>
      </trkpt>
      <trkpt lat="47.68679" lon="6.04589">
        <ele>235.19999694824</ele>
        <time>2013-08-07T07:03:02.000Z</time>
      </trkpt>
      <trkpt lat="47.6869" lon="6.0462">
        <ele>236</ele>
        <time>2013-08-07T07:03:12.000Z</time>
      </trkpt>
      <trkpt lat="47.68702" lon="6.04645">
        <ele>236.80000305176</ele>
        <time>2013-08-07T07:03:20.000Z</time>
      </trkpt>
      <trkpt lat="47.68721" lon="6.04685">
        <ele>236.80000305176</ele>
        <time>2013-08-07T07:03:31.000Z</time>
      </trkpt>
      <trkpt lat="47.68735" lon="6.04722">
        <ele>236.60000610352</ele>
        <time>2013-08-07T07:03:39.000Z</time>
      </trkpt>
      <trkpt lat="47.68753" lon="6.04783">
        <ele>235.60000610352</ele>
        <time>2013-08-07T07:03:49.000Z</time>
      </trkpt>
      <trkpt lat="47.6877" lon="6.04846">
        <ele>234.39999389648</ele>
        <time>2013-08-07T07:03:57.000Z</time>
      </trkpt>
      <trkpt lat="47.68785" lon="6.04899">
        <ele>233</ele>
        <time>2013-08-07T07:04:04.000Z</time>
      </trkpt>
      <trkpt lat="47.68794" lon="6.04926">
        <ele>232.60000610352</ele>
        <time>2013-08-07T07:04:10.000Z</time>
      </trkpt>
      <trkpt lat="47.68797" lon="6.04933">
        <ele>232.60000610352</ele>
        <time>2013-08-07T07:04:15.000Z</time>
      </trkpt>
      <trkpt lat="47.68808" lon="6.04935">
        <ele>232.60000610352</ele>
        <time>2013-08-07T07:04:47.000Z</time>
      </trkpt>
      <trkpt lat="47.68815" lon="6.04914">
        <ele>232.39999389648</ele>
        <time>2013-08-07T07:04:52.000Z</time>
      </trkpt>
      <trkpt lat="47.68832" lon="6.04904">
        <ele>231.60000610352</ele>
        <time>2013-08-07T07:04:56.000Z</time>
      </trkpt>
      <trkpt lat="47.68844" lon="6.04919">
        <ele>231.19999694824</ele>
        <time>2013-08-07T07:04:59.000Z</time>
      </trkpt>
      <trkpt lat="47.68855" lon="6.04941">
        <ele>231</ele>
        <time>2013-08-07T07:05:03.000Z</time>
      </trkpt>
      <trkpt lat="47.68877" lon="6.04982">
        <ele>232.19999694824</ele>
        <time>2013-08-07T07:05:12.000Z</time>
      </trkpt>
      <trkpt lat="47.68897" lon="6.0501">
        <ele>233.60000610352</ele>
        <time>2013-08-07T07:05:20.000Z</time>
      </trkpt>
      <trkpt lat="47.68915" lon="6.05026">
        <ele>234.80000305176</ele>
        <time>2013-08-07T07:05:27.000Z</time>
      </trkpt>
      <trkpt lat="47.68936" lon="6.05043">
        <ele>235.80000305176</ele>
        <time>2013-08-07T07:05:35.000Z</time>
      </trkpt>
      <trkpt lat="47.68962" lon="6.0506">
        <ele>238</ele>
        <time>2013-08-07T07:05:45.000Z</time>
      </trkpt>
      <trkpt lat="47.68979" lon="6.0507">
        <ele>239.39999389648</ele>
        <time>2013-08-07T07:05:53.000Z</time>
      </trkpt>
      <trkpt lat="47.69001" lon="6.05084">
        <ele>242</ele>
        <time>2013-08-07T07:06:04.000Z</time>
      </trkpt>
      <trkpt lat="47.69023" lon="6.05097">
        <ele>244</ele>
        <time>2013-08-07T07:06:15.000Z</time>
      </trkpt>
      <trkpt lat="47.69044" lon="6.0511">
        <ele>245.80000305176</ele>
        <time>2013-08-07T07:06:26.000Z</time>
      </trkpt>
      <trkpt lat="47.6906" lon="6.05122">
        <ele>247.39999389648</ele>
        <time>2013-08-07T07:06:35.000Z</time>
      </trkpt>
      <trkpt lat="47.69084" lon="6.0514">
        <ele>249</ele>
        <time>2013-08-07T07:06:48.000Z</time>
      </trkpt>
      <trkpt lat="47.69103" lon="6.05155">
        <ele>250</ele>
        <time>2013-08-07T07:06:59.000Z</time>
      </trkpt>
      <trkpt lat="47.69124" lon="6.05173">
        <ele>250.60000610352</ele>
        <time>2013-08-07T07:07:08.000Z</time>
      </trkpt>
      <trkpt lat="47.69151" lon="6.05196">
        <ele>251</ele>
        <time>2013-08-07T07:07:18.000Z</time>
      </trkpt>
      <trkpt lat="47.69173" lon="6.0522">
        <ele>251.19999694824</ele>
        <time>2013-08-07T07:07:28.000Z</time>
      </trkpt>
      <trkpt lat="47.69196" lon="6.05246">
        <ele>251.19999694824</ele>
        <time>2013-08-07T07:07:37.000Z</time>
      </trkpt>
      <trkpt lat="47.6922" lon="6.05268">
        <ele>251</ele>
        <time>2013-08-07T07:07:46.000Z</time>
      </trkpt>
      <trkpt lat="47.69234" lon="6.05285">
        <ele>251.19999694824</ele>
        <time>2013-08-07T07:07:52.000Z</time>
      </trkpt>
      <trkpt lat="47.69251" lon="6.05304">
        <ele>251.19999694824</ele>
        <time>2013-08-07T07:07:58.000Z</time>
      </trkpt>
      <trkpt lat="47.69272" lon="6.05326">
        <ele>251</ele>
        <time>2013-08-07T07:08:05.000Z</time>
      </trkpt>
      <trkpt lat="47.69303" lon="6.05352">
        <ele>251</ele>
        <time>2013-08-07T07:08:14.000Z</time>
      </trkpt>
      <trkpt lat="47.69331" lon="6.05374">
        <ele>251</ele>
        <time>2013-08-07T07:08:23.000Z</time>
      </trkpt>
      <trkpt lat="47.69357" lon="6.05394">
        <ele>251.39999389648</ele>
        <time>2013-08-07T07:08:31.000Z</time>
      </trkpt>
      <trkpt lat="47.69384" lon="6.05415">
        <ele>251.80000305176</ele>
        <time>2013-08-07T07:08:40.000Z</time>
      </trkpt>
      <trkpt lat="47.69414" lon="6.0544">
        <ele>252.39999389648</ele>
        <time>2013-08-07T07:08:50.000Z</time>
      </trkpt>
      <trkpt lat="47.69436" lon="6.05462">
        <ele>252.80000305176</ele>
        <time>2013-08-07T07:08:58.000Z</time>
      </trkpt>
      <trkpt lat="47.69449" lon="6.05498">
        <ele>253.60000610352</ele>
        <time>2013-08-07T07:09:07.000Z</time>
      </trkpt>
      <trkpt lat="47.69451" lon="6.05503">
        <ele>254</ele>
        <time>2013-08-07T07:09:09.000Z</time>
      </trkpt>
      <trkpt lat="47.69453" lon="6.05505">
        <ele>254.19999694824</ele>
        <time>2013-08-07T07:09:12.000Z</time>
      </trkpt>
      <trkpt lat="47.69465" lon="6.05534">
        <ele>254.80000305176</ele>
        <time>2013-08-07T07:09:24.000Z</time>
      </trkpt>
      <trkpt lat="47.6948" lon="6.0557">
        <ele>255.60000610352</ele>
        <time>2013-08-07T07:09:36.000Z</time>
      </trkpt>
      <trkpt lat="47.69488" lon="6.05589">
        <ele>256</ele>
        <time>2013-08-07T07:09:43.000Z</time>
      </trkpt>
      <trkpt lat="47.69498" lon="6.0562">
        <ele>256.79998779297</ele>
        <time>2013-08-07T07:09:53.000Z</time>
      </trkpt>
      <trkpt lat="47.69504" lon="6.05647">
        <ele>257.60000610352</ele>
        <time>2013-08-07T07:10:00.000Z</time>
      </trkpt>
      <trkpt lat="47.69512" lon="6.05683">
        <ele>258.60000610352</ele>
        <time>2013-08-07T07:10:09.000Z</time>
      </trkpt>
      <trkpt lat="47.69522" lon="6.05717">
        <ele>259.79998779297</ele>
        <time>2013-08-07T07:10:19.000Z</time>
      </trkpt>
      <trkpt lat="47.69534" lon="6.05758">
        <ele>260.79998779297</ele>
        <time>2013-08-07T07:10:30.000Z</time>
      </trkpt>
      <trkpt lat="47.69545" lon="6.05796">
        <ele>262.20001220703</ele>
        <time>2013-08-07T07:10:41.000Z</time>
      </trkpt>
      <trkpt lat="47.69554" lon="6.05835">
        <ele>263.60000610352</ele>
        <time>2013-08-07T07:10:52.000Z</time>
      </trkpt>
      <trkpt lat="47.69563" lon="6.05873">
        <ele>264.39999389648</ele>
        <time>2013-08-07T07:11:03.000Z</time>
      </trkpt>
      <trkpt lat="47.69572" lon="6.05912">
        <ele>265</ele>
        <time>2013-08-07T07:11:14.000Z</time>
      </trkpt>
      <trkpt lat="47.69579" lon="6.05949">
        <ele>265.39999389648</ele>
        <time>2013-08-07T07:11:23.000Z</time>
      </trkpt>
      <trkpt lat="47.69587" lon="6.05983">
        <ele>265.60000610352</ele>
        <time>2013-08-07T07:11:31.000Z</time>
      </trkpt>
      <trkpt lat="47.696" lon="6.06022">
        <ele>266.20001220703</ele>
        <time>2013-08-07T07:11:41.000Z</time>
      </trkpt>
      <trkpt lat="47.69612" lon="6.0606">
        <ele>267.39999389648</ele>
        <time>2013-08-07T07:11:51.000Z</time>
      </trkpt>
      <trkpt lat="47.69622" lon="6.06095">
        <ele>268.60000610352</ele>
        <time>2013-08-07T07:12:01.000Z</time>
      </trkpt>
      <trkpt lat="47.69635" lon="6.06137">
        <ele>270</ele>
        <time>2013-08-07T07:12:13.000Z</time>
      </trkpt>
      <trkpt lat="47.69644" lon="6.06172">
        <ele>270.79998779297</ele>
        <time>2013-08-07T07:12:22.000Z</time>
      </trkpt>
      <trkpt lat="47.69656" lon="6.0622">
        <ele>270.79998779297</ele>
        <time>2013-08-07T07:12:32.000Z</time>
      </trkpt>
      <trkpt lat="47.69667" lon="6.06265">
        <ele>271</ele>
        <time>2013-08-07T07:12:41.000Z</time>
      </trkpt>
      <trkpt lat="47.69677" lon="6.06309">
        <ele>271.39999389648</ele>
        <time>2013-08-07T07:12:51.000Z</time>
      </trkpt>
      <trkpt lat="47.69687" lon="6.06352">
        <ele>271.39999389648</ele>
        <time>2013-08-07T07:13:02.000Z</time>
      </trkpt>
      <trkpt lat="47.697" lon="6.06387">
        <ele>271</ele>
        <time>2013-08-07T07:13:09.000Z</time>
      </trkpt>
      <trkpt lat="47.69708" lon="6.0641">
        <ele>270.20001220703</ele>
        <time>2013-08-07T07:13:13.000Z</time>
      </trkpt>
      <trkpt lat="47.69726" lon="6.06458">
        <ele>269</ele>
        <time>2013-08-07T07:13:21.000Z</time>
      </trkpt>
      <trkpt lat="47.69728" lon="6.06489">
        <ele>269</ele>
        <time>2013-08-07T07:13:27.000Z</time>
      </trkpt>
      <trkpt lat="47.69724" lon="6.06516">
        <ele>269.79998779297</ele>
        <time>2013-08-07T07:13:33.000Z</time>
      </trkpt>
      <trkpt lat="47.69718" lon="6.06544">
        <ele>270.79998779297</ele>
        <time>2013-08-07T07:13:40.000Z</time>
      </trkpt>
      <trkpt lat="47.69712" lon="6.06575">
        <ele>272</ele>
        <time>2013-08-07T07:13:48.000Z</time>
      </trkpt>
      <trkpt lat="47.69707" lon="6.06606">
        <ele>272.39999389648</ele>
        <time>2013-08-07T07:13:56.000Z</time>
      </trkpt>
      <trkpt lat="47.69706" lon="6.06636">
        <ele>273.20001220703</ele>
        <time>2013-08-07T07:14:04.000Z</time>
      </trkpt>
      <trkpt lat="47.69706" lon="6.0667">
        <ele>273.20001220703</ele>
        <time>2013-08-07T07:14:12.000Z</time>
      </trkpt>
      <trkpt lat="47.69706" lon="6.06703">
        <ele>273.39999389648</ele>
        <time>2013-08-07T07:14:19.000Z</time>
      </trkpt>
      <trkpt lat="47.69706" lon="6.06742">
        <ele>272.60000610352</ele>
        <time>2013-08-07T07:14:27.000Z</time>
      </trkpt>
      <trkpt lat="47.69703" lon="6.06777">
        <ele>271.60000610352</ele>
        <time>2013-08-07T07:14:34.000Z</time>
      </trkpt>
      <trkpt lat="47.69702" lon="6.06814">
        <ele>271.20001220703</ele>
        <time>2013-08-07T07:14:41.000Z</time>
      </trkpt>
      <trkpt lat="47.69702" lon="6.06847">
        <ele>271.79998779297</ele>
        <time>2013-08-07T07:14:48.000Z</time>
      </trkpt>
      <trkpt lat="47.69709" lon="6.06876">
        <ele>272.79998779297</ele>
        <time>2013-08-07T07:14:55.000Z</time>
      </trkpt>
      <trkpt lat="47.69714" lon="6.06904">
        <ele>274</ele>
        <time>2013-08-07T07:15:02.000Z</time>
      </trkpt>
      <trkpt lat="47.69716" lon="6.06922">
        <ele>274.60000610352</ele>
        <time>2013-08-07T07:15:07.000Z</time>
      </trkpt>
      <trkpt lat="47.69724" lon="6.06947">
        <ele>274.60000610352</ele>
        <time>2013-08-07T07:15:14.000Z</time>
      </trkpt>
      <trkpt lat="47.69731" lon="6.06973">
        <ele>274</ele>
        <time>2013-08-07T07:15:20.000Z</time>
      </trkpt>
      <trkpt lat="47.69739" lon="6.07004">
        <ele>273.39999389648</ele>
        <time>2013-08-07T07:15:26.000Z</time>
      </trkpt>
      <trkpt lat="47.6975" lon="6.07032">
        <ele>272.20001220703</ele>
        <time>2013-08-07T07:15:32.000Z</time>
      </trkpt>
      <trkpt lat="47.69754" lon="6.07042">
        <ele>272.20001220703</ele>
        <time>2013-08-07T07:15:34.000Z</time>
      </trkpt>
      <trkpt lat="47.69774" lon="6.07088">
        <ele>270.79998779297</ele>
        <time>2013-08-07T07:15:42.000Z</time>
      </trkpt>
      <trkpt lat="47.69792" lon="6.07128">
        <ele>269.20001220703</ele>
        <time>2013-08-07T07:15:49.000Z</time>
      </trkpt>
      <trkpt lat="47.69795" lon="6.07134">
        <ele>269</ele>
        <time>2013-08-07T07:15:50.000Z</time>
      </trkpt>
      <trkpt lat="47.69803" lon="6.07168">
        <ele>267.79998779297</ele>
        <time>2013-08-07T07:15:55.000Z</time>
      </trkpt>
      <trkpt lat="47.69806" lon="6.07208">
        <ele>267.20001220703</ele>
        <time>2013-08-07T07:16:02.000Z</time>
      </trkpt>
      <trkpt lat="47.69806" lon="6.07253">
        <ele>266.60000610352</ele>
        <time>2013-08-07T07:16:10.000Z</time>
      </trkpt>
      <trkpt lat="47.69804" lon="6.073">
        <ele>266.39999389648</ele>
        <time>2013-08-07T07:16:18.000Z</time>
      </trkpt>
      <trkpt lat="47.69799" lon="6.07353">
        <ele>267.20001220703</ele>
        <time>2013-08-07T07:16:28.000Z</time>
      </trkpt>
      <trkpt lat="47.69794" lon="6.07405">
        <ele>268.60000610352</ele>
        <time>2013-08-07T07:16:39.000Z</time>
      </trkpt>
      <trkpt lat="47.69791" lon="6.07434">
        <ele>269</ele>
        <time>2013-08-07T07:16:46.000Z</time>
      </trkpt>
      <trkpt lat="47.6979" lon="6.07458">
        <ele>268.79998779297</ele>
        <time>2013-08-07T07:16:52.000Z</time>
      </trkpt>
      <trkpt lat="47.69793" lon="6.07481">
        <ele>268.79998779297</ele>
        <time>2013-08-07T07:16:57.000Z</time>
      </trkpt>
      <trkpt lat="47.69806" lon="6.07497">
        <ele>268.79998779297</ele>
        <time>2013-08-07T07:17:02.000Z</time>
      </trkpt>
      <trkpt lat="47.69823" lon="6.0751">
        <ele>268.39999389648</ele>
        <time>2013-08-07T07:17:08.000Z</time>
      </trkpt>
      <trkpt lat="47.6984" lon="6.07526">
        <ele>268.60000610352</ele>
        <time>2013-08-07T07:17:14.000Z</time>
      </trkpt>
      <trkpt lat="47.69862" lon="6.07545">
        <ele>268.20001220703</ele>
        <time>2013-08-07T07:17:22.000Z</time>
      </trkpt>
      <trkpt lat="47.6988" lon="6.07561">
        <ele>268.20001220703</ele>
        <time>2013-08-07T07:17:29.000Z</time>
      </trkpt>
      <trkpt lat="47.699" lon="6.07578">
        <ele>268.39999389648</ele>
        <time>2013-08-07T07:17:37.000Z</time>
      </trkpt>
      <trkpt lat="47.6991" lon="6.07586">
        <ele>268.60000610352</ele>
        <time>2013-08-07T07:17:43.000Z</time>
      </trkpt>
      <trkpt lat="47.69932" lon="6.07607">
        <ele>269.20001220703</ele>
        <time>2013-08-07T07:17:53.000Z</time>
      </trkpt>
      <trkpt lat="47.69947" lon="6.0762">
        <ele>269.60000610352</ele>
        <time>2013-08-07T07:18:00.000Z</time>
      </trkpt>
      <trkpt lat="47.69961" lon="6.07631">
        <ele>269.60000610352</ele>
        <time>2013-08-07T07:18:06.000Z</time>
      </trkpt>
      <trkpt lat="47.69974" lon="6.07648">
        <ele>269.60000610352</ele>
        <time>2013-08-07T07:18:12.000Z</time>
      </trkpt>
      <trkpt lat="47.69979" lon="6.0767">
        <ele>269.79998779297</ele>
        <time>2013-08-07T07:18:17.000Z</time>
      </trkpt>
      <trkpt lat="47.69972" lon="6.0769">
        <ele>269.79998779297</ele>
        <time>2013-08-07T07:18:22.000Z</time>
      </trkpt>
      <trkpt lat="47.69958" lon="6.07712">
        <ele>270.20001220703</ele>
        <time>2013-08-07T07:18:29.000Z</time>
      </trkpt>
      <trkpt lat="47.69958" lon="6.0773">
        <ele>270</ele>
        <time>2013-08-07T07:18:33.000Z</time>
      </trkpt>
      <trkpt lat="47.69965" lon="6.07756">
        <ele>270.20001220703</ele>
        <time>2013-08-07T07:18:39.000Z</time>
      </trkpt>
      <trkpt lat="47.69972" lon="6.07775">
        <ele>270.39999389648</ele>
        <time>2013-08-07T07:18:44.000Z</time>
      </trkpt>
      <trkpt lat="47.69985" lon="6.07783">
        <ele>270.39999389648</ele>
        <time>2013-08-07T07:18:49.000Z</time>
      </trkpt>
      <trkpt lat="47.70002" lon="6.07785">
        <ele>271</ele>
        <time>2013-08-07T07:18:55.000Z</time>
      </trkpt>
      <trkpt lat="47.70017" lon="6.078">
        <ele>271.20001220703</ele>
        <time>2013-08-07T07:19:02.000Z</time>
      </trkpt>
      <trkpt lat="47.70037" lon="6.07812">
        <ele>270.60000610352</ele>
        <time>2013-08-07T07:19:09.000Z</time>
      </trkpt>
      <trkpt lat="47.70054" lon="6.07825">
        <ele>270</ele>
        <time>2013-08-07T07:19:14.000Z</time>
      </trkpt>
      <trkpt lat="47.70067" lon="6.07846">
        <ele>269.39999389648</ele>
        <time>2013-08-07T07:19:18.000Z</time>
      </trkpt>
      <trkpt lat="47.70079" lon="6.07885">
        <ele>268.20001220703</ele>
        <time>2013-08-07T07:19:23.000Z</time>
      </trkpt>
      <trkpt lat="47.70078" lon="6.0793">
        <ele>266.79998779297</ele>
        <time>2013-08-07T07:19:28.000Z</time>
      </trkpt>
      <trkpt lat="47.70063" lon="6.07974">
        <ele>266</ele>
        <time>2013-08-07T07:19:35.000Z</time>
      </trkpt>
      <trkpt lat="47.70054" lon="6.08001">
        <ele>266.39999389648</ele>
        <time>2013-08-07T07:19:41.000Z</time>
      </trkpt>
      <trkpt lat="47.70046" lon="6.08022">
        <ele>267.60000610352</ele>
        <time>2013-08-07T07:19:47.000Z</time>
      </trkpt>
      <trkpt lat="47.70039" lon="6.0804">
        <ele>269.79998779297</ele>
        <time>2013-08-07T07:19:55.000Z</time>
      </trkpt>
      <trkpt lat="47.70035" lon="6.08055">
        <ele>270.79998779297</ele>
        <time>2013-08-07T07:20:03.000Z</time>
      </trkpt>
      <trkpt lat="47.70036" lon="6.08073">
        <ele>272</ele>
        <time>2013-08-07T07:20:11.000Z</time>
      </trkpt>
      <trkpt lat="47.70042" lon="6.08095">
        <ele>273</ele>
        <time>2013-08-07T07:20:20.000Z</time>
      </trkpt>
      <trkpt lat="47.70052" lon="6.08116">
        <ele>274.20001220703</ele>
        <time>2013-08-07T07:20:29.000Z</time>
      </trkpt>
      <trkpt lat="47.70059" lon="6.08134">
        <ele>274.79998779297</ele>
        <time>2013-08-07T07:20:36.000Z</time>
      </trkpt>
      <trkpt lat="47.70071" lon="6.08165">
        <ele>276</ele>
        <time>2013-08-07T07:20:48.000Z</time>
      </trkpt>
      <trkpt lat="47.70082" lon="6.08191">
        <ele>277.20001220703</ele>
        <time>2013-08-07T07:20:59.000Z</time>
      </trkpt>
      <trkpt lat="47.70092" lon="6.08216">
        <ele>278.39999389648</ele>
        <time>2013-08-07T07:21:10.000Z</time>
      </trkpt>
      <trkpt lat="47.70099" lon="6.08236">
        <ele>280</ele>
        <time>2013-08-07T07:21:19.000Z</time>
      </trkpt>
      <trkpt lat="47.70104" lon="6.08253">
        <ele>281.20001220703</ele>
        <time>2013-08-07T07:21:28.000Z</time>
      </trkpt>
      <trkpt lat="47.70112" lon="6.08272">
        <ele>282.60000610352</ele>
        <time>2013-08-07T07:21:38.000Z</time>
      </trkpt>
      <trkpt lat="47.70115" lon="6.08287">
        <ele>283.60000610352</ele>
        <time>2013-08-07T07:21:46.000Z</time>
      </trkpt>
      <trkpt lat="47.70119" lon="6.08301">
        <ele>284.79998779297</ele>
        <time>2013-08-07T07:21:55.000Z</time>
      </trkpt>
      <trkpt lat="47.70123" lon="6.08316">
        <ele>285.39999389648</ele>
        <time>2013-08-07T07:22:04.000Z</time>
      </trkpt>
      <trkpt lat="47.70125" lon="6.08335">
        <ele>286.20001220703</ele>
        <time>2013-08-07T07:22:12.000Z</time>
      </trkpt>
      <trkpt lat="47.70128" lon="6.08354">
        <ele>287.20001220703</ele>
        <time>2013-08-07T07:22:21.000Z</time>
      </trkpt>
      <trkpt lat="47.7013" lon="6.08379">
        <ele>288.79998779297</ele>
        <time>2013-08-07T07:22:31.000Z</time>
      </trkpt>
      <trkpt lat="47.70137" lon="6.08403">
        <ele>290</ele>
        <time>2013-08-07T07:22:41.000Z</time>
      </trkpt>
      <trkpt lat="47.70144" lon="6.08415">
        <ele>290.79998779297</ele>
        <time>2013-08-07T07:22:47.000Z</time>
      </trkpt>
      <trkpt lat="47.70154" lon="6.08426">
        <ele>291.20001220703</ele>
        <time>2013-08-07T07:22:53.000Z</time>
      </trkpt>
      <trkpt lat="47.70174" lon="6.08442">
        <ele>292.20001220703</ele>
        <time>2013-08-07T07:23:03.000Z</time>
      </trkpt>
      <trkpt lat="47.70189" lon="6.08454">
        <ele>292.60000610352</ele>
        <time>2013-08-07T07:23:11.000Z</time>
      </trkpt>
      <trkpt lat="47.70201" lon="6.08464">
        <ele>293.20001220703</ele>
        <time>2013-08-07T07:23:17.000Z</time>
      </trkpt>
      <trkpt lat="47.70214" lon="6.08475">
        <ele>294</ele>
        <time>2013-08-07T07:23:25.000Z</time>
      </trkpt>
      <trkpt lat="47.70222" lon="6.08479">
        <ele>294.39999389648</ele>
        <time>2013-08-07T07:23:30.000Z</time>
      </trkpt>
      <trkpt lat="47.70231" lon="6.08486">
        <ele>294.60000610352</ele>
        <time>2013-08-07T07:23:35.000Z</time>
      </trkpt>
      <trkpt lat="47.70244" lon="6.08496">
        <ele>295</ele>
        <time>2013-08-07T07:23:42.000Z</time>
      </trkpt>
      <trkpt lat="47.70258" lon="6.08508">
        <ele>295.60000610352</ele>
        <time>2013-08-07T07:23:48.000Z</time>
      </trkpt>
      <trkpt lat="47.70276" lon="6.08521">
        <ele>295.79998779297</ele>
        <time>2013-08-07T07:23:56.000Z</time>
      </trkpt>
      <trkpt lat="47.70289" lon="6.08532">
        <ele>296</ele>
        <time>2013-08-07T07:24:02.000Z</time>
      </trkpt>
      <trkpt lat="47.70303" lon="6.08541">
        <ele>296.20001220703</ele>
        <time>2013-08-07T07:24:07.000Z</time>
      </trkpt>
      <trkpt lat="47.70314" lon="6.08553">
        <ele>296.39999389648</ele>
        <time>2013-08-07T07:24:13.000Z</time>
      </trkpt>
      <trkpt lat="47.70328" lon="6.08564">
        <ele>296.79998779297</ele>
        <time>2013-08-07T07:24:19.000Z</time>
      </trkpt>
      <trkpt lat="47.70344" lon="6.08575">
        <ele>297.20001220703</ele>
        <time>2013-08-07T07:24:26.000Z</time>
      </trkpt>
      <trkpt lat="47.70354" lon="6.08583">
        <ele>298</ele>
        <time>2013-08-07T07:24:32.000Z</time>
      </trkpt>
      <trkpt lat="47.70365" lon="6.08591">
        <ele>298.79998779297</ele>
        <time>2013-08-07T07:24:38.000Z</time>
      </trkpt>
      <trkpt lat="47.70379" lon="6.086">
        <ele>299.20001220703</ele>
        <time>2013-08-07T07:24:44.000Z</time>
      </trkpt>
      <trkpt lat="47.70396" lon="6.08615">
        <ele>300</ele>
        <time>2013-08-07T07:24:52.000Z</time>
      </trkpt>
      <trkpt lat="47.7041" lon="6.08628">
        <ele>300.60000610352</ele>
        <time>2013-08-07T07:24:59.000Z</time>
      </trkpt>
      <trkpt lat="47.70424" lon="6.08642">
        <ele>301.39999389648</ele>
        <time>2013-08-07T07:25:06.000Z</time>
      </trkpt>
      <trkpt lat="47.70434" lon="6.08649">
        <ele>301.60000610352</ele>
        <time>2013-08-07T07:25:11.000Z</time>
      </trkpt>
      <trkpt lat="47.70448" lon="6.08661">
        <ele>301.79998779297</ele>
        <time>2013-08-07T07:25:17.000Z</time>
      </trkpt>
      <trkpt lat="47.70467" lon="6.08674">
        <ele>302.39999389648</ele>
        <time>2013-08-07T07:25:24.000Z</time>
      </trkpt>
      <trkpt lat="47.70481" lon="6.08684">
        <ele>302.60000610352</ele>
        <time>2013-08-07T07:25:30.000Z</time>
      </trkpt>
      <trkpt lat="47.70498" lon="6.08699">
        <ele>303</ele>
        <time>2013-08-07T07:25:37.000Z</time>
      </trkpt>
      <trkpt lat="47.70519" lon="6.08716">
        <ele>303.79998779297</ele>
        <time>2013-08-07T07:25:46.000Z</time>
      </trkpt>
      <trkpt lat="47.70536" lon="6.0873">
        <ele>305.20001220703</ele>
        <time>2013-08-07T07:25:54.000Z</time>
      </trkpt>
      <trkpt lat="47.70545" lon="6.08737">
        <ele>305.79998779297</ele>
        <time>2013-08-07T07:26:00.000Z</time>
      </trkpt>
      <trkpt lat="47.70556" lon="6.08747">
        <ele>306.60000610352</ele>
        <time>2013-08-07T07:26:07.000Z</time>
      </trkpt>
      <trkpt lat="47.70571" lon="6.08759">
        <ele>307.79998779297</ele>
        <time>2013-08-07T07:26:14.000Z</time>
      </trkpt>
      <trkpt lat="47.70576" lon="6.08768">
        <ele>308.39999389648</ele>
        <time>2013-08-07T07:26:19.000Z</time>
      </trkpt>
      <trkpt lat="47.70576" lon="6.08784">
        <ele>308.79998779297</ele>
        <time>2013-08-07T07:26:27.000Z</time>
      </trkpt>
      <trkpt lat="47.70578" lon="6.08798">
        <ele>308.60000610352</ele>
        <time>2013-08-07T07:26:32.000Z</time>
      </trkpt>
      <trkpt lat="47.70586" lon="6.08811">
        <ele>309</ele>
        <time>2013-08-07T07:26:38.000Z</time>
      </trkpt>
      <trkpt lat="47.70596" lon="6.08825">
        <ele>309.79998779297</ele>
        <time>2013-08-07T07:26:46.000Z</time>
      </trkpt>
      <trkpt lat="47.70603" lon="6.0884">
        <ele>310.60000610352</ele>
        <time>2013-08-07T07:26:52.000Z</time>
      </trkpt>
      <trkpt lat="47.70613" lon="6.0885">
        <ele>311</ele>
        <time>2013-08-07T07:26:58.000Z</time>
      </trkpt>
      <trkpt lat="47.70624" lon="6.08855">
        <ele>312</ele>
        <time>2013-08-07T07:27:04.000Z</time>
      </trkpt>
      <trkpt lat="47.70635" lon="6.08868">
        <ele>312.79998779297</ele>
        <time>2013-08-07T07:27:11.000Z</time>
      </trkpt>
      <trkpt lat="47.70645" lon="6.08882">
        <ele>313.39999389648</ele>
        <time>2013-08-07T07:27:18.000Z</time>
      </trkpt>
      <trkpt lat="47.70657" lon="6.08894">
        <ele>314</ele>
        <time>2013-08-07T07:27:25.000Z</time>
      </trkpt>
      <trkpt lat="47.70668" lon="6.08908">
        <ele>314.79998779297</ele>
        <time>2013-08-07T07:27:33.000Z</time>
      </trkpt>
      <trkpt lat="47.7068" lon="6.08911">
        <ele>315.39999389648</ele>
        <time>2013-08-07T07:27:39.000Z</time>
      </trkpt>
      <trkpt lat="47.70697" lon="6.08918">
        <ele>316.20001220703</ele>
        <time>2013-08-07T07:27:47.000Z</time>
      </trkpt>
      <trkpt lat="47.70701" lon="6.08921">
        <ele>316.20001220703</ele>
        <time>2013-08-07T07:27:49.000Z</time>
      </trkpt>
      <trkpt lat="47.70709" lon="6.0894">
        <ele>316.60000610352</ele>
        <time>2013-08-07T07:27:56.000Z</time>
      </trkpt>
      <trkpt lat="47.7072" lon="6.08941">
        <ele>317</ele>
        <time>2013-08-07T07:28:01.000Z</time>
      </trkpt>
      <trkpt lat="47.70734" lon="6.08947">
        <ele>317</ele>
        <time>2013-08-07T07:28:07.000Z</time>
      </trkpt>
      <trkpt lat="47.70748" lon="6.08958">
        <ele>316.79998779297</ele>
        <time>2013-08-07T07:28:13.000Z</time>
      </trkpt>
      <trkpt lat="47.70764" lon="6.08957">
        <ele>316.39999389648</ele>
        <time>2013-08-07T07:28:20.000Z</time>
      </trkpt>
      <trkpt lat="47.70767" lon="6.08957">
        <ele>316.39999389648</ele>
        <time>2013-08-07T07:28:22.000Z</time>
      </trkpt>
      <trkpt lat="47.70782" lon="6.08961">
        <ele>316</ele>
        <time>2013-08-07T07:28:28.000Z</time>
      </trkpt>
      <trkpt lat="47.70801" lon="6.08963">
        <ele>315.60000610352</ele>
        <time>2013-08-07T07:28:33.000Z</time>
      </trkpt>
      <trkpt lat="47.70821" lon="6.08972">
        <ele>315</ele>
        <time>2013-08-07T07:28:38.000Z</time>
      </trkpt>
      <trkpt lat="47.70834" lon="6.08982">
        <ele>314.60000610352</ele>
        <time>2013-08-07T07:28:43.000Z</time>
      </trkpt>
      <trkpt lat="47.70848" lon="6.08992">
        <ele>314.20001220703</ele>
        <time>2013-08-07T07:28:47.000Z</time>
      </trkpt>
      <trkpt lat="47.70865" lon="6.08995">
        <ele>313.39999389648</ele>
        <time>2013-08-07T07:28:52.000Z</time>
      </trkpt>
      <trkpt lat="47.70879" lon="6.08994">
        <ele>312.60000610352</ele>
        <time>2013-08-07T07:28:57.000Z</time>
      </trkpt>
      <trkpt lat="47.7089" lon="6.09">
        <ele>311.20001220703</ele>
        <time>2013-08-07T07:29:02.000Z</time>
      </trkpt>
      <trkpt lat="47.70903" lon="6.0901">
        <ele>310.79998779297</ele>
        <time>2013-08-07T07:29:07.000Z</time>
      </trkpt>
      <trkpt lat="47.70917" lon="6.09019">
        <ele>310.39999389648</ele>
        <time>2013-08-07T07:29:11.000Z</time>
      </trkpt>
      <trkpt lat="47.70931" lon="6.09028">
        <ele>309.60000610352</ele>
        <time>2013-08-07T07:29:16.000Z</time>
      </trkpt>
      <trkpt lat="47.70937" lon="6.09032">
        <ele>309.39999389648</ele>
        <time>2013-08-07T07:29:18.000Z</time>
      </trkpt>
      <trkpt lat="47.7095" lon="6.09047">
        <ele>308.60000610352</ele>
        <time>2013-08-07T07:29:23.000Z</time>
      </trkpt>
      <trkpt lat="47.70953" lon="6.09054">
        <ele>308.39999389648</ele>
        <time>2013-08-07T07:29:25.000Z</time>
      </trkpt>
      <trkpt lat="47.70963" lon="6.09076">
        <ele>307.79998779297</ele>
        <time>2013-08-07T07:29:31.000Z</time>
      </trkpt>
      <trkpt lat="47.70971" lon="6.09084">
        <ele>307</ele>
        <time>2013-08-07T07:29:36.000Z</time>
      </trkpt>
      <trkpt lat="47.7098" lon="6.09094">
        <ele>305.60000610352</ele>
        <time>2013-08-07T07:29:40.000Z</time>
      </trkpt>
      <trkpt lat="47.70992" lon="6.09105">
        <ele>303.79998779297</ele>
        <time>2013-08-07T07:29:44.000Z</time>
      </trkpt>
      <trkpt lat="47.71002" lon="6.09115">
        <ele>302.20001220703</ele>
        <time>2013-08-07T07:29:48.000Z</time>
      </trkpt>
      <trkpt lat="47.71006" lon="6.09116">
        <ele>301.60000610352</ele>
        <time>2013-08-07T07:29:51.000Z</time>
      </trkpt>
      <trkpt lat="47.71016" lon="6.09083">
        <ele>300.79998779297</ele>
        <time>2013-08-07T07:30:33.000Z</time>
      </trkpt>
      <trkpt lat="47.71027" lon="6.0906">
        <ele>299.60000610352</ele>
        <time>2013-08-07T07:30:38.000Z</time>
      </trkpt>
      <trkpt lat="47.71037" lon="6.09039">
        <ele>298.60000610352</ele>
        <time>2013-08-07T07:30:42.000Z</time>
      </trkpt>
      <trkpt lat="47.71049" lon="6.09006">
        <ele>297.79998779297</ele>
        <time>2013-08-07T07:30:48.000Z</time>
      </trkpt>
      <trkpt lat="47.71055" lon="6.08973">
        <ele>297</ele>
        <time>2013-08-07T07:30:54.000Z</time>
      </trkpt>
      <trkpt lat="47.71056" lon="6.08944">
        <ele>296.60000610352</ele>
        <time>2013-08-07T07:30:59.000Z</time>
      </trkpt>
      <trkpt lat="47.71051" lon="6.08913">
        <ele>296.39999389648</ele>
        <time>2013-08-07T07:31:05.000Z</time>
      </trkpt>
      <trkpt lat="47.71046" lon="6.08882">
        <ele>296.39999389648</ele>
        <time>2013-08-07T07:31:10.000Z</time>
      </trkpt>
      <trkpt lat="47.71045" lon="6.08858">
        <ele>296.79998779297</ele>
        <time>2013-08-07T07:31:15.000Z</time>
      </trkpt>
      <trkpt lat="47.71037" lon="6.08829">
        <ele>297.79998779297</ele>
        <time>2013-08-07T07:31:21.000Z</time>
      </trkpt>
      <trkpt lat="47.71033" lon="6.08809">
        <ele>298.39999389648</ele>
        <time>2013-08-07T07:31:26.000Z</time>
      </trkpt>
      <trkpt lat="47.71029" lon="6.08791">
        <ele>299</ele>
        <time>2013-08-07T07:31:31.000Z</time>
      </trkpt>
      <trkpt lat="47.71022" lon="6.08768">
        <ele>299.20001220703</ele>
        <time>2013-08-07T07:31:37.000Z</time>
      </trkpt>
      <trkpt lat="47.71015" lon="6.08746">
        <ele>299.60000610352</ele>
        <time>2013-08-07T07:31:44.000Z</time>
      </trkpt>
      <trkpt lat="47.71008" lon="6.08723">
        <ele>299.79998779297</ele>
        <time>2013-08-07T07:31:50.000Z</time>
      </trkpt>
      <trkpt lat="47.71006" lon="6.08706">
        <ele>300.20001220703</ele>
        <time>2013-08-07T07:31:55.000Z</time>
      </trkpt>
      <trkpt lat="47.71001" lon="6.08687">
        <ele>300.60000610352</ele>
        <time>2013-08-07T07:32:00.000Z</time>
      </trkpt>
      <trkpt lat="47.70997" lon="6.08671">
        <ele>301</ele>
        <time>2013-08-07T07:32:05.000Z</time>
      </trkpt>
      <trkpt lat="47.70993" lon="6.08657">
        <ele>301.79998779297</ele>
        <time>2013-08-07T07:32:10.000Z</time>
      </trkpt>
      <trkpt lat="47.70985" lon="6.08634">
        <ele>302.39999389648</ele>
        <time>2013-08-07T07:32:16.000Z</time>
      </trkpt>
      <trkpt lat="47.70978" lon="6.08613">
        <ele>302.79998779297</ele>
        <time>2013-08-07T07:32:23.000Z</time>
      </trkpt>
      <trkpt lat="47.70973" lon="6.08596">
        <ele>303.20001220703</ele>
        <time>2013-08-07T07:32:29.000Z</time>
      </trkpt>
      <trkpt lat="47.70969" lon="6.08582">
        <ele>304</ele>
        <time>2013-08-07T07:32:35.000Z</time>
      </trkpt>
      <trkpt lat="47.70968" lon="6.08576">
        <ele>304.20001220703</ele>
        <time>2013-08-07T07:32:37.000Z</time>
      </trkpt>
      <trkpt lat="47.70962" lon="6.08552">
        <ele>304.79998779297</ele>
        <time>2013-08-07T07:32:45.000Z</time>
      </trkpt>
      <trkpt lat="47.70961" lon="6.08534">
        <ele>304.79998779297</ele>
        <time>2013-08-07T07:32:50.000Z</time>
      </trkpt>
      <trkpt lat="47.7096" lon="6.08515">
        <ele>305.20001220703</ele>
        <time>2013-08-07T07:32:55.000Z</time>
      </trkpt>
      <trkpt lat="47.70957" lon="6.08492">
        <ele>305.79998779297</ele>
        <time>2013-08-07T07:33:00.000Z</time>
      </trkpt>
      <trkpt lat="47.70958" lon="6.08477">
        <ele>306.39999389648</ele>
        <time>2013-08-07T07:33:06.000Z</time>
      </trkpt>
      <trkpt lat="47.70957" lon="6.08461">
        <ele>307.20001220703</ele>
        <time>2013-08-07T07:33:11.000Z</time>
      </trkpt>
      <trkpt lat="47.70962" lon="6.08437">
        <ele>308.20001220703</ele>
        <time>2013-08-07T07:33:19.000Z</time>
      </trkpt>
      <trkpt lat="47.70968" lon="6.08417">
        <ele>309.20001220703</ele>
        <time>2013-08-07T07:33:26.000Z</time>
      </trkpt>
      <trkpt lat="47.7097" lon="6.08401">
        <ele>310</ele>
        <time>2013-08-07T07:33:32.000Z</time>
      </trkpt>
      <trkpt lat="47.70973" lon="6.08383">
        <ele>311.60000610352</ele>
        <time>2013-08-07T07:33:39.000Z</time>
      </trkpt>
      <trkpt lat="47.70976" lon="6.08365">
        <ele>312.20001220703</ele>
        <time>2013-08-07T07:33:46.000Z</time>
      </trkpt>
      <trkpt lat="47.70977" lon="6.0835">
        <ele>312.79998779297</ele>
        <time>2013-08-07T07:33:51.000Z</time>
      </trkpt>
      <trkpt lat="47.70975" lon="6.08324">
        <ele>313.20001220703</ele>
        <time>2013-08-07T07:33:59.000Z</time>
      </trkpt>
      <trkpt lat="47.70979" lon="6.08303">
        <ele>313.60000610352</ele>
        <time>2013-08-07T07:34:06.000Z</time>
      </trkpt>
      <trkpt lat="47.70987" lon="6.08273">
        <ele>313.20001220703</ele>
        <time>2013-08-07T07:34:13.000Z</time>
      </trkpt>
      <trkpt lat="47.70992" lon="6.08251">
        <ele>312.79998779297</ele>
        <time>2013-08-07T07:34:18.000Z</time>
      </trkpt>
      <trkpt lat="47.71001" lon="6.08218">
        <ele>312</ele>
        <time>2013-08-07T07:34:24.000Z</time>
      </trkpt>
      <trkpt lat="47.71013" lon="6.08176">
        <ele>311.20001220703</ele>
        <time>2013-08-07T07:34:30.000Z</time>
      </trkpt>
      <trkpt lat="47.71035" lon="6.0811">
        <ele>310</ele>
        <time>2013-08-07T07:34:40.000Z</time>
      </trkpt>
      <trkpt lat="47.71055" lon="6.08066">
        <ele>308.79998779297</ele>
        <time>2013-08-07T07:34:46.000Z</time>
      </trkpt>
      <trkpt lat="47.71078" lon="6.08003">
        <ele>307</ele>
        <time>2013-08-07T07:34:53.000Z</time>
      </trkpt>
      <trkpt lat="47.71095" lon="6.07951">
        <ele>305.79998779297</ele>
        <time>2013-08-07T07:35:00.000Z</time>
      </trkpt>
      <trkpt lat="47.71097" lon="6.07944">
        <ele>305.60000610352</ele>
        <time>2013-08-07T07:35:01.000Z</time>
      </trkpt>
      <trkpt lat="47.71107" lon="6.07886">
        <ele>303.79998779297</ele>
        <time>2013-08-07T07:35:08.000Z</time>
      </trkpt>
      <trkpt lat="47.71108" lon="6.07878">
        <ele>303.60000610352</ele>
        <time>2013-08-07T07:35:09.000Z</time>
      </trkpt>
      <trkpt lat="47.71124" lon="6.07839">
        <ele>301.60000610352</ele>
        <time>2013-08-07T07:35:15.000Z</time>
      </trkpt>
      <trkpt lat="47.71151" lon="6.07794">
        <ele>299.60000610352</ele>
        <time>2013-08-07T07:35:23.000Z</time>
      </trkpt>
      <trkpt lat="47.71172" lon="6.07755">
        <ele>298.60000610352</ele>
        <time>2013-08-07T07:35:31.000Z</time>
      </trkpt>
      <trkpt lat="47.71175" lon="6.0775">
        <ele>298.39999389648</ele>
        <time>2013-08-07T07:35:32.000Z</time>
      </trkpt>
      <trkpt lat="47.71181" lon="6.07739">
        <ele>298.20001220703</ele>
        <time>2013-08-07T07:35:34.000Z</time>
      </trkpt>
      <trkpt lat="47.71199" lon="6.07721">
        <ele>296.79998779297</ele>
        <time>2013-08-07T07:35:39.000Z</time>
      </trkpt>
      <trkpt lat="47.71235" lon="6.07704">
        <ele>294.60000610352</ele>
        <time>2013-08-07T07:35:47.000Z</time>
      </trkpt>
      <trkpt lat="47.71258" lon="6.07686">
        <ele>293.20001220703</ele>
        <time>2013-08-07T07:35:52.000Z</time>
      </trkpt>
      <trkpt lat="47.71284" lon="6.07677">
        <ele>291.39999389648</ele>
        <time>2013-08-07T07:35:57.000Z</time>
      </trkpt>
      <trkpt lat="47.71307" lon="6.07676">
        <ele>290.39999389648</ele>
        <time>2013-08-07T07:36:01.000Z</time>
      </trkpt>
      <trkpt lat="47.71319" lon="6.07675">
        <ele>290</ele>
        <time>2013-08-07T07:36:03.000Z</time>
      </trkpt>
      <trkpt lat="47.71374" lon="6.07676">
        <ele>287.79998779297</ele>
        <time>2013-08-07T07:36:11.000Z</time>
      </trkpt>
      <trkpt lat="47.7142" lon="6.07649">
        <ele>287</ele>
        <time>2013-08-07T07:36:18.000Z</time>
      </trkpt>
      <trkpt lat="47.71448" lon="6.07629">
        <ele>286.60000610352</ele>
        <time>2013-08-07T07:36:23.000Z</time>
      </trkpt>
      <trkpt lat="47.71463" lon="6.07603">
        <ele>286.20001220703</ele>
        <time>2013-08-07T07:36:27.000Z</time>
      </trkpt>
      <trkpt lat="47.71462" lon="6.07586">
        <ele>285.79998779297</ele>
        <time>2013-08-07T07:36:29.000Z</time>
      </trkpt>
      <trkpt lat="47.71449" lon="6.07511">
        <ele>285</ele>
        <time>2013-08-07T07:36:38.000Z</time>
      </trkpt>
      <trkpt lat="47.71443" lon="6.07464">
        <ele>284</ele>
        <time>2013-08-07T07:36:44.000Z</time>
      </trkpt>
      <trkpt lat="47.71441" lon="6.07457">
        <ele>284</ele>
        <time>2013-08-07T07:36:45.000Z</time>
      </trkpt>
      <trkpt lat="47.71431" lon="6.07413">
        <ele>283.20001220703</ele>
        <time>2013-08-07T07:36:52.000Z</time>
      </trkpt>
      <trkpt lat="47.7143" lon="6.07407">
        <ele>283.20001220703</ele>
        <time>2013-08-07T07:36:53.000Z</time>
      </trkpt>
      <trkpt lat="47.71419" lon="6.07352">
        <ele>282.20001220703</ele>
        <time>2013-08-07T07:37:02.000Z</time>
      </trkpt>
      <trkpt lat="47.71425" lon="6.07337">
        <ele>282</ele>
        <time>2013-08-07T07:37:06.000Z</time>
      </trkpt>
      <trkpt lat="47.71432" lon="6.07325">
        <ele>281.79998779297</ele>
        <time>2013-08-07T07:37:09.000Z</time>
      </trkpt>
      <trkpt lat="47.71437" lon="6.07291">
        <ele>281.60000610352</ele>
        <time>2013-08-07T07:37:14.000Z</time>
      </trkpt>
      <trkpt lat="47.71436" lon="6.07283">
        <ele>281.39999389648</ele>
        <time>2013-08-07T07:37:15.000Z</time>
      </trkpt>
      <trkpt lat="47.71433" lon="6.07267">
        <ele>281</ele>
        <time>2013-08-07T07:37:17.000Z</time>
      </trkpt>
      <trkpt lat="47.71429" lon="6.07253">
        <ele>280.39999389648</ele>
        <time>2013-08-07T07:37:19.000Z</time>
      </trkpt>
      <trkpt lat="47.71418" lon="6.07202">
        <ele>278.39999389648</ele>
        <time>2013-08-07T07:37:26.000Z</time>
      </trkpt>
      <trkpt lat="47.71417" lon="6.07175">
        <ele>278</ele>
        <time>2013-08-07T07:37:29.000Z</time>
      </trkpt>
      <trkpt lat="47.71422" lon="6.07111">
        <ele>276.39999389648</ele>
        <time>2013-08-07T07:37:36.000Z</time>
      </trkpt>
      <trkpt lat="47.71431" lon="6.07028">
        <ele>274.20001220703</ele>
        <time>2013-08-07T07:37:45.000Z</time>
      </trkpt>
      <trkpt lat="47.71438" lon="6.06976">
        <ele>273.39999389648</ele>
        <time>2013-08-07T07:37:52.000Z</time>
      </trkpt>
      <trkpt lat="47.71441" lon="6.06926">
        <ele>272.79998779297</ele>
        <time>2013-08-07T07:38:00.000Z</time>
      </trkpt>
      <trkpt lat="47.71443" lon="6.06865">
        <ele>274.20001220703</ele>
        <time>2013-08-07T07:38:11.000Z</time>
      </trkpt>
      <trkpt lat="47.71446" lon="6.06811">
        <ele>275.60000610352</ele>
        <time>2013-08-07T07:38:22.000Z</time>
      </trkpt>
      <trkpt lat="47.71448" lon="6.0678">
        <ele>277</ele>
        <time>2013-08-07T07:38:29.000Z</time>
      </trkpt>
      <trkpt lat="47.71451" lon="6.06748">
        <ele>277.79998779297</ele>
        <time>2013-08-07T07:38:37.000Z</time>
      </trkpt>
      <trkpt lat="47.71453" lon="6.06712">
        <ele>278.20001220703</ele>
        <time>2013-08-07T07:38:46.000Z</time>
      </trkpt>
      <trkpt lat="47.71456" lon="6.06675">
        <ele>279</ele>
        <time>2013-08-07T07:38:55.000Z</time>
      </trkpt>
      <trkpt lat="47.71458" lon="6.06649">
        <ele>279.39999389648</ele>
        <time>2013-08-07T07:39:01.000Z</time>
      </trkpt>
      <trkpt lat="47.7146" lon="6.06619">
        <ele>279.60000610352</ele>
        <time>2013-08-07T07:39:08.000Z</time>
      </trkpt>
      <trkpt lat="47.7146" lon="6.06584">
        <ele>279.39999389648</ele>
        <time>2013-08-07T07:39:15.000Z</time>
      </trkpt>
      <trkpt lat="47.71464" lon="6.06563">
        <ele>279.20001220703</ele>
        <time>2013-08-07T07:39:20.000Z</time>
      </trkpt>
      <trkpt lat="47.71468" lon="6.06536">
        <ele>279.39999389648</ele>
        <time>2013-08-07T07:39:26.000Z</time>
      </trkpt>
      <trkpt lat="47.71473" lon="6.06514">
        <ele>279.20001220703</ele>
        <time>2013-08-07T07:39:31.000Z</time>
      </trkpt>
      <trkpt lat="47.71479" lon="6.06489">
        <ele>279</ele>
        <time>2013-08-07T07:39:36.000Z</time>
      </trkpt>
      <trkpt lat="47.71487" lon="6.06455">
        <ele>278.39999389648</ele>
        <time>2013-08-07T07:39:42.000Z</time>
      </trkpt>
      <trkpt lat="47.71501" lon="6.06432">
        <ele>277.60000610352</ele>
        <time>2013-08-07T07:39:46.000Z</time>
      </trkpt>
      <trkpt lat="47.71508" lon="6.06414">
        <ele>277.20001220703</ele>
        <time>2013-08-07T07:39:49.000Z</time>
      </trkpt>
      <trkpt lat="47.71515" lon="6.06391">
        <ele>276.79998779297</ele>
        <time>2013-08-07T07:39:52.000Z</time>
      </trkpt>
      <trkpt lat="47.71529" lon="6.06349">
        <ele>275.39999389648</ele>
        <time>2013-08-07T07:39:58.000Z</time>
      </trkpt>
      <trkpt lat="47.71542" lon="6.06305">
        <ele>274</ele>
        <time>2013-08-07T07:40:04.000Z</time>
      </trkpt>
      <trkpt lat="47.71553" lon="6.06263">
        <ele>272.79998779297</ele>
        <time>2013-08-07T07:40:09.000Z</time>
      </trkpt>
      <trkpt lat="47.71564" lon="6.06228">
        <ele>271</ele>
        <time>2013-08-07T07:40:14.000Z</time>
      </trkpt>
      <trkpt lat="47.71581" lon="6.06177">
        <ele>268.39999389648</ele>
        <time>2013-08-07T07:40:20.000Z</time>
      </trkpt>
      <trkpt lat="47.71588" lon="6.06158">
        <ele>267.60000610352</ele>
        <time>2013-08-07T07:40:22.000Z</time>
      </trkpt>
      <trkpt lat="47.71606" lon="6.06106">
        <ele>265.39999389648</ele>
        <time>2013-08-07T07:40:28.000Z</time>
      </trkpt>
      <trkpt lat="47.71609" lon="6.06097">
        <ele>265</ele>
        <time>2013-08-07T07:40:29.000Z</time>
      </trkpt>
      <trkpt lat="47.71616" lon="6.06037">
        <ele>263.20001220703</ele>
        <time>2013-08-07T07:40:35.000Z</time>
      </trkpt>
      <trkpt lat="47.71616" lon="6.06026">
        <ele>262.79998779297</ele>
        <time>2013-08-07T07:40:36.000Z</time>
      </trkpt>
      <trkpt lat="47.71603" lon="6.05938">
        <ele>260</ele>
        <time>2013-08-07T07:40:43.000Z</time>
      </trkpt>
      <trkpt lat="47.7159" lon="6.05848">
        <ele>257.39999389648</ele>
        <time>2013-08-07T07:40:49.000Z</time>
      </trkpt>
      <trkpt lat="47.71587" lon="6.05816">
        <ele>256.79998779297</ele>
        <time>2013-08-07T07:40:52.000Z</time>
      </trkpt>
      <trkpt lat="47.71594" lon="6.0579">
        <ele>255</ele>
        <time>2013-08-07T07:40:56.000Z</time>
      </trkpt>
      <trkpt lat="47.71613" lon="6.0578">
        <ele>253.80000305176</ele>
        <time>2013-08-07T07:41:02.000Z</time>
      </trkpt>
      <trkpt lat="47.71631" lon="6.0578">
        <ele>254</ele>
        <time>2013-08-07T07:41:07.000Z</time>
      </trkpt>
      <trkpt lat="47.71653" lon="6.05777">
        <ele>254.80000305176</ele>
        <time>2013-08-07T07:41:13.000Z</time>
      </trkpt>
      <trkpt lat="47.71665" lon="6.0577">
        <ele>254.80000305176</ele>
        <time>2013-08-07T07:41:18.000Z</time>
      </trkpt>
      <trkpt lat="47.71681" lon="6.05761">
        <ele>255.19999694824</ele>
        <time>2013-08-07T07:41:24.000Z</time>
      </trkpt>
      <trkpt lat="47.71697" lon="6.05758">
        <ele>255.60000610352</ele>
        <time>2013-08-07T07:41:30.000Z</time>
      </trkpt>
      <trkpt lat="47.71712" lon="6.05764">
        <ele>255.60000610352</ele>
        <time>2013-08-07T07:41:36.000Z</time>
      </trkpt>
      <trkpt lat="47.71729" lon="6.0577">
        <ele>255.39999389648</ele>
        <time>2013-08-07T07:41:42.000Z</time>
      </trkpt>
      <trkpt lat="47.71739" lon="6.05769">
        <ele>255.60000610352</ele>
        <time>2013-08-07T07:41:47.000Z</time>
      </trkpt>
      <trkpt lat="47.7175" lon="6.05772">
        <ele>255.60000610352</ele>
        <time>2013-08-07T07:41:53.000Z</time>
      </trkpt>
      <trkpt lat="47.71752" lon="6.05773">
        <ele>255.60000610352</ele>
        <time>2013-08-07T07:41:54.000Z</time>
      </trkpt>
      <trkpt lat="47.71762" lon="6.05779">
        <ele>255.19999694824</ele>
        <time>2013-08-07T07:42:00.000Z</time>
      </trkpt>
      <trkpt lat="47.71775" lon="6.05787">
        <ele>255.39999389648</ele>
        <time>2013-08-07T07:42:06.000Z</time>
      </trkpt>
      <trkpt lat="47.71784" lon="6.05794">
        <ele>255.19999694824</ele>
        <time>2013-08-07T07:42:11.000Z</time>
      </trkpt>
      <trkpt lat="47.71787" lon="6.05797">
        <ele>255</ele>
        <time>2013-08-07T07:42:12.000Z</time>
      </trkpt>
      <trkpt lat="47.71804" lon="6.05806">
        <ele>254.39999389648</ele>
        <time>2013-08-07T07:42:19.000Z</time>
      </trkpt>
      <trkpt lat="47.71818" lon="6.05818">
        <ele>254</ele>
        <time>2013-08-07T07:42:24.000Z</time>
      </trkpt>
      <trkpt lat="47.71821" lon="6.0582">
        <ele>254</ele>
        <time>2013-08-07T07:42:26.000Z</time>
      </trkpt>
      <trkpt lat="47.71842" lon="6.05846">
        <ele>254.19999694824</ele>
        <time>2013-08-07T07:42:51.000Z</time>
      </trkpt>
      <trkpt lat="47.7185" lon="6.05858">
        <ele>254.39999389648</ele>
        <time>2013-08-07T07:42:56.000Z</time>
      </trkpt>
      <trkpt lat="47.71858" lon="6.05872">
        <ele>254.80000305176</ele>
        <time>2013-08-07T07:43:02.000Z</time>
      </trkpt>
      <trkpt lat="47.7186" lon="6.05875">
        <ele>255</ele>
        <time>2013-08-07T07:43:03.000Z</time>
      </trkpt>
      <trkpt lat="47.7187" lon="6.05883">
        <ele>255.39999389648</ele>
        <time>2013-08-07T07:43:08.000Z</time>
      </trkpt>
      <trkpt lat="47.71886" lon="6.05895">
        <ele>256.20001220703</ele>
        <time>2013-08-07T07:43:14.000Z</time>
      </trkpt>
      <trkpt lat="47.71897" lon="6.05907">
        <ele>256.60000610352</ele>
        <time>2013-08-07T07:43:19.000Z</time>
      </trkpt>
      <trkpt lat="47.7191" lon="6.05915">
        <ele>257</ele>
        <time>2013-08-07T07:43:25.000Z</time>
      </trkpt>
      <trkpt lat="47.71919" lon="6.05923">
        <ele>257.39999389648</ele>
        <time>2013-08-07T07:43:31.000Z</time>
      </trkpt>
      <trkpt lat="47.71923" lon="6.05924">
        <ele>257.39999389648</ele>
        <time>2013-08-07T07:43:33.000Z</time>
      </trkpt>
      <trkpt lat="47.71937" lon="6.05928">
        <ele>257.20001220703</ele>
        <time>2013-08-07T07:43:39.000Z</time>
      </trkpt>
      <trkpt lat="47.71953" lon="6.0593">
        <ele>257</ele>
        <time>2013-08-07T07:43:45.000Z</time>
      </trkpt>
      <trkpt lat="47.71964" lon="6.05933">
        <ele>256.79998779297</ele>
        <time>2013-08-07T07:43:50.000Z</time>
      </trkpt>
      <trkpt lat="47.7198" lon="6.05948">
        <ele>256.20001220703</ele>
        <time>2013-08-07T07:43:55.000Z</time>
      </trkpt>
      <trkpt lat="47.71991" lon="6.05958">
        <ele>255.60000610352</ele>
        <time>2013-08-07T07:43:59.000Z</time>
      </trkpt>
      <trkpt lat="47.72002" lon="6.05965">
        <ele>254.60000610352</ele>
        <time>2013-08-07T07:44:03.000Z</time>
      </trkpt>
      <trkpt lat="47.72015" lon="6.05976">
        <ele>253</ele>
        <time>2013-08-07T07:44:08.000Z</time>
      </trkpt>
      <trkpt lat="47.72029" lon="6.05983">
        <ele>251.39999389648</ele>
        <time>2013-08-07T07:44:12.000Z</time>
      </trkpt>
      <trkpt lat="47.72046" lon="6.05993">
        <ele>250.60000610352</ele>
        <time>2013-08-07T07:44:17.000Z</time>
      </trkpt>
      <trkpt lat="47.72062" lon="6.06">
        <ele>249.60000610352</ele>
        <time>2013-08-07T07:44:22.000Z</time>
      </trkpt>
      <trkpt lat="47.72073" lon="6.06008">
        <ele>248.80000305176</ele>
        <time>2013-08-07T07:44:26.000Z</time>
      </trkpt>
      <trkpt lat="47.72091" lon="6.06027">
        <ele>248.19999694824</ele>
        <time>2013-08-07T07:44:31.000Z</time>
      </trkpt>
      <trkpt lat="47.72107" lon="6.06042">
        <ele>247.19999694824</ele>
        <time>2013-08-07T07:44:36.000Z</time>
      </trkpt>
      <trkpt lat="47.7211" lon="6.06047">
        <ele>247</ele>
        <time>2013-08-07T07:44:37.000Z</time>
      </trkpt>
      <trkpt lat="47.72132" lon="6.06068">
        <ele>245.80000305176</ele>
        <time>2013-08-07T07:44:43.000Z</time>
      </trkpt>
      <trkpt lat="47.72143" lon="6.06084">
        <ele>244.60000610352</ele>
        <time>2013-08-07T07:44:48.000Z</time>
      </trkpt>
      <trkpt lat="47.72149" lon="6.06099">
        <ele>244</ele>
        <time>2013-08-07T07:44:52.000Z</time>
      </trkpt>
      <trkpt lat="47.72163" lon="6.06114">
        <ele>243.60000610352</ele>
        <time>2013-08-07T07:44:58.000Z</time>
      </trkpt>
      <trkpt lat="47.72183" lon="6.06136">
        <ele>243.39999389648</ele>
        <time>2013-08-07T07:45:07.000Z</time>
      </trkpt>
      <trkpt lat="47.72194" lon="6.06141">
        <ele>244</ele>
        <time>2013-08-07T07:45:13.000Z</time>
      </trkpt>
      <trkpt lat="47.72201" lon="6.06144">
        <ele>244.60000610352</ele>
        <time>2013-08-07T07:45:17.000Z</time>
      </trkpt>
      <trkpt lat="47.72211" lon="6.06151">
        <ele>245.80000305176</ele>
        <time>2013-08-07T07:45:24.000Z</time>
      </trkpt>
      <trkpt lat="47.72221" lon="6.06156">
        <ele>246.19999694824</ele>
        <time>2013-08-07T07:45:30.000Z</time>
      </trkpt>
      <trkpt lat="47.72231" lon="6.06158">
        <ele>246.60000610352</ele>
        <time>2013-08-07T07:45:36.000Z</time>
      </trkpt>
      <trkpt lat="47.72243" lon="6.06158">
        <ele>247.60000610352</ele>
        <time>2013-08-07T07:45:43.000Z</time>
      </trkpt>
      <trkpt lat="47.72257" lon="6.06155">
        <ele>248.60000610352</ele>
        <time>2013-08-07T07:45:50.000Z</time>
      </trkpt>
      <trkpt lat="47.72268" lon="6.0615">
        <ele>249</ele>
        <time>2013-08-07T07:45:56.000Z</time>
      </trkpt>
      <trkpt lat="47.72277" lon="6.06143">
        <ele>249</ele>
        <time>2013-08-07T07:46:01.000Z</time>
      </trkpt>
      <trkpt lat="47.72282" lon="6.06141">
        <ele>249</ele>
        <time>2013-08-07T07:46:04.000Z</time>
      </trkpt>
      <trkpt lat="47.72286" lon="6.06142">
        <ele>249.19999694824</ele>
        <time>2013-08-07T07:46:08.000Z</time>
      </trkpt>
      <trkpt lat="47.7229" lon="6.06143">
        <ele>249.19999694824</ele>
        <time>2013-08-07T07:46:12.000Z</time>
      </trkpt>
      <trkpt lat="47.72306" lon="6.06147">
        <ele>249.60000610352</ele>
        <time>2013-08-07T07:47:25.000Z</time>
      </trkpt>
      <trkpt lat="47.72328" lon="6.0615">
        <ele>250.19999694824</ele>
        <time>2013-08-07T07:47:34.000Z</time>
      </trkpt>
      <trkpt lat="47.72355" lon="6.06153">
        <ele>250.80000305176</ele>
        <time>2013-08-07T07:47:43.000Z</time>
      </trkpt>
      <trkpt lat="47.72387" lon="6.0616">
        <ele>250.80000305176</ele>
        <time>2013-08-07T07:47:52.000Z</time>
      </trkpt>
      <trkpt lat="47.72412" lon="6.06175">
        <ele>251.19999694824</ele>
        <time>2013-08-07T07:47:58.000Z</time>
      </trkpt>
      <trkpt lat="47.72454" lon="6.06203">
        <ele>251</ele>
        <time>2013-08-07T07:48:07.000Z</time>
      </trkpt>
      <trkpt lat="47.72489" lon="6.06223">
        <ele>251.60000610352</ele>
        <time>2013-08-07T07:48:15.000Z</time>
      </trkpt>
      <trkpt lat="47.72517" lon="6.06241">
        <ele>252.19999694824</ele>
        <time>2013-08-07T07:48:24.000Z</time>
      </trkpt>
      <trkpt lat="47.72544" lon="6.06259">
        <ele>253</ele>
        <time>2013-08-07T07:48:34.000Z</time>
      </trkpt>
      <trkpt lat="47.72567" lon="6.06277">
        <ele>253.60000610352</ele>
        <time>2013-08-07T07:48:42.000Z</time>
      </trkpt>
      <trkpt lat="47.72593" lon="6.06298">
        <ele>254</ele>
        <time>2013-08-07T07:48:50.000Z</time>
      </trkpt>
      <trkpt lat="47.72597" lon="6.06301">
        <ele>254</ele>
        <time>2013-08-07T07:48:51.000Z</time>
      </trkpt>
      <trkpt lat="47.72616" lon="6.06322">
        <ele>253</ele>
        <time>2013-08-07T07:48:57.000Z</time>
      </trkpt>
      <trkpt lat="47.72632" lon="6.06342">
        <ele>251</ele>
        <time>2013-08-07T07:49:03.000Z</time>
      </trkpt>
      <trkpt lat="47.72645" lon="6.0636">
        <ele>249.39999389648</ele>
        <time>2013-08-07T07:49:08.000Z</time>
      </trkpt>
      <trkpt lat="47.7267" lon="6.06377">
        <ele>247.39999389648</ele>
        <time>2013-08-07T07:49:14.000Z</time>
      </trkpt>
      <trkpt lat="47.72702" lon="6.06395">
        <ele>245.80000305176</ele>
        <time>2013-08-07T07:49:21.000Z</time>
      </trkpt>
      <trkpt lat="47.72715" lon="6.06397">
        <ele>244.60000610352</ele>
        <time>2013-08-07T07:49:25.000Z</time>
      </trkpt>
      <trkpt lat="47.72729" lon="6.064">
        <ele>242</ele>
        <time>2013-08-07T07:49:31.000Z</time>
      </trkpt>
      <trkpt lat="47.72733" lon="6.064">
        <ele>241.39999389648</ele>
        <time>2013-08-07T07:49:33.000Z</time>
      </trkpt>
      <trkpt lat="47.72752" lon="6.06404">
        <ele>239</ele>
        <time>2013-08-07T07:49:39.000Z</time>
      </trkpt>
      <trkpt lat="47.72771" lon="6.06404">
        <ele>237.39999389648</ele>
        <time>2013-08-07T07:49:44.000Z</time>
      </trkpt>
      <trkpt lat="47.72793" lon="6.06389">
        <ele>236.19999694824</ele>
        <time>2013-08-07T07:49:49.000Z</time>
      </trkpt>
      <trkpt lat="47.72805" lon="6.06381">
        <ele>235.60000610352</ele>
        <time>2013-08-07T07:49:52.000Z</time>
      </trkpt>
      <trkpt lat="47.72826" lon="6.06358">
        <ele>235.39999389648</ele>
        <time>2013-08-07T07:49:58.000Z</time>
      </trkpt>
      <trkpt lat="47.72834" lon="6.06345">
        <ele>236.19999694824</ele>
        <time>2013-08-07T07:50:02.000Z</time>
      </trkpt>
      <trkpt lat="47.72843" lon="6.06331">
        <ele>237.39999389648</ele>
        <time>2013-08-07T07:50:08.000Z</time>
      </trkpt>
      <trkpt lat="47.72849" lon="6.0632">
        <ele>238.19999694824</ele>
        <time>2013-08-07T07:50:13.000Z</time>
      </trkpt>
      <trkpt lat="47.72856" lon="6.06308">
        <ele>238.80000305176</ele>
        <time>2013-08-07T07:50:18.000Z</time>
      </trkpt>
      <trkpt lat="47.72864" lon="6.06292">
        <ele>239.60000610352</ele>
        <time>2013-08-07T07:50:23.000Z</time>
      </trkpt>
      <trkpt lat="47.72874" lon="6.06269">
        <ele>240.60000610352</ele>
        <time>2013-08-07T07:50:29.000Z</time>
      </trkpt>
      <trkpt lat="47.72886" lon="6.06245">
        <ele>241</ele>
        <time>2013-08-07T07:50:36.000Z</time>
      </trkpt>
      <trkpt lat="47.72894" lon="6.06229">
        <ele>241.19999694824</ele>
        <time>2013-08-07T07:50:40.000Z</time>
      </trkpt>
      <trkpt lat="47.72908" lon="6.06206">
        <ele>241.60000610352</ele>
        <time>2013-08-07T07:50:46.000Z</time>
      </trkpt>
      <trkpt lat="47.72922" lon="6.0619">
        <ele>241.80000305176</ele>
        <time>2013-08-07T07:50:51.000Z</time>
      </trkpt>
      <trkpt lat="47.72939" lon="6.06177">
        <ele>242.19999694824</ele>
        <time>2013-08-07T07:50:56.000Z</time>
      </trkpt>
      <trkpt lat="47.72961" lon="6.06169">
        <ele>242.60000610352</ele>
        <time>2013-08-07T07:51:03.000Z</time>
      </trkpt>
      <trkpt lat="47.72987" lon="6.06162">
        <ele>243.60000610352</ele>
        <time>2013-08-07T07:51:12.000Z</time>
      </trkpt>
      <trkpt lat="47.73011" lon="6.06157">
        <ele>245.39999389648</ele>
        <time>2013-08-07T07:51:22.000Z</time>
      </trkpt>
      <trkpt lat="47.73025" lon="6.06157">
        <ele>246.39999389648</ele>
        <time>2013-08-07T07:51:28.000Z</time>
      </trkpt>
      <trkpt lat="47.73045" lon="6.06155">
        <ele>248</ele>
        <time>2013-08-07T07:51:37.000Z</time>
      </trkpt>
      <trkpt lat="47.73071" lon="6.06158">
        <ele>249.60000610352</ele>
        <time>2013-08-07T07:51:48.000Z</time>
      </trkpt>
      <trkpt lat="47.73097" lon="6.06166">
        <ele>250.60000610352</ele>
        <time>2013-08-07T07:51:58.000Z</time>
      </trkpt>
      <trkpt lat="47.73115" lon="6.06176">
        <ele>251.39999389648</ele>
        <time>2013-08-07T07:52:05.000Z</time>
      </trkpt>
      <trkpt lat="47.73135" lon="6.0619">
        <ele>252</ele>
        <time>2013-08-07T07:52:13.000Z</time>
      </trkpt>
      <trkpt lat="47.73152" lon="6.06199">
        <ele>251.80000305176</ele>
        <time>2013-08-07T07:52:20.000Z</time>
      </trkpt>
      <trkpt lat="47.73172" lon="6.06218">
        <ele>251</ele>
        <time>2013-08-07T07:52:27.000Z</time>
      </trkpt>
      <trkpt lat="47.7319" lon="6.0624">
        <ele>251</ele>
        <time>2013-08-07T07:52:34.000Z</time>
      </trkpt>
      <trkpt lat="47.7321" lon="6.06257">
        <ele>250.80000305176</ele>
        <time>2013-08-07T07:52:41.000Z</time>
      </trkpt>
      <trkpt lat="47.73229" lon="6.0626">
        <ele>250.60000610352</ele>
        <time>2013-08-07T07:52:47.000Z</time>
      </trkpt>
      <trkpt lat="47.73251" lon="6.06257">
        <ele>251</ele>
        <time>2013-08-07T07:52:55.000Z</time>
      </trkpt>
      <trkpt lat="47.73266" lon="6.06263">
        <ele>251.60000610352</ele>
        <time>2013-08-07T07:53:02.000Z</time>
      </trkpt>
      <trkpt lat="47.73279" lon="6.06276">
        <ele>251.80000305176</ele>
        <time>2013-08-07T07:53:09.000Z</time>
      </trkpt>
      <trkpt lat="47.73296" lon="6.0629">
        <ele>252.39999389648</ele>
        <time>2013-08-07T07:53:16.000Z</time>
      </trkpt>
      <trkpt lat="47.73315" lon="6.06305">
        <ele>252.60000610352</ele>
        <time>2013-08-07T07:53:25.000Z</time>
      </trkpt>
      <trkpt lat="47.73335" lon="6.0632">
        <ele>252.19999694824</ele>
        <time>2013-08-07T07:53:33.000Z</time>
      </trkpt>
      <trkpt lat="47.73355" lon="6.06332">
        <ele>251.60000610352</ele>
        <time>2013-08-07T07:53:40.000Z</time>
      </trkpt>
      <trkpt lat="47.73367" lon="6.06335">
        <ele>251</ele>
        <time>2013-08-07T07:53:43.000Z</time>
      </trkpt>
      <trkpt lat="47.73407" lon="6.06351">
        <ele>250</ele>
        <time>2013-08-07T07:53:52.000Z</time>
      </trkpt>
      <trkpt lat="47.7344" lon="6.06364">
        <ele>249.19999694824</ele>
        <time>2013-08-07T07:53:59.000Z</time>
      </trkpt>
      <trkpt lat="47.73468" lon="6.06374">
        <ele>249.19999694824</ele>
        <time>2013-08-07T07:54:06.000Z</time>
      </trkpt>
      <trkpt lat="47.7348" lon="6.06383">
        <ele>250.39999389648</ele>
        <time>2013-08-07T07:54:11.000Z</time>
      </trkpt>
      <trkpt lat="47.73488" lon="6.06382">
        <ele>251.19999694824</ele>
        <time>2013-08-07T07:54:15.000Z</time>
      </trkpt>
      <trkpt lat="47.73504" lon="6.06377">
        <ele>251.19999694824</ele>
        <time>2013-08-07T07:54:21.000Z</time>
      </trkpt>
      <trkpt lat="47.73522" lon="6.06366">
        <ele>251.39999389648</ele>
        <time>2013-08-07T07:54:28.000Z</time>
      </trkpt>
      <trkpt lat="47.73536" lon="6.06381">
        <ele>251.80000305176</ele>
        <time>2013-08-07T07:54:34.000Z</time>
      </trkpt>
      <trkpt lat="47.73552" lon="6.06407">
        <ele>252.19999694824</ele>
        <time>2013-08-07T07:54:42.000Z</time>
      </trkpt>
      <trkpt lat="47.7356" lon="6.06435">
        <ele>253</ele>
        <time>2013-08-07T07:54:50.000Z</time>
      </trkpt>
      <trkpt lat="47.73566" lon="6.06454">
        <ele>253.19999694824</ele>
        <time>2013-08-07T07:54:56.000Z</time>
      </trkpt>
      <trkpt lat="47.73568" lon="6.06462">
        <ele>252.80000305176</ele>
        <time>2013-08-07T07:55:00.000Z</time>
      </trkpt>
      <trkpt lat="47.73569" lon="6.06477">
        <ele>253</ele>
        <time>2013-08-07T07:56:03.000Z</time>
      </trkpt>
      <trkpt lat="47.73578" lon="6.06499">
        <ele>253.60000610352</ele>
        <time>2013-08-07T07:56:11.000Z</time>
      </trkpt>
      <trkpt lat="47.73595" lon="6.06533">
        <ele>254.39999389648</ele>
        <time>2013-08-07T07:56:22.000Z</time>
      </trkpt>
      <trkpt lat="47.73615" lon="6.06559">
        <ele>254</ele>
        <time>2013-08-07T07:56:31.000Z</time>
      </trkpt>
      <trkpt lat="47.73628" lon="6.06565">
        <ele>253.80000305176</ele>
        <time>2013-08-07T07:56:35.000Z</time>
      </trkpt>
      <trkpt lat="47.73629" lon="6.06583">
        <ele>253.60000610352</ele>
        <time>2013-08-07T07:56:39.000Z</time>
      </trkpt>
      <trkpt lat="47.73611" lon="6.06621">
        <ele>255.19999694824</ele>
        <time>2013-08-07T07:56:49.000Z</time>
      </trkpt>
      <trkpt lat="47.73591" lon="6.06649">
        <ele>257.39999389648</ele>
        <time>2013-08-07T07:56:59.000Z</time>
      </trkpt>
      <trkpt lat="47.7357" lon="6.06673">
        <ele>259</ele>
        <time>2013-08-07T07:57:08.000Z</time>
      </trkpt>
      <trkpt lat="47.73549" lon="6.06695">
        <ele>260.20001220703</ele>
        <time>2013-08-07T07:57:17.000Z</time>
      </trkpt>
      <trkpt lat="47.73521" lon="6.06724">
        <ele>261.20001220703</ele>
        <time>2013-08-07T07:57:28.000Z</time>
      </trkpt>
      <trkpt lat="47.73493" lon="6.06753">
        <ele>261.39999389648</ele>
        <time>2013-08-07T07:57:38.000Z</time>
      </trkpt>
      <trkpt lat="47.73469" lon="6.06779">
        <ele>261</ele>
        <time>2013-08-07T07:57:47.000Z</time>
      </trkpt>
      <trkpt lat="47.73451" lon="6.06798">
        <ele>261</ele>
        <time>2013-08-07T07:57:53.000Z</time>
      </trkpt>
      <trkpt lat="47.73428" lon="6.0683">
        <ele>261</ele>
        <time>2013-08-07T07:58:02.000Z</time>
      </trkpt>
      <trkpt lat="47.73407" lon="6.06866">
        <ele>260.60000610352</ele>
        <time>2013-08-07T07:58:10.000Z</time>
      </trkpt>
      <trkpt lat="47.7339" lon="6.06899">
        <ele>259.79998779297</ele>
        <time>2013-08-07T07:58:17.000Z</time>
      </trkpt>
      <trkpt lat="47.73378" lon="6.06933">
        <ele>259.60000610352</ele>
        <time>2013-08-07T07:58:25.000Z</time>
      </trkpt>
      <trkpt lat="47.73367" lon="6.06971">
        <ele>260</ele>
        <time>2013-08-07T07:58:33.000Z</time>
      </trkpt>
      <trkpt lat="47.73363" lon="6.07013">
        <ele>259.60000610352</ele>
        <time>2013-08-07T07:58:40.000Z</time>
      </trkpt>
      <trkpt lat="47.73367" lon="6.07069">
        <ele>258.39999389648</ele>
        <time>2013-08-07T07:58:47.000Z</time>
      </trkpt>
      <trkpt lat="47.73367" lon="6.07077">
        <ele>258.20001220703</ele>
        <time>2013-08-07T07:58:48.000Z</time>
      </trkpt>
      <trkpt lat="47.73359" lon="6.0712">
        <ele>257</ele>
        <time>2013-08-07T07:58:54.000Z</time>
      </trkpt>
      <trkpt lat="47.73349" lon="6.0716">
        <ele>256.60000610352</ele>
        <time>2013-08-07T07:59:01.000Z</time>
      </trkpt>
      <trkpt lat="47.73343" lon="6.07197">
        <ele>257.20001220703</ele>
        <time>2013-08-07T07:59:07.000Z</time>
      </trkpt>
      <trkpt lat="47.73338" lon="6.07247">
        <ele>258.20001220703</ele>
        <time>2013-08-07T07:59:15.000Z</time>
      </trkpt>
      <trkpt lat="47.73333" lon="6.07292">
        <ele>259.39999389648</ele>
        <time>2013-08-07T07:59:24.000Z</time>
      </trkpt>
      <trkpt lat="47.73331" lon="6.07325">
        <ele>260</ele>
        <time>2013-08-07T07:59:31.000Z</time>
      </trkpt>
      <trkpt lat="47.73328" lon="6.07364">
        <ele>259.60000610352</ele>
        <time>2013-08-07T07:59:38.000Z</time>
      </trkpt>
      <trkpt lat="47.73325" lon="6.07392">
        <ele>259.20001220703</ele>
        <time>2013-08-07T07:59:43.000Z</time>
      </trkpt>
      <trkpt lat="47.73319" lon="6.07449">
        <ele>258.60000610352</ele>
        <time>2013-08-07T07:59:52.000Z</time>
      </trkpt>
      <trkpt lat="47.73318" lon="6.07478">
        <ele>258.39999389648</ele>
        <time>2013-08-07T07:59:58.000Z</time>
      </trkpt>
      <trkpt lat="47.73315" lon="6.07517">
        <ele>258.60000610352</ele>
        <time>2013-08-07T08:00:05.000Z</time>
      </trkpt>
      <trkpt lat="47.73307" lon="6.07562">
        <ele>259.79998779297</ele>
        <time>2013-08-07T08:00:14.000Z</time>
      </trkpt>
      <trkpt lat="47.73299" lon="6.07594">
        <ele>260.39999389648</ele>
        <time>2013-08-07T08:00:22.000Z</time>
      </trkpt>
      <trkpt lat="47.7329" lon="6.07625">
        <ele>261.60000610352</ele>
        <time>2013-08-07T08:00:29.000Z</time>
      </trkpt>
      <trkpt lat="47.73276" lon="6.07657">
        <ele>263</ele>
        <time>2013-08-07T08:00:36.000Z</time>
      </trkpt>
      <trkpt lat="47.73257" lon="6.07678">
        <ele>263.79998779297</ele>
        <time>2013-08-07T08:00:42.000Z</time>
      </trkpt>
      <trkpt lat="47.73237" lon="6.07688">
        <ele>264.39999389648</ele>
        <time>2013-08-07T08:00:48.000Z</time>
      </trkpt>
      <trkpt lat="47.73229" lon="6.07697">
        <ele>264.79998779297</ele>
        <time>2013-08-07T08:00:52.000Z</time>
      </trkpt>
      <trkpt lat="47.73221" lon="6.07716">
        <ele>264.79998779297</ele>
        <time>2013-08-07T08:00:57.000Z</time>
      </trkpt>
      <trkpt lat="47.73202" lon="6.07737">
        <ele>265</ele>
        <time>2013-08-07T08:01:05.000Z</time>
      </trkpt>
      <trkpt lat="47.73189" lon="6.07757">
        <ele>264.20001220703</ele>
        <time>2013-08-07T08:01:11.000Z</time>
      </trkpt>
      <trkpt lat="47.73174" lon="6.07791">
        <ele>263.20001220703</ele>
        <time>2013-08-07T08:01:19.000Z</time>
      </trkpt>
      <trkpt lat="47.73165" lon="6.07815">
        <ele>262.39999389648</ele>
        <time>2013-08-07T08:01:24.000Z</time>
      </trkpt>
      <trkpt lat="47.73149" lon="6.07854">
        <ele>261.20001220703</ele>
        <time>2013-08-07T08:01:31.000Z</time>
      </trkpt>
      <trkpt lat="47.73135" lon="6.07893">
        <ele>260.20001220703</ele>
        <time>2013-08-07T08:01:38.000Z</time>
      </trkpt>
      <trkpt lat="47.73123" lon="6.07918">
        <ele>259.79998779297</ele>
        <time>2013-08-07T08:01:44.000Z</time>
      </trkpt>
      <trkpt lat="47.73112" lon="6.07943">
        <ele>259.39999389648</ele>
        <time>2013-08-07T08:01:52.000Z</time>
      </trkpt>
      <trkpt lat="47.73101" lon="6.0797">
        <ele>259.60000610352</ele>
        <time>2013-08-07T08:02:01.000Z</time>
      </trkpt>
      <trkpt lat="47.73093" lon="6.07994">
        <ele>259.79998779297</ele>
        <time>2013-08-07T08:02:09.000Z</time>
      </trkpt>
      <trkpt lat="47.73085" lon="6.08019">
        <ele>259.79998779297</ele>
        <time>2013-08-07T08:02:17.000Z</time>
      </trkpt>
      <trkpt lat="47.73076" lon="6.08049">
        <ele>259.79998779297</ele>
        <time>2013-08-07T08:02:27.000Z</time>
      </trkpt>
      <trkpt lat="47.7307" lon="6.08074">
        <ele>260.39999389648</ele>
        <time>2013-08-07T08:02:36.000Z</time>
      </trkpt>
      <trkpt lat="47.73067" lon="6.08093">
        <ele>260.60000610352</ele>
        <time>2013-08-07T08:02:43.000Z</time>
      </trkpt>
      <trkpt lat="47.73063" lon="6.08117">
        <ele>261</ele>
        <time>2013-08-07T08:02:52.000Z</time>
      </trkpt>
      <trkpt lat="47.73059" lon="6.0814">
        <ele>261.79998779297</ele>
        <time>2013-08-07T08:03:01.000Z</time>
      </trkpt>
      <trkpt lat="47.73055" lon="6.0816">
        <ele>262</ele>
        <time>2013-08-07T08:03:09.000Z</time>
      </trkpt>
      <trkpt lat="47.73053" lon="6.08182">
        <ele>262.79998779297</ele>
        <time>2013-08-07T08:03:17.000Z</time>
      </trkpt>
      <trkpt lat="47.73049" lon="6.08208">
        <ele>263.39999389648</ele>
        <time>2013-08-07T08:03:25.000Z</time>
      </trkpt>
      <trkpt lat="47.73046" lon="6.08229">
        <ele>264.39999389648</ele>
        <time>2013-08-07T08:03:33.000Z</time>
      </trkpt>
      <trkpt lat="47.73045" lon="6.08236">
        <ele>264.79998779297</ele>
        <time>2013-08-07T08:03:36.000Z</time>
      </trkpt>
      <trkpt lat="47.73043" lon="6.08243">
        <ele>265</ele>
        <time>2013-08-07T08:03:41.000Z</time>
      </trkpt>
      <trkpt lat="47.73041" lon="6.08253">
        <ele>265</ele>
        <time>2013-08-07T08:03:46.000Z</time>
      </trkpt>
      <trkpt lat="47.7304" lon="6.08265">
        <ele>265.39999389648</ele>
        <time>2013-08-07T08:03:52.000Z</time>
      </trkpt>
      <trkpt lat="47.73039" lon="6.08273">
        <ele>265.60000610352</ele>
        <time>2013-08-07T08:03:57.000Z</time>
      </trkpt>
      <trkpt lat="47.73039" lon="6.08275">
        <ele>265.60000610352</ele>
        <time>2013-08-07T08:03:58.000Z</time>
      </trkpt>
      <trkpt lat="47.73038" lon="6.08289">
        <ele>265.60000610352</ele>
        <time>2013-08-07T08:04:05.000Z</time>
      </trkpt>
      <trkpt lat="47.73033" lon="6.08305">
        <ele>265.79998779297</ele>
        <time>2013-08-07T08:04:12.000Z</time>
      </trkpt>
      <trkpt lat="47.73029" lon="6.08323">
        <ele>266</ele>
        <time>2013-08-07T08:04:18.000Z</time>
      </trkpt>
      <trkpt lat="47.73027" lon="6.08339">
        <ele>265.79998779297</ele>
        <time>2013-08-07T08:04:23.000Z</time>
      </trkpt>
      <trkpt lat="47.73027" lon="6.08353">
        <ele>265.79998779297</ele>
        <time>2013-08-07T08:04:27.000Z</time>
      </trkpt>
      <trkpt lat="47.73026" lon="6.08369">
        <ele>265.60000610352</ele>
        <time>2013-08-07T08:04:33.000Z</time>
      </trkpt>
      <trkpt lat="47.73028" lon="6.08387">
        <ele>265.39999389648</ele>
        <time>2013-08-07T08:04:38.000Z</time>
      </trkpt>
      <trkpt lat="47.7303" lon="6.08411">
        <ele>264.39999389648</ele>
        <time>2013-08-07T08:04:44.000Z</time>
      </trkpt>
      <trkpt lat="47.73034" lon="6.08433">
        <ele>263.39999389648</ele>
        <time>2013-08-07T08:04:49.000Z</time>
      </trkpt>
      <trkpt lat="47.73038" lon="6.08447">
        <ele>262.39999389648</ele>
        <time>2013-08-07T08:04:53.000Z</time>
      </trkpt>
      <trkpt lat="47.73042" lon="6.08477">
        <ele>261.20001220703</ele>
        <time>2013-08-07T08:05:00.000Z</time>
      </trkpt>
      <trkpt lat="47.73043" lon="6.08506">
        <ele>260.60000610352</ele>
        <time>2013-08-07T08:05:06.000Z</time>
      </trkpt>
      <trkpt lat="47.73044" lon="6.08532">
        <ele>261.20001220703</ele>
        <time>2013-08-07T08:05:13.000Z</time>
      </trkpt>
      <trkpt lat="47.73044" lon="6.08535">
        <ele>261.39999389648</ele>
        <time>2013-08-07T08:05:14.000Z</time>
      </trkpt>
      <trkpt lat="47.73044" lon="6.08556">
        <ele>261.79998779297</ele>
        <time>2013-08-07T08:05:21.000Z</time>
      </trkpt>
      <trkpt lat="47.73043" lon="6.08557">
        <ele>262</ele>
        <time>2013-08-07T08:05:22.000Z</time>
      </trkpt>
      <trkpt lat="47.73044" lon="6.08586">
        <ele>262.60000610352</ele>
        <time>2013-08-07T08:05:29.000Z</time>
      </trkpt>
      <trkpt lat="47.73044" lon="6.08596">
        <ele>262.60000610352</ele>
        <time>2013-08-07T08:05:32.000Z</time>
      </trkpt>
      <trkpt lat="47.73047" lon="6.08618">
        <ele>262.79998779297</ele>
        <time>2013-08-07T08:05:38.000Z</time>
      </trkpt>
      <trkpt lat="47.73046" lon="6.08634">
        <ele>262.60000610352</ele>
        <time>2013-08-07T08:05:42.000Z</time>
      </trkpt>
      <trkpt lat="47.73044" lon="6.08647">
        <ele>262.39999389648</ele>
        <time>2013-08-07T08:05:46.000Z</time>
      </trkpt>
      <trkpt lat="47.73033" lon="6.08668">
        <ele>262</ele>
        <time>2013-08-07T08:05:52.000Z</time>
      </trkpt>
      <trkpt lat="47.73022" lon="6.0869">
        <ele>261</ele>
        <time>2013-08-07T08:05:58.000Z</time>
      </trkpt>
      <trkpt lat="47.73018" lon="6.08704">
        <ele>259.79998779297</ele>
        <time>2013-08-07T08:06:02.000Z</time>
      </trkpt>
      <trkpt lat="47.73015" lon="6.08717">
        <ele>259.20001220703</ele>
        <time>2013-08-07T08:06:07.000Z</time>
      </trkpt>
      <trkpt lat="47.73012" lon="6.08732">
        <ele>258.79998779297</ele>
        <time>2013-08-07T08:06:12.000Z</time>
      </trkpt>
      <trkpt lat="47.73009" lon="6.08741">
        <ele>258.79998779297</ele>
        <time>2013-08-07T08:06:15.000Z</time>
      </trkpt>
      <trkpt lat="47.73008" lon="6.08758">
        <ele>258.39999389648</ele>
        <time>2013-08-07T08:06:21.000Z</time>
      </trkpt>
      <trkpt lat="47.73005" lon="6.0877">
        <ele>258</ele>
        <time>2013-08-07T08:06:27.000Z</time>
      </trkpt>
      <trkpt lat="47.73005" lon="6.08773">
        <ele>258</ele>
        <time>2013-08-07T08:06:28.000Z</time>
      </trkpt>
      <trkpt lat="47.73004" lon="6.08785">
        <ele>257.79998779297</ele>
        <time>2013-08-07T08:06:33.000Z</time>
      </trkpt>
      <trkpt lat="47.73005" lon="6.08796">
        <ele>257.39999389648</ele>
        <time>2013-08-07T08:06:37.000Z</time>
      </trkpt>
      <trkpt lat="47.73006" lon="6.08807">
        <ele>257</ele>
        <time>2013-08-07T08:06:41.000Z</time>
      </trkpt>
      <trkpt lat="47.73007" lon="6.08825">
        <ele>256.20001220703</ele>
        <time>2013-08-07T08:06:48.000Z</time>
      </trkpt>
      <trkpt lat="47.73008" lon="6.08834">
        <ele>255.60000610352</ele>
        <time>2013-08-07T08:06:51.000Z</time>
      </trkpt>
      <trkpt lat="47.73001" lon="6.08854">
        <ele>254</ele>
        <time>2013-08-07T08:06:59.000Z</time>
      </trkpt>
      <trkpt lat="47.72999" lon="6.08859">
        <ele>253.39999389648</ele>
        <time>2013-08-07T08:07:02.000Z</time>
      </trkpt>
      <trkpt lat="47.72996" lon="6.08869">
        <ele>252.80000305176</ele>
        <time>2013-08-07T08:07:18.000Z</time>
      </trkpt>
      <trkpt lat="47.72998" lon="6.08882">
        <ele>252.80000305176</ele>
        <time>2013-08-07T08:07:25.000Z</time>
      </trkpt>
      <trkpt lat="47.73005" lon="6.08898">
        <ele>253.19999694824</ele>
        <time>2013-08-07T08:07:31.000Z</time>
      </trkpt>
      <trkpt lat="47.73018" lon="6.0892">
        <ele>253.80000305176</ele>
        <time>2013-08-07T08:07:40.000Z</time>
      </trkpt>
      <trkpt lat="47.73025" lon="6.08935">
        <ele>254</ele>
        <time>2013-08-07T08:07:46.000Z</time>
      </trkpt>
      <trkpt lat="47.73034" lon="6.08955">
        <ele>254.60000610352</ele>
        <time>2013-08-07T08:07:54.000Z</time>
      </trkpt>
      <trkpt lat="47.73041" lon="6.08966">
        <ele>255</ele>
        <time>2013-08-07T08:07:59.000Z</time>
      </trkpt>
      <trkpt lat="47.73045" lon="6.08974">
        <ele>255.60000610352</ele>
        <time>2013-08-07T08:08:03.000Z</time>
      </trkpt>
      <trkpt lat="47.73056" lon="6.08993">
        <ele>256.39999389648</ele>
        <time>2013-08-07T08:08:11.000Z</time>
      </trkpt>
      <trkpt lat="47.73072" lon="6.09016">
        <ele>257.20001220703</ele>
        <time>2013-08-07T08:08:21.000Z</time>
      </trkpt>
      <trkpt lat="47.73081" lon="6.09029">
        <ele>257.20001220703</ele>
        <time>2013-08-07T08:08:27.000Z</time>
      </trkpt>
      <trkpt lat="47.73099" lon="6.09048">
        <ele>257.79998779297</ele>
        <time>2013-08-07T08:08:36.000Z</time>
      </trkpt>
      <trkpt lat="47.73111" lon="6.09059">
        <ele>257.79998779297</ele>
        <time>2013-08-07T08:08:41.000Z</time>
      </trkpt>
      <trkpt lat="47.73124" lon="6.09071">
        <ele>257.39999389648</ele>
        <time>2013-08-07T08:08:47.000Z</time>
      </trkpt>
      <trkpt lat="47.73128" lon="6.09078">
        <ele>257.20001220703</ele>
        <time>2013-08-07T08:08:50.000Z</time>
      </trkpt>
      <trkpt lat="47.73142" lon="6.09087">
        <ele>256.79998779297</ele>
        <time>2013-08-07T08:08:56.000Z</time>
      </trkpt>
      <trkpt lat="47.73162" lon="6.09092">
        <ele>256</ele>
        <time>2013-08-07T08:09:01.000Z</time>
      </trkpt>
      <trkpt lat="47.73175" lon="6.091">
        <ele>255.39999389648</ele>
        <time>2013-08-07T08:09:04.000Z</time>
      </trkpt>
      <trkpt lat="47.73188" lon="6.09125">
        <ele>254.39999389648</ele>
        <time>2013-08-07T08:09:08.000Z</time>
      </trkpt>
      <trkpt lat="47.73193" lon="6.09139">
        <ele>254.19999694824</ele>
        <time>2013-08-07T08:09:10.000Z</time>
      </trkpt>
      <trkpt lat="47.73205" lon="6.09171">
        <ele>253.39999389648</ele>
        <time>2013-08-07T08:09:16.000Z</time>
      </trkpt>
      <trkpt lat="47.7322" lon="6.09162">
        <ele>253.39999389648</ele>
        <time>2013-08-07T08:09:21.000Z</time>
      </trkpt>
      <trkpt lat="47.73228" lon="6.09155">
        <ele>253.19999694824</ele>
        <time>2013-08-07T08:09:23.000Z</time>
      </trkpt>
      <trkpt lat="47.73261" lon="6.09112">
        <ele>251.19999694824</ele>
        <time>2013-08-07T08:09:31.000Z</time>
      </trkpt>
      <trkpt lat="47.73288" lon="6.09067">
        <ele>250.19999694824</ele>
        <time>2013-08-07T08:09:40.000Z</time>
      </trkpt>
      <trkpt lat="47.73295" lon="6.09057">
        <ele>250</ele>
        <time>2013-08-07T08:09:42.000Z</time>
      </trkpt>
      <trkpt lat="47.73303" lon="6.09041">
        <ele>249.60000610352</ele>
        <time>2013-08-07T08:09:45.000Z</time>
      </trkpt>
      <trkpt lat="47.73315" lon="6.09018">
        <ele>248</ele>
        <time>2013-08-07T08:09:51.000Z</time>
      </trkpt>
      <trkpt lat="47.73328" lon="6.08996">
        <ele>246.19999694824</ele>
        <time>2013-08-07T08:09:59.000Z</time>
      </trkpt>
      <trkpt lat="47.73337" lon="6.08975">
        <ele>245.39999389648</ele>
        <time>2013-08-07T08:10:04.000Z</time>
      </trkpt>
      <trkpt lat="47.73352" lon="6.08949">
        <ele>243.80000305176</ele>
        <time>2013-08-07T08:10:10.000Z</time>
      </trkpt>
      <trkpt lat="47.73359" lon="6.08922">
        <ele>242.39999389648</ele>
        <time>2013-08-07T08:10:15.000Z</time>
      </trkpt>
      <trkpt lat="47.7336" lon="6.08905">
        <ele>241.19999694824</ele>
        <time>2013-08-07T08:10:18.000Z</time>
      </trkpt>
      <trkpt lat="47.7334" lon="6.08863">
        <ele>238.39999389648</ele>
        <time>2013-08-07T08:10:25.000Z</time>
      </trkpt>
      <trkpt lat="47.73337" lon="6.08857">
        <ele>237.80000305176</ele>
        <time>2013-08-07T08:10:26.000Z</time>
      </trkpt>
      <trkpt lat="47.73331" lon="6.08825">
        <ele>235.80000305176</ele>
        <time>2013-08-07T08:10:30.000Z</time>
      </trkpt>
      <trkpt lat="47.73331" lon="6.08809">
        <ele>235</ele>
        <time>2013-08-07T08:10:32.000Z</time>
      </trkpt>
      <trkpt lat="47.7334" lon="6.08772">
        <ele>233.39999389648</ele>
        <time>2013-08-07T08:10:38.000Z</time>
      </trkpt>
      <trkpt lat="47.73353" lon="6.08738">
        <ele>231.39999389648</ele>
        <time>2013-08-07T08:10:44.000Z</time>
      </trkpt>
      <trkpt lat="47.7336" lon="6.08723">
        <ele>230.19999694824</ele>
        <time>2013-08-07T08:10:48.000Z</time>
      </trkpt>
      <trkpt lat="47.73376" lon="6.08703">
        <ele>229.39999389648</ele>
        <time>2013-08-07T08:10:54.000Z</time>
      </trkpt>
      <trkpt lat="47.73396" lon="6.08686">
        <ele>228.60000610352</ele>
        <time>2013-08-07T08:11:00.000Z</time>
      </trkpt>
      <trkpt lat="47.73413" lon="6.08678">
        <ele>227.60000610352</ele>
        <time>2013-08-07T08:11:05.000Z</time>
      </trkpt>
      <trkpt lat="47.73428" lon="6.0866">
        <ele>227</ele>
        <time>2013-08-07T08:11:09.000Z</time>
      </trkpt>
      <trkpt lat="47.73449" lon="6.0863">
        <ele>225.80000305176</ele>
        <time>2013-08-07T08:11:15.000Z</time>
      </trkpt>
      <trkpt lat="47.73471" lon="6.08601">
        <ele>225.80000305176</ele>
        <time>2013-08-07T08:11:21.000Z</time>
      </trkpt>
      <trkpt lat="47.73496" lon="6.08561">
        <ele>225.19999694824</ele>
        <time>2013-08-07T08:11:29.000Z</time>
      </trkpt>
      <trkpt lat="47.735" lon="6.08549">
        <ele>224.60000610352</ele>
        <time>2013-08-07T08:11:33.000Z</time>
      </trkpt>
      <trkpt lat="47.735" lon="6.08549">
        <ele>224.60000610352</ele>
        <time>2013-08-07T08:11:34.000Z</time>
      </trkpt>
      <trkpt lat="47.73505" lon="6.08537">
        <ele>225.19999694824</ele>
        <time>2013-08-07T08:12:04.000Z</time>
      </trkpt>
      <trkpt lat="47.73511" lon="6.08526">
        <ele>224.80000305176</ele>
        <time>2013-08-07T08:12:11.000Z</time>
      </trkpt>
      <trkpt lat="47.73512" lon="6.08524">
        <ele>224.80000305176</ele>
        <time>2013-08-07T08:12:12.000Z</time>
      </trkpt>
      <trkpt lat="47.73517" lon="6.08517">
        <ele>224.80000305176</ele>
        <time>2013-08-07T08:12:16.000Z</time>
      </trkpt>
      <trkpt lat="47.73525" lon="6.0851">
        <ele>224.60000610352</ele>
        <time>2013-08-07T08:12:23.000Z</time>
      </trkpt>
      <trkpt lat="47.7354" lon="6.08496">
        <ele>223.80000305176</ele>
        <time>2013-08-07T08:12:31.000Z</time>
      </trkpt>
      <trkpt lat="47.73556" lon="6.08486">
        <ele>223.60000610352</ele>
        <time>2013-08-07T08:12:38.000Z</time>
      </trkpt>
      <trkpt lat="47.73576" lon="6.08478">
        <ele>223.60000610352</ele>
        <time>2013-08-07T08:12:45.000Z</time>
      </trkpt>
      <trkpt lat="47.73603" lon="6.0847">
        <ele>223.39999389648</ele>
        <time>2013-08-07T08:12:55.000Z</time>
      </trkpt>
      <trkpt lat="47.73633" lon="6.08462">
        <ele>223.19999694824</ele>
        <time>2013-08-07T08:13:04.000Z</time>
      </trkpt>
      <trkpt lat="47.73652" lon="6.08451">
        <ele>223</ele>
        <time>2013-08-07T08:13:11.000Z</time>
      </trkpt>
      <trkpt lat="47.73669" lon="6.08439">
        <ele>222.80000305176</ele>
        <time>2013-08-07T08:13:17.000Z</time>
      </trkpt>
      <trkpt lat="47.73687" lon="6.08419">
        <ele>222.60000610352</ele>
        <time>2013-08-07T08:13:24.000Z</time>
      </trkpt>
      <trkpt lat="47.73705" lon="6.08398">
        <ele>222.19999694824</ele>
        <time>2013-08-07T08:13:31.000Z</time>
      </trkpt>
      <trkpt lat="47.73728" lon="6.08374">
        <ele>222</ele>
        <time>2013-08-07T08:13:39.000Z</time>
      </trkpt>
      <trkpt lat="47.73747" lon="6.08351">
        <ele>222</ele>
        <time>2013-08-07T08:13:46.000Z</time>
      </trkpt>
      <trkpt lat="47.7376" lon="6.08324">
        <ele>222</ele>
        <time>2013-08-07T08:13:52.000Z</time>
      </trkpt>
      <trkpt lat="47.73775" lon="6.08295">
        <ele>221.60000610352</ele>
        <time>2013-08-07T08:13:59.000Z</time>
      </trkpt>
      <trkpt lat="47.73786" lon="6.0827">
        <ele>221.39999389648</ele>
        <time>2013-08-07T08:14:05.000Z</time>
      </trkpt>
      <trkpt lat="47.73799" lon="6.08251">
        <ele>221.39999389648</ele>
        <time>2013-08-07T08:14:11.000Z</time>
      </trkpt>
      <trkpt lat="47.73822" lon="6.08235">
        <ele>221.39999389648</ele>
        <time>2013-08-07T08:14:18.000Z</time>
      </trkpt>
      <trkpt lat="47.73842" lon="6.08226">
        <ele>221.19999694824</ele>
        <time>2013-08-07T08:14:24.000Z</time>
      </trkpt>
      <trkpt lat="47.73858" lon="6.08214">
        <ele>220.80000305176</ele>
        <time>2013-08-07T08:14:29.000Z</time>
      </trkpt>
      <trkpt lat="47.73877" lon="6.082">
        <ele>220.60000610352</ele>
        <time>2013-08-07T08:14:35.000Z</time>
      </trkpt>
      <trkpt lat="47.73898" lon="6.08185">
        <ele>220.80000305176</ele>
        <time>2013-08-07T08:14:41.000Z</time>
      </trkpt>
      <trkpt lat="47.7393" lon="6.08168">
        <ele>220.39999389648</ele>
        <time>2013-08-07T08:14:50.000Z</time>
      </trkpt>
      <trkpt lat="47.73956" lon="6.08154">
        <ele>220.19999694824</ele>
        <time>2013-08-07T08:14:58.000Z</time>
      </trkpt>
      <trkpt lat="47.73992" lon="6.08139">
        <ele>219.80000305176</ele>
        <time>2013-08-07T08:15:08.000Z</time>
      </trkpt>
      <trkpt lat="47.74009" lon="6.08133">
        <ele>219.80000305176</ele>
        <time>2013-08-07T08:15:13.000Z</time>
      </trkpt>
      <trkpt lat="47.74033" lon="6.08126">
        <ele>219.80000305176</ele>
        <time>2013-08-07T08:15:20.000Z</time>
      </trkpt>
      <trkpt lat="47.74062" lon="6.08118">
        <ele>219.39999389648</ele>
        <time>2013-08-07T08:15:29.000Z</time>
      </trkpt>
      <trkpt lat="47.74087" lon="6.08114">
        <ele>219.39999389648</ele>
        <time>2013-08-07T08:15:36.000Z</time>
      </trkpt>
      <trkpt lat="47.74109" lon="6.08114">
        <ele>219</ele>
        <time>2013-08-07T08:15:42.000Z</time>
      </trkpt>
      <trkpt lat="47.74133" lon="6.08106">
        <ele>219.19999694824</ele>
        <time>2013-08-07T08:15:49.000Z</time>
      </trkpt>
      <trkpt lat="47.74157" lon="6.08078">
        <ele>219</ele>
        <time>2013-08-07T08:15:57.000Z</time>
      </trkpt>
      <trkpt lat="47.74174" lon="6.0805">
        <ele>219.19999694824</ele>
        <time>2013-08-07T08:16:04.000Z</time>
      </trkpt>
      <trkpt lat="47.74196" lon="6.08022">
        <ele>219.39999389648</ele>
        <time>2013-08-07T08:16:12.000Z</time>
      </trkpt>
      <trkpt lat="47.74211" lon="6.08019">
        <ele>219.80000305176</ele>
        <time>2013-08-07T08:16:16.000Z</time>
      </trkpt>
      <trkpt lat="47.74234" lon="6.0802">
        <ele>220.19999694824</ele>
        <time>2013-08-07T08:16:22.000Z</time>
      </trkpt>
      <trkpt lat="47.74264" lon="6.08025">
        <ele>222.39999389648</ele>
        <time>2013-08-07T08:16:31.000Z</time>
      </trkpt>
      <trkpt lat="47.74292" lon="6.08032">
        <ele>225</ele>
        <time>2013-08-07T08:16:40.000Z</time>
      </trkpt>
      <trkpt lat="47.74314" lon="6.08042">
        <ele>227.19999694824</ele>
        <time>2013-08-07T08:16:48.000Z</time>
      </trkpt>
      <trkpt lat="47.74322" lon="6.08036">
        <ele>227.60000610352</ele>
        <time>2013-08-07T08:16:55.000Z</time>
      </trkpt>
      <trkpt lat="47.74323" lon="6.08031">
        <ele>227.19999694824</ele>
        <time>2013-08-07T08:16:59.000Z</time>
      </trkpt>
      <trkpt lat="47.74321" lon="6.08019">
        <ele>226.19999694824</ele>
        <time>2013-08-07T08:17:07.000Z</time>
      </trkpt>
      <trkpt lat="47.74321" lon="6.08019">
        <ele>226.19999694824</ele>
        <time>2013-08-07T08:17:08.000Z</time>
      </trkpt>
      <trkpt lat="47.7432" lon="6.08007">
        <ele>225.80000305176</ele>
        <time>2013-08-07T08:17:20.000Z</time>
      </trkpt>
      <trkpt lat="47.74318" lon="6.07981">
        <ele>225</ele>
        <time>2013-08-07T08:17:26.000Z</time>
      </trkpt>
      <trkpt lat="47.74315" lon="6.07948">
        <ele>223.19999694824</ele>
        <time>2013-08-07T08:17:32.000Z</time>
      </trkpt>
      <trkpt lat="47.7431" lon="6.0791">
        <ele>221.80000305176</ele>
        <time>2013-08-07T08:17:37.000Z</time>
      </trkpt>
      <trkpt lat="47.74309" lon="6.07882">
        <ele>220.39999389648</ele>
        <time>2013-08-07T08:17:40.000Z</time>
      </trkpt>
      <trkpt lat="47.74316" lon="6.07837">
        <ele>218.39999389648</ele>
        <time>2013-08-07T08:17:44.000Z</time>
      </trkpt>
      <trkpt lat="47.74335" lon="6.07808">
        <ele>216.80000305176</ele>
        <time>2013-08-07T08:17:47.000Z</time>
      </trkpt>
      <trkpt lat="47.74343" lon="6.07801">
        <ele>216.39999389648</ele>
        <time>2013-08-07T08:17:48.000Z</time>
      </trkpt>
      <trkpt lat="47.74391" lon="6.07777">
        <ele>214.80000305176</ele>
        <time>2013-08-07T08:17:54.000Z</time>
      </trkpt>
      <trkpt lat="47.74399" lon="6.07775">
        <ele>214.60000610352</ele>
        <time>2013-08-07T08:17:55.000Z</time>
      </trkpt>
      <trkpt lat="47.74419" lon="6.07771">
        <ele>214</ele>
        <time>2013-08-07T08:17:58.000Z</time>
      </trkpt>
      <trkpt lat="47.74449" lon="6.0777">
        <ele>214</ele>
        <time>2013-08-07T08:18:03.000Z</time>
      </trkpt>
      <trkpt lat="47.7446" lon="6.07767">
        <ele>213.80000305176</ele>
        <time>2013-08-07T08:18:05.000Z</time>
      </trkpt>
      <trkpt lat="47.74477" lon="6.07775">
        <ele>213.80000305176</ele>
        <time>2013-08-07T08:18:09.000Z</time>
      </trkpt>
      <trkpt lat="47.74497" lon="6.07784">
        <ele>214</ele>
        <time>2013-08-07T08:18:14.000Z</time>
      </trkpt>
      <trkpt lat="47.74528" lon="6.07786">
        <ele>214</ele>
        <time>2013-08-07T08:18:21.000Z</time>
      </trkpt>
      <trkpt lat="47.74554" lon="6.07787">
        <ele>214</ele>
        <time>2013-08-07T08:18:27.000Z</time>
      </trkpt>
      <trkpt lat="47.74573" lon="6.07798">
        <ele>214.60000610352</ele>
        <time>2013-08-07T08:18:32.000Z</time>
      </trkpt>
      <trkpt lat="47.74597" lon="6.0782">
        <ele>216</ele>
        <time>2013-08-07T08:18:40.000Z</time>
      </trkpt>
      <trkpt lat="47.74609" lon="6.07822">
        <ele>217</ele>
        <time>2013-08-07T08:18:44.000Z</time>
      </trkpt>
      <trkpt lat="47.74632" lon="6.07817">
        <ele>217.39999389648</ele>
        <time>2013-08-07T08:18:50.000Z</time>
      </trkpt>
      <trkpt lat="47.74656" lon="6.07811">
        <ele>217.39999389648</ele>
        <time>2013-08-07T08:18:57.000Z</time>
      </trkpt>
      <trkpt lat="47.74697" lon="6.07798">
        <ele>217.80000305176</ele>
        <time>2013-08-07T08:19:08.000Z</time>
      </trkpt>
      <trkpt lat="47.74736" lon="6.07786">
        <ele>217.60000610352</ele>
        <time>2013-08-07T08:19:18.000Z</time>
      </trkpt>
      <trkpt lat="47.74773" lon="6.07774">
        <ele>217.39999389648</ele>
        <time>2013-08-07T08:19:27.000Z</time>
      </trkpt>
      <trkpt lat="47.7481" lon="6.07762">
        <ele>217.19999694824</ele>
        <time>2013-08-07T08:19:36.000Z</time>
      </trkpt>
      <trkpt lat="47.74839" lon="6.07753">
        <ele>217</ele>
        <time>2013-08-07T08:19:43.000Z</time>
      </trkpt>
      <trkpt lat="47.74861" lon="6.07752">
        <ele>217.19999694824</ele>
        <time>2013-08-07T08:19:48.000Z</time>
      </trkpt>
      <trkpt lat="47.74888" lon="6.07765">
        <ele>217.80000305176</ele>
        <time>2013-08-07T08:19:55.000Z</time>
      </trkpt>
      <trkpt lat="47.74909" lon="6.07778">
        <ele>218</ele>
        <time>2013-08-07T08:20:01.000Z</time>
      </trkpt>
      <trkpt lat="47.74916" lon="6.07781">
        <ele>218</ele>
        <time>2013-08-07T08:20:03.000Z</time>
      </trkpt>
      <trkpt lat="47.74952" lon="6.07788">
        <ele>218.39999389648</ele>
        <time>2013-08-07T08:20:11.000Z</time>
      </trkpt>
      <trkpt lat="47.74979" lon="6.07794">
        <ele>218.19999694824</ele>
        <time>2013-08-07T08:20:17.000Z</time>
      </trkpt>
      <trkpt lat="47.75008" lon="6.07799">
        <ele>217.80000305176</ele>
        <time>2013-08-07T08:20:23.000Z</time>
      </trkpt>
      <trkpt lat="47.75044" lon="6.07804">
        <ele>217.39999389648</ele>
        <time>2013-08-07T08:20:30.000Z</time>
      </trkpt>
      <trkpt lat="47.75079" lon="6.07812">
        <ele>216.60000610352</ele>
        <time>2013-08-07T08:20:37.000Z</time>
      </trkpt>
      <trkpt lat="47.75114" lon="6.07819">
        <ele>216.19999694824</ele>
        <time>2013-08-07T08:20:44.000Z</time>
      </trkpt>
      <trkpt lat="47.75148" lon="6.07834">
        <ele>216.19999694824</ele>
        <time>2013-08-07T08:20:51.000Z</time>
      </trkpt>
      <trkpt lat="47.75183" lon="6.07854">
        <ele>216</ele>
        <time>2013-08-07T08:20:58.000Z</time>
      </trkpt>
      <trkpt lat="47.75201" lon="6.07872">
        <ele>215.80000305176</ele>
        <time>2013-08-07T08:21:02.000Z</time>
      </trkpt>
      <trkpt lat="47.75223" lon="6.07893">
        <ele>215.60000610352</ele>
        <time>2013-08-07T08:21:07.000Z</time>
      </trkpt>
      <trkpt lat="47.75244" lon="6.07919">
        <ele>215.60000610352</ele>
        <time>2013-08-07T08:21:12.000Z</time>
      </trkpt>
      <trkpt lat="47.75281" lon="6.07962">
        <ele>215.39999389648</ele>
        <time>2013-08-07T08:21:21.000Z</time>
      </trkpt>
      <trkpt lat="47.75309" lon="6.07999">
        <ele>215.60000610352</ele>
        <time>2013-08-07T08:21:28.000Z</time>
      </trkpt>
      <trkpt lat="47.75333" lon="6.08031">
        <ele>215.39999389648</ele>
        <time>2013-08-07T08:21:34.000Z</time>
      </trkpt>
      <trkpt lat="47.75361" lon="6.08066">
        <ele>215.60000610352</ele>
        <time>2013-08-07T08:21:41.000Z</time>
      </trkpt>
      <trkpt lat="47.75384" lon="6.08097">
        <ele>215.60000610352</ele>
        <time>2013-08-07T08:21:47.000Z</time>
      </trkpt>
      <trkpt lat="47.7541" lon="6.08134">
        <ele>215.60000610352</ele>
        <time>2013-08-07T08:21:54.000Z</time>
      </trkpt>
      <trkpt lat="47.75436" lon="6.08181">
        <ele>215.19999694824</ele>
        <time>2013-08-07T08:22:02.000Z</time>
      </trkpt>
      <trkpt lat="47.75462" lon="6.08244">
        <ele>215.19999694824</ele>
        <time>2013-08-07T08:22:12.000Z</time>
      </trkpt>
      <trkpt lat="47.7548" lon="6.08294">
        <ele>215.39999389648</ele>
        <time>2013-08-07T08:22:20.000Z</time>
      </trkpt>
      <trkpt lat="47.75501" lon="6.08354">
        <ele>215.60000610352</ele>
        <time>2013-08-07T08:22:29.000Z</time>
      </trkpt>
      <trkpt lat="47.75517" lon="6.08408">
        <ele>215.60000610352</ele>
        <time>2013-08-07T08:22:37.000Z</time>
      </trkpt>
      <trkpt lat="47.75531" lon="6.08465">
        <ele>215.19999694824</ele>
        <time>2013-08-07T08:22:45.000Z</time>
      </trkpt>
      <trkpt lat="47.75543" lon="6.0853">
        <ele>215.19999694824</ele>
        <time>2013-08-07T08:22:54.000Z</time>
      </trkpt>
      <trkpt lat="47.75549" lon="6.08581">
        <ele>215.39999389648</ele>
        <time>2013-08-07T08:23:01.000Z</time>
      </trkpt>
      <trkpt lat="47.7555" lon="6.08587">
        <ele>215.39999389648</ele>
        <time>2013-08-07T08:23:02.000Z</time>
      </trkpt>
      <trkpt lat="47.75556" lon="6.08656">
        <ele>215</ele>
        <time>2013-08-07T08:23:12.000Z</time>
      </trkpt>
      <trkpt lat="47.75557" lon="6.08715">
        <ele>214.19999694824</ele>
        <time>2013-08-07T08:23:20.000Z</time>
      </trkpt>
      <trkpt lat="47.75555" lon="6.08775">
        <ele>214.39999389648</ele>
        <time>2013-08-07T08:23:28.000Z</time>
      </trkpt>
      <trkpt lat="47.75547" lon="6.08841">
        <ele>214.80000305176</ele>
        <time>2013-08-07T08:23:37.000Z</time>
      </trkpt>
      <trkpt lat="47.75538" lon="6.08889">
        <ele>214.80000305176</ele>
        <time>2013-08-07T08:23:44.000Z</time>
      </trkpt>
      <trkpt lat="47.75526" lon="6.08935">
        <ele>214.80000305176</ele>
        <time>2013-08-07T08:23:51.000Z</time>
      </trkpt>
      <trkpt lat="47.75512" lon="6.08981">
        <ele>214.80000305176</ele>
        <time>2013-08-07T08:23:58.000Z</time>
      </trkpt>
      <trkpt lat="47.75493" lon="6.09057">
        <ele>214.60000610352</ele>
        <time>2013-08-07T08:24:09.000Z</time>
      </trkpt>
      <trkpt lat="47.75486" lon="6.09098">
        <ele>214.60000610352</ele>
        <time>2013-08-07T08:24:15.000Z</time>
      </trkpt>
      <trkpt lat="47.75482" lon="6.09141">
        <ele>214.60000610352</ele>
        <time>2013-08-07T08:24:22.000Z</time>
      </trkpt>
      <trkpt lat="47.7548" lon="6.09176">
        <ele>214.80000305176</ele>
        <time>2013-08-07T08:24:28.000Z</time>
      </trkpt>
      <trkpt lat="47.75479" lon="6.0921">
        <ele>214.39999389648</ele>
        <time>2013-08-07T08:24:34.000Z</time>
      </trkpt>
      <trkpt lat="47.7548" lon="6.09238">
        <ele>214.60000610352</ele>
        <time>2013-08-07T08:24:39.000Z</time>
      </trkpt>
      <trkpt lat="47.75479" lon="6.0926">
        <ele>214.60000610352</ele>
        <time>2013-08-07T08:24:44.000Z</time>
      </trkpt>
      <trkpt lat="47.75479" lon="6.09281">
        <ele>214.80000305176</ele>
        <time>2013-08-07T08:24:48.000Z</time>
      </trkpt>
      <trkpt lat="47.75481" lon="6.0932">
        <ele>214.60000610352</ele>
        <time>2013-08-07T08:24:54.000Z</time>
      </trkpt>
      <trkpt lat="47.75483" lon="6.09356">
        <ele>214.39999389648</ele>
        <time>2013-08-07T08:25:00.000Z</time>
      </trkpt>
      <trkpt lat="47.75484" lon="6.09364">
        <ele>214.39999389648</ele>
        <time>2013-08-07T08:25:01.000Z</time>
      </trkpt>
      <trkpt lat="47.75484" lon="6.09397">
        <ele>214</ele>
        <time>2013-08-07T08:25:05.000Z</time>
      </trkpt>
      <trkpt lat="47.75485" lon="6.09413">
        <ele>214</ele>
        <time>2013-08-07T08:25:07.000Z</time>
      </trkpt>
      <trkpt lat="47.75486" lon="6.09443">
        <ele>213.80000305176</ele>
        <time>2013-08-07T08:25:11.000Z</time>
      </trkpt>
      <trkpt lat="47.75486" lon="6.09457">
        <ele>214</ele>
        <time>2013-08-07T08:25:13.000Z</time>
      </trkpt>
      <trkpt lat="47.75487" lon="6.09486">
        <ele>214</ele>
        <time>2013-08-07T08:25:18.000Z</time>
      </trkpt>
      <trkpt lat="47.75489" lon="6.09525">
        <ele>214</ele>
        <time>2013-08-07T08:25:24.000Z</time>
      </trkpt>
      <trkpt lat="47.75492" lon="6.09575">
        <ele>213.80000305176</ele>
        <time>2013-08-07T08:25:31.000Z</time>
      </trkpt>
      <trkpt lat="47.75501" lon="6.09637">
        <ele>214.19999694824</ele>
        <time>2013-08-07T08:25:40.000Z</time>
      </trkpt>
      <trkpt lat="47.75511" lon="6.09688">
        <ele>213.60000610352</ele>
        <time>2013-08-07T08:25:47.000Z</time>
      </trkpt>
      <trkpt lat="47.75524" lon="6.0974">
        <ele>213.19999694824</ele>
        <time>2013-08-07T08:25:54.000Z</time>
      </trkpt>
      <trkpt lat="47.75538" lon="6.09788">
        <ele>213.19999694824</ele>
        <time>2013-08-07T08:26:01.000Z</time>
      </trkpt>
      <trkpt lat="47.75555" lon="6.09847">
        <ele>212.80000305176</ele>
        <time>2013-08-07T08:26:10.000Z</time>
      </trkpt>
      <trkpt lat="47.75575" lon="6.09903">
        <ele>212.60000610352</ele>
        <time>2013-08-07T08:26:19.000Z</time>
      </trkpt>
      <trkpt lat="47.75582" lon="6.09919">
        <ele>212.19999694824</ele>
        <time>2013-08-07T08:26:22.000Z</time>
      </trkpt>
      <trkpt lat="47.75606" lon="6.09967">
        <ele>212.60000610352</ele>
        <time>2013-08-07T08:26:31.000Z</time>
      </trkpt>
      <trkpt lat="47.75631" lon="6.10012">
        <ele>212.39999389648</ele>
        <time>2013-08-07T08:26:39.000Z</time>
      </trkpt>
      <trkpt lat="47.75654" lon="6.10044">
        <ele>212.39999389648</ele>
        <time>2013-08-07T08:26:45.000Z</time>
      </trkpt>
      <trkpt lat="47.75684" lon="6.10086">
        <ele>212.60000610352</ele>
        <time>2013-08-07T08:26:53.000Z</time>
      </trkpt>
      <trkpt lat="47.75724" lon="6.10138">
        <ele>212.39999389648</ele>
        <time>2013-08-07T08:27:03.000Z</time>
      </trkpt>
      <trkpt lat="47.75749" lon="6.10163">
        <ele>212.60000610352</ele>
        <time>2013-08-07T08:27:09.000Z</time>
      </trkpt>
      <trkpt lat="47.75798" lon="6.10202">
        <ele>212.39999389648</ele>
        <time>2013-08-07T08:27:20.000Z</time>
      </trkpt>
      <trkpt lat="47.75844" lon="6.10238">
        <ele>212.80000305176</ele>
        <time>2013-08-07T08:27:30.000Z</time>
      </trkpt>
      <trkpt lat="47.75879" lon="6.10271">
        <ele>212.80000305176</ele>
        <time>2013-08-07T08:27:38.000Z</time>
      </trkpt>
      <trkpt lat="47.75908" lon="6.10298">
        <ele>212.60000610352</ele>
        <time>2013-08-07T08:27:45.000Z</time>
      </trkpt>
      <trkpt lat="47.75913" lon="6.10301">
        <ele>212.60000610352</ele>
        <time>2013-08-07T08:27:46.000Z</time>
      </trkpt>
      <trkpt lat="47.75946" lon="6.10342">
        <ele>212.39999389648</ele>
        <time>2013-08-07T08:27:55.000Z</time>
      </trkpt>
      <trkpt lat="47.75973" lon="6.10378">
        <ele>212.19999694824</ele>
        <time>2013-08-07T08:28:03.000Z</time>
      </trkpt>
      <trkpt lat="47.75995" lon="6.10414">
        <ele>212.80000305176</ele>
        <time>2013-08-07T08:28:11.000Z</time>
      </trkpt>
      <trkpt lat="47.76004" lon="6.10428">
        <ele>213.39999389648</ele>
        <time>2013-08-07T08:28:16.000Z</time>
      </trkpt>
      <trkpt lat="47.76014" lon="6.1043">
        <ele>213.60000610352</ele>
        <time>2013-08-07T08:28:19.000Z</time>
      </trkpt>
      <trkpt lat="47.76041" lon="6.10416">
        <ele>215</ele>
        <time>2013-08-07T08:28:26.000Z</time>
      </trkpt>
      <trkpt lat="47.76074" lon="6.10394">
        <ele>216.60000610352</ele>
        <time>2013-08-07T08:28:35.000Z</time>
      </trkpt>
      <trkpt lat="47.76114" lon="6.10367">
        <ele>216.80000305176</ele>
        <time>2013-08-07T08:28:44.000Z</time>
      </trkpt>
      <trkpt lat="47.76155" lon="6.10341">
        <ele>215.60000610352</ele>
        <time>2013-08-07T08:28:52.000Z</time>
      </trkpt>
      <trkpt lat="47.76175" lon="6.10336">
        <ele>214.80000305176</ele>
        <time>2013-08-07T08:28:55.000Z</time>
      </trkpt>
      <trkpt lat="47.76232" lon="6.10338">
        <ele>213</ele>
        <time>2013-08-07T08:29:03.000Z</time>
      </trkpt>
      <trkpt lat="47.76278" lon="6.10333">
        <ele>212.80000305176</ele>
        <time>2013-08-07T08:29:10.000Z</time>
      </trkpt>
      <trkpt lat="47.7631" lon="6.10328">
        <ele>212.60000610352</ele>
        <time>2013-08-07T08:29:16.000Z</time>
      </trkpt>
      <trkpt lat="47.76347" lon="6.10323">
        <ele>212.39999389648</ele>
        <time>2013-08-07T08:29:24.000Z</time>
      </trkpt>
      <trkpt lat="47.76384" lon="6.10317">
        <ele>212.80000305176</ele>
        <time>2013-08-07T08:29:31.000Z</time>
      </trkpt>
      <trkpt lat="47.76414" lon="6.10315">
        <ele>213</ele>
        <time>2013-08-07T08:29:37.000Z</time>
      </trkpt>
      <trkpt lat="47.76453" lon="6.1031">
        <ele>214.19999694824</ele>
        <time>2013-08-07T08:29:45.000Z</time>
      </trkpt>
      <trkpt lat="47.76493" lon="6.10302">
        <ele>214.60000610352</ele>
        <time>2013-08-07T08:29:54.000Z</time>
      </trkpt>
      <trkpt lat="47.76497" lon="6.10301">
        <ele>214.39999389648</ele>
        <time>2013-08-07T08:29:55.000Z</time>
      </trkpt>
      <trkpt lat="47.76501" lon="6.10274">
        <ele>214.60000610352</ele>
        <time>2013-08-07T08:29:59.000Z</time>
      </trkpt>
      <trkpt lat="47.76496" lon="6.10258">
        <ele>214.60000610352</ele>
        <time>2013-08-07T08:30:01.000Z</time>
      </trkpt>
      <trkpt lat="47.76483" lon="6.10197">
        <ele>214.19999694824</ele>
        <time>2013-08-07T08:30:09.000Z</time>
      </trkpt>
      <trkpt lat="47.76479" lon="6.10169">
        <ele>214</ele>
        <time>2013-08-07T08:30:13.000Z</time>
      </trkpt>
      <trkpt lat="47.76477" lon="6.10121">
        <ele>213.80000305176</ele>
        <time>2013-08-07T08:30:20.000Z</time>
      </trkpt>
      <trkpt lat="47.76474" lon="6.10066">
        <ele>214.80000305176</ele>
        <time>2013-08-07T08:30:28.000Z</time>
      </trkpt>
      <trkpt lat="47.7647" lon="6.10006">
        <ele>215</ele>
        <time>2013-08-07T08:30:37.000Z</time>
      </trkpt>
      <trkpt lat="47.76469" lon="6.1">
        <ele>215</ele>
        <time>2013-08-07T08:30:38.000Z</time>
      </trkpt>
      <trkpt lat="47.76472" lon="6.09982">
        <ele>214.80000305176</ele>
        <time>2013-08-07T08:30:41.000Z</time>
      </trkpt>
      <trkpt lat="47.76471" lon="6.09939">
        <ele>214.39999389648</ele>
        <time>2013-08-07T08:30:48.000Z</time>
      </trkpt>
      <trkpt lat="47.76471" lon="6.0991">
        <ele>213.80000305176</ele>
        <time>2013-08-07T08:30:54.000Z</time>
      </trkpt>
      <trkpt lat="47.7647" lon="6.09883">
        <ele>213.39999389648</ele>
        <time>2013-08-07T08:31:01.000Z</time>
      </trkpt>
      <trkpt lat="47.76472" lon="6.09876">
        <ele>213.19999694824</ele>
        <time>2013-08-07T08:31:03.000Z</time>
      </trkpt>
      <trkpt lat="47.76482" lon="6.09868">
        <ele>212.80000305176</ele>
        <time>2013-08-07T08:31:07.000Z</time>
      </trkpt>
      <trkpt lat="47.76511" lon="6.09863">
        <ele>212</ele>
        <time>2013-08-07T08:31:15.000Z</time>
      </trkpt>
      <trkpt lat="47.76545" lon="6.09859">
        <ele>212</ele>
        <time>2013-08-07T08:31:23.000Z</time>
      </trkpt>
      <trkpt lat="47.76574" lon="6.09857">
        <ele>212</ele>
        <time>2013-08-07T08:31:31.000Z</time>
      </trkpt>
      <trkpt lat="47.76586" lon="6.09855">
        <ele>212</ele>
        <time>2013-08-07T08:31:35.000Z</time>
      </trkpt>
      <trkpt lat="47.76596" lon="6.09838">
        <ele>212.60000610352</ele>
        <time>2013-08-07T08:31:40.000Z</time>
      </trkpt>
      <trkpt lat="47.76596" lon="6.09833">
        <ele>212.60000610352</ele>
        <time>2013-08-07T08:31:41.000Z</time>
      </trkpt>
      <trkpt lat="47.76598" lon="6.09814">
        <ele>213</ele>
        <time>2013-08-07T08:31:45.000Z</time>
      </trkpt>
      <trkpt lat="47.76599" lon="6.09791">
        <ele>213.39999389648</ele>
        <time>2013-08-07T08:31:50.000Z</time>
      </trkpt>
      <trkpt lat="47.76599" lon="6.09785">
        <ele>213.60000610352</ele>
        <time>2013-08-07T08:31:51.000Z</time>
      </trkpt>
      <trkpt lat="47.76606" lon="6.09749">
        <ele>214.19999694824</ele>
        <time>2013-08-07T08:31:58.000Z</time>
      </trkpt>
      <trkpt lat="47.76609" lon="6.09742">
        <ele>214.19999694824</ele>
        <time>2013-08-07T08:32:00.000Z</time>
      </trkpt>
      <trkpt lat="47.7661" lon="6.09717">
        <ele>214.39999389648</ele>
        <time>2013-08-07T08:32:06.000Z</time>
      </trkpt>
      <trkpt lat="47.7661" lon="6.09678">
        <ele>215</ele>
        <time>2013-08-07T08:32:15.000Z</time>
      </trkpt>
      <trkpt lat="47.76614" lon="6.09655">
        <ele>215.19999694824</ele>
        <time>2013-08-07T08:32:20.000Z</time>
      </trkpt>
      <trkpt lat="47.76612" lon="6.09604">
        <ele>215.60000610352</ele>
        <time>2013-08-07T08:32:29.000Z</time>
      </trkpt>
      <trkpt lat="47.76611" lon="6.09553">
        <ele>217.19999694824</ele>
        <time>2013-08-07T08:32:38.000Z</time>
      </trkpt>
      <trkpt lat="47.76611" lon="6.09507">
        <ele>218.60000610352</ele>
        <time>2013-08-07T08:32:47.000Z</time>
      </trkpt>
      <trkpt lat="47.76614" lon="6.09452">
        <ele>219</ele>
        <time>2013-08-07T08:32:58.000Z</time>
      </trkpt>
      <trkpt lat="47.76621" lon="6.09401">
        <ele>218.60000610352</ele>
        <time>2013-08-07T08:33:08.000Z</time>
      </trkpt>
      <trkpt lat="47.76626" lon="6.09342">
        <ele>218.80000305176</ele>
        <time>2013-08-07T08:33:18.000Z</time>
      </trkpt>
      <trkpt lat="47.7663" lon="6.09276">
        <ele>219</ele>
        <time>2013-08-07T08:33:29.000Z</time>
      </trkpt>
      <trkpt lat="47.76631" lon="6.09242">
        <ele>219.19999694824</ele>
        <time>2013-08-07T08:33:36.000Z</time>
      </trkpt>
      <trkpt lat="47.76632" lon="6.09227">
        <ele>219</ele>
        <time>2013-08-07T08:33:41.000Z</time>
      </trkpt>
      <trkpt lat="47.76625" lon="6.09221">
        <ele>219</ele>
        <time>2013-08-07T08:33:45.000Z</time>
      </trkpt>
      <trkpt lat="47.7662" lon="6.09212">
        <ele>219.60000610352</ele>
        <time>2013-08-07T08:33:49.000Z</time>
      </trkpt>
      <trkpt lat="47.76613" lon="6.09187">
        <ele>219.39999389648</ele>
        <time>2013-08-07T08:33:55.000Z</time>
      </trkpt>
      <trkpt lat="47.76606" lon="6.09169">
        <ele>219</ele>
        <time>2013-08-07T08:34:01.000Z</time>
      </trkpt>
      <trkpt lat="47.76598" lon="6.09148">
        <ele>219.39999389648</ele>
        <time>2013-08-07T08:34:08.000Z</time>
      </trkpt>
      <trkpt lat="47.76591" lon="6.09122">
        <ele>219.19999694824</ele>
        <time>2013-08-07T08:34:14.000Z</time>
      </trkpt>
      <trkpt lat="47.76585" lon="6.091">
        <ele>219.19999694824</ele>
        <time>2013-08-07T08:34:21.000Z</time>
      </trkpt>
      <trkpt lat="47.76579" lon="6.09073">
        <ele>218.80000305176</ele>
        <time>2013-08-07T08:34:32.000Z</time>
      </trkpt>
      <trkpt lat="47.76577" lon="6.09056">
        <ele>218.60000610352</ele>
        <time>2013-08-07T08:34:39.000Z</time>
      </trkpt>
      <trkpt lat="47.76573" lon="6.09026">
        <ele>218.60000610352</ele>
        <time>2013-08-07T08:34:47.000Z</time>
      </trkpt>
      <trkpt lat="47.76567" lon="6.08984">
        <ele>218.39999389648</ele>
        <time>2013-08-07T08:34:57.000Z</time>
      </trkpt>
      <trkpt lat="47.76563" lon="6.08951">
        <ele>218.80000305176</ele>
        <time>2013-08-07T08:35:04.000Z</time>
      </trkpt>
      <trkpt lat="47.76557" lon="6.08908">
        <ele>218.60000610352</ele>
        <time>2013-08-07T08:35:12.000Z</time>
      </trkpt>
      <trkpt lat="47.7655" lon="6.08862">
        <ele>218</ele>
        <time>2013-08-07T08:35:20.000Z</time>
      </trkpt>
      <trkpt lat="47.76544" lon="6.08815">
        <ele>217.80000305176</ele>
        <time>2013-08-07T08:35:28.000Z</time>
      </trkpt>
      <trkpt lat="47.76534" lon="6.08748">
        <ele>217.60000610352</ele>
        <time>2013-08-07T08:35:39.000Z</time>
      </trkpt>
      <trkpt lat="47.76525" lon="6.08692">
        <ele>217</ele>
        <time>2013-08-07T08:35:48.000Z</time>
      </trkpt>
      <trkpt lat="47.76516" lon="6.08635">
        <ele>216.80000305176</ele>
        <time>2013-08-07T08:35:57.000Z</time>
      </trkpt>
      <trkpt lat="47.76509" lon="6.08591">
        <ele>216.60000610352</ele>
        <time>2013-08-07T08:36:04.000Z</time>
      </trkpt>
      <trkpt lat="47.76498" lon="6.08525">
        <ele>216.19999694824</ele>
        <time>2013-08-07T08:36:14.000Z</time>
      </trkpt>
      <trkpt lat="47.76487" lon="6.08447">
        <ele>215.80000305176</ele>
        <time>2013-08-07T08:36:25.000Z</time>
      </trkpt>
      <trkpt lat="47.76486" lon="6.08381">
        <ele>215.39999389648</ele>
        <time>2013-08-07T08:36:34.000Z</time>
      </trkpt>
      <trkpt lat="47.76487" lon="6.08317">
        <ele>216</ele>
        <time>2013-08-07T08:36:43.000Z</time>
      </trkpt>
      <trkpt lat="47.76485" lon="6.08258">
        <ele>217.19999694824</ele>
        <time>2013-08-07T08:36:52.000Z</time>
      </trkpt>
      <trkpt lat="47.76473" lon="6.08202">
        <ele>216.80000305176</ele>
        <time>2013-08-07T08:37:00.000Z</time>
      </trkpt>
      <trkpt lat="47.76455" lon="6.08144">
        <ele>215.80000305176</ele>
        <time>2013-08-07T08:37:08.000Z</time>
      </trkpt>
      <trkpt lat="47.76453" lon="6.08137">
        <ele>215.60000610352</ele>
        <time>2013-08-07T08:37:09.000Z</time>
      </trkpt>
      <trkpt lat="47.76431" lon="6.08071">
        <ele>215</ele>
        <time>2013-08-07T08:37:18.000Z</time>
      </trkpt>
      <trkpt lat="47.76414" lon="6.08018">
        <ele>214.39999389648</ele>
        <time>2013-08-07T08:37:26.000Z</time>
      </trkpt>
      <trkpt lat="47.76393" lon="6.07957">
        <ele>213.80000305176</ele>
        <time>2013-08-07T08:37:35.000Z</time>
      </trkpt>
      <trkpt lat="47.76382" lon="6.07928">
        <ele>213.39999389648</ele>
        <time>2013-08-07T08:37:40.000Z</time>
      </trkpt>
      <trkpt lat="47.7637" lon="6.07904">
        <ele>212.80000305176</ele>
        <time>2013-08-07T08:37:46.000Z</time>
      </trkpt>
      <trkpt lat="47.76367" lon="6.07901">
        <ele>212.39999389648</ele>
        <time>2013-08-07T08:37:50.000Z</time>
      </trkpt>
      <trkpt lat="47.76364" lon="6.07882">
        <ele>212.60000610352</ele>
        <time>2013-08-07T08:43:08.000Z</time>
      </trkpt>
      <trkpt lat="47.76353" lon="6.07851">
        <ele>212.39999389648</ele>
        <time>2013-08-07T08:43:15.000Z</time>
      </trkpt>
      <trkpt lat="47.7634" lon="6.07815">
        <ele>212</ele>
        <time>2013-08-07T08:43:22.000Z</time>
      </trkpt>
      <trkpt lat="47.76327" lon="6.07768">
        <ele>211.60000610352</ele>
        <time>2013-08-07T08:43:31.000Z</time>
      </trkpt>
      <trkpt lat="47.76322" lon="6.07732">
        <ele>211</ele>
        <time>2013-08-07T08:43:38.000Z</time>
      </trkpt>
      <trkpt lat="47.76318" lon="6.07701">
        <ele>210.39999389648</ele>
        <time>2013-08-07T08:43:44.000Z</time>
      </trkpt>
      <trkpt lat="47.76314" lon="6.07662">
        <ele>210.19999694824</ele>
        <time>2013-08-07T08:43:51.000Z</time>
      </trkpt>
      <trkpt lat="47.76309" lon="6.07627">
        <ele>210.19999694824</ele>
        <time>2013-08-07T08:43:57.000Z</time>
      </trkpt>
      <trkpt lat="47.76302" lon="6.07589">
        <ele>210.39999389648</ele>
        <time>2013-08-07T08:44:04.000Z</time>
      </trkpt>
      <trkpt lat="47.76293" lon="6.07543">
        <ele>210.60000610352</ele>
        <time>2013-08-07T08:44:12.000Z</time>
      </trkpt>
      <trkpt lat="47.76284" lon="6.07502">
        <ele>210.80000305176</ele>
        <time>2013-08-07T08:44:19.000Z</time>
      </trkpt>
      <trkpt lat="47.76271" lon="6.07459">
        <ele>210.80000305176</ele>
        <time>2013-08-07T08:44:27.000Z</time>
      </trkpt>
      <trkpt lat="47.76263" lon="6.07433">
        <ele>211</ele>
        <time>2013-08-07T08:44:33.000Z</time>
      </trkpt>
      <trkpt lat="47.76259" lon="6.07409">
        <ele>211.39999389648</ele>
        <time>2013-08-07T08:44:38.000Z</time>
      </trkpt>
      <trkpt lat="47.76247" lon="6.07367">
        <ele>211.39999389648</ele>
        <time>2013-08-07T08:44:46.000Z</time>
      </trkpt>
      <trkpt lat="47.7624" lon="6.0734">
        <ele>211.19999694824</ele>
        <time>2013-08-07T08:44:51.000Z</time>
      </trkpt>
      <trkpt lat="47.76231" lon="6.07304">
        <ele>211</ele>
        <time>2013-08-07T08:44:58.000Z</time>
      </trkpt>
      <trkpt lat="47.76222" lon="6.07267">
        <ele>210.80000305176</ele>
        <time>2013-08-07T08:45:05.000Z</time>
      </trkpt>
      <trkpt lat="47.76214" lon="6.0724">
        <ele>210.60000610352</ele>
        <time>2013-08-07T08:45:10.000Z</time>
      </trkpt>
      <trkpt lat="47.76206" lon="6.072">
        <ele>210.60000610352</ele>
        <time>2013-08-07T08:45:18.000Z</time>
      </trkpt>
      <trkpt lat="47.76196" lon="6.07164">
        <ele>210.39999389648</ele>
        <time>2013-08-07T08:45:25.000Z</time>
      </trkpt>
      <trkpt lat="47.76195" lon="6.07158">
        <ele>210.19999694824</ele>
        <time>2013-08-07T08:45:26.000Z</time>
      </trkpt>
      <trkpt lat="47.76181" lon="6.07105">
        <ele>209.60000610352</ele>
        <time>2013-08-07T08:45:36.000Z</time>
      </trkpt>
      <trkpt lat="47.76171" lon="6.07069">
        <ele>209</ele>
        <time>2013-08-07T08:45:43.000Z</time>
      </trkpt>
      <trkpt lat="47.76158" lon="6.07025">
        <ele>209.19999694824</ele>
        <time>2013-08-07T08:45:52.000Z</time>
      </trkpt>
      <trkpt lat="47.76149" lon="6.06984">
        <ele>208.60000610352</ele>
        <time>2013-08-07T08:46:00.000Z</time>
      </trkpt>
      <trkpt lat="47.76142" lon="6.06957">
        <ele>208.39999389648</ele>
        <time>2013-08-07T08:46:06.000Z</time>
      </trkpt>
      <trkpt lat="47.76132" lon="6.06921">
        <ele>209.19999694824</ele>
        <time>2013-08-07T08:46:14.000Z</time>
      </trkpt>
      <trkpt lat="47.76124" lon="6.06885">
        <ele>209.19999694824</ele>
        <time>2013-08-07T08:46:21.000Z</time>
      </trkpt>
      <trkpt lat="47.76116" lon="6.06855">
        <ele>209.19999694824</ele>
        <time>2013-08-07T08:46:27.000Z</time>
      </trkpt>
      <trkpt lat="47.76103" lon="6.06812">
        <ele>209.19999694824</ele>
        <time>2013-08-07T08:46:35.000Z</time>
      </trkpt>
      <trkpt lat="47.76094" lon="6.06781">
        <ele>209</ele>
        <time>2013-08-07T08:46:41.000Z</time>
      </trkpt>
      <trkpt lat="47.76087" lon="6.06751">
        <ele>209.19999694824</ele>
        <time>2013-08-07T08:46:47.000Z</time>
      </trkpt>
      <trkpt lat="47.76079" lon="6.06725">
        <ele>209.39999389648</ele>
        <time>2013-08-07T08:46:52.000Z</time>
      </trkpt>
      <trkpt lat="47.76069" lon="6.06689">
        <ele>209.60000610352</ele>
        <time>2013-08-07T08:46:59.000Z</time>
      </trkpt>
      <trkpt lat="47.76058" lon="6.06648">
        <ele>209.60000610352</ele>
        <time>2013-08-07T08:47:07.000Z</time>
      </trkpt>
      <trkpt lat="47.76048" lon="6.06608">
        <ele>209.39999389648</ele>
        <time>2013-08-07T08:47:15.000Z</time>
      </trkpt>
      <trkpt lat="47.76036" lon="6.06569">
        <ele>209.60000610352</ele>
        <time>2013-08-07T08:47:22.000Z</time>
      </trkpt>
      <trkpt lat="47.76025" lon="6.06525">
        <ele>209.60000610352</ele>
        <time>2013-08-07T08:47:30.000Z</time>
      </trkpt>
      <trkpt lat="47.76018" lon="6.065">
        <ele>209.60000610352</ele>
        <time>2013-08-07T08:47:34.000Z</time>
      </trkpt>
      <trkpt lat="47.76005" lon="6.06458">
        <ele>208.80000305176</ele>
        <time>2013-08-07T08:47:42.000Z</time>
      </trkpt>
      <trkpt lat="47.75996" lon="6.06419">
        <ele>208.80000305176</ele>
        <time>2013-08-07T08:47:50.000Z</time>
      </trkpt>
      <trkpt lat="47.75983" lon="6.06372">
        <ele>209</ele>
        <time>2013-08-07T08:47:59.000Z</time>
      </trkpt>
      <trkpt lat="47.75969" lon="6.06322">
        <ele>209.39999389648</ele>
        <time>2013-08-07T08:48:08.000Z</time>
      </trkpt>
      <trkpt lat="47.75956" lon="6.06277">
        <ele>209.19999694824</ele>
        <time>2013-08-07T08:48:16.000Z</time>
      </trkpt>
      <trkpt lat="47.75946" lon="6.06239">
        <ele>209</ele>
        <time>2013-08-07T08:48:23.000Z</time>
      </trkpt>
      <trkpt lat="47.75939" lon="6.06206">
        <ele>208.80000305176</ele>
        <time>2013-08-07T08:48:29.000Z</time>
      </trkpt>
      <trkpt lat="47.75925" lon="6.06149">
        <ele>208</ele>
        <time>2013-08-07T08:48:39.000Z</time>
      </trkpt>
      <trkpt lat="47.75911" lon="6.06102">
        <ele>208.19999694824</ele>
        <time>2013-08-07T08:48:47.000Z</time>
      </trkpt>
      <trkpt lat="47.75903" lon="6.0607">
        <ele>208.19999694824</ele>
        <time>2013-08-07T08:48:53.000Z</time>
      </trkpt>
      <trkpt lat="47.75893" lon="6.06027">
        <ele>208.39999389648</ele>
        <time>2013-08-07T08:49:01.000Z</time>
      </trkpt>
      <trkpt lat="47.75884" lon="6.05993">
        <ele>208.60000610352</ele>
        <time>2013-08-07T08:49:07.000Z</time>
      </trkpt>
      <trkpt lat="47.75873" lon="6.0595">
        <ele>209</ele>
        <time>2013-08-07T08:49:15.000Z</time>
      </trkpt>
      <trkpt lat="47.75858" lon="6.05902">
        <ele>209.39999389648</ele>
        <time>2013-08-07T08:49:23.000Z</time>
      </trkpt>
      <trkpt lat="47.75849" lon="6.05871">
        <ele>209.39999389648</ele>
        <time>2013-08-07T08:49:28.000Z</time>
      </trkpt>
      <trkpt lat="47.75835" lon="6.05817">
        <ele>209.19999694824</ele>
        <time>2013-08-07T08:49:37.000Z</time>
      </trkpt>
      <trkpt lat="47.75825" lon="6.05774">
        <ele>209.19999694824</ele>
        <time>2013-08-07T08:49:44.000Z</time>
      </trkpt>
      <trkpt lat="47.75821" lon="6.05741">
        <ele>209</ele>
        <time>2013-08-07T08:49:49.000Z</time>
      </trkpt>
      <trkpt lat="47.75818" lon="6.05735">
        <ele>209</ele>
        <time>2013-08-07T08:49:50.000Z</time>
      </trkpt>
      <trkpt lat="47.75812" lon="6.05718">
        <ele>208.80000305176</ele>
        <time>2013-08-07T08:49:53.000Z</time>
      </trkpt>
      <trkpt lat="47.75808" lon="6.05702">
        <ele>208.80000305176</ele>
        <time>2013-08-07T08:49:56.000Z</time>
      </trkpt>
      <trkpt lat="47.75795" lon="6.05651">
        <ele>209</ele>
        <time>2013-08-07T08:50:05.000Z</time>
      </trkpt>
      <trkpt lat="47.7578" lon="6.05598">
        <ele>209.39999389648</ele>
        <time>2013-08-07T08:50:14.000Z</time>
      </trkpt>
      <trkpt lat="47.75766" lon="6.05554">
        <ele>209.39999389648</ele>
        <time>2013-08-07T08:50:21.000Z</time>
      </trkpt>
      <trkpt lat="47.75753" lon="6.05506">
        <ele>208.80000305176</ele>
        <time>2013-08-07T08:50:29.000Z</time>
      </trkpt>
      <trkpt lat="47.75747" lon="6.05483">
        <ele>208.80000305176</ele>
        <time>2013-08-07T08:50:33.000Z</time>
      </trkpt>
      <trkpt lat="47.75736" lon="6.05442">
        <ele>208.80000305176</ele>
        <time>2013-08-07T08:50:41.000Z</time>
      </trkpt>
      <trkpt lat="47.75727" lon="6.05403">
        <ele>208.80000305176</ele>
        <time>2013-08-07T08:50:48.000Z</time>
      </trkpt>
      <trkpt lat="47.7572" lon="6.05364">
        <ele>208.60000610352</ele>
        <time>2013-08-07T08:50:55.000Z</time>
      </trkpt>
      <trkpt lat="47.7571" lon="6.05328">
        <ele>208.60000610352</ele>
        <time>2013-08-07T08:51:02.000Z</time>
      </trkpt>
      <trkpt lat="47.75697" lon="6.05297">
        <ele>209</ele>
        <time>2013-08-07T08:51:09.000Z</time>
      </trkpt>
      <trkpt lat="47.75685" lon="6.05257">
        <ele>209.60000610352</ele>
        <time>2013-08-07T08:51:17.000Z</time>
      </trkpt>
      <trkpt lat="47.75675" lon="6.05217">
        <ele>209.39999389648</ele>
        <time>2013-08-07T08:51:24.000Z</time>
      </trkpt>
      <trkpt lat="47.75663" lon="6.05172">
        <ele>209.19999694824</ele>
        <time>2013-08-07T08:51:32.000Z</time>
      </trkpt>
      <trkpt lat="47.75654" lon="6.05132">
        <ele>209</ele>
        <time>2013-08-07T08:51:39.000Z</time>
      </trkpt>
      <trkpt lat="47.75644" lon="6.05088">
        <ele>208.80000305176</ele>
        <time>2013-08-07T08:51:47.000Z</time>
      </trkpt>
      <trkpt lat="47.7564" lon="6.05055">
        <ele>208.80000305176</ele>
        <time>2013-08-07T08:51:53.000Z</time>
      </trkpt>
      <trkpt lat="47.75634" lon="6.05016">
        <ele>208.80000305176</ele>
        <time>2013-08-07T08:52:00.000Z</time>
      </trkpt>
      <trkpt lat="47.75632" lon="6.04976">
        <ele>209</ele>
        <time>2013-08-07T08:52:07.000Z</time>
      </trkpt>
      <trkpt lat="47.7563" lon="6.04941">
        <ele>209.19999694824</ele>
        <time>2013-08-07T08:52:13.000Z</time>
      </trkpt>
      <trkpt lat="47.7563" lon="6.04891">
        <ele>209.60000610352</ele>
        <time>2013-08-07T08:52:22.000Z</time>
      </trkpt>
      <trkpt lat="47.75634" lon="6.0484">
        <ele>209.80000305176</ele>
        <time>2013-08-07T08:52:31.000Z</time>
      </trkpt>
      <trkpt lat="47.75641" lon="6.04783">
        <ele>210</ele>
        <time>2013-08-07T08:52:41.000Z</time>
      </trkpt>
      <trkpt lat="47.75649" lon="6.04739">
        <ele>210</ele>
        <time>2013-08-07T08:52:49.000Z</time>
      </trkpt>
      <trkpt lat="47.7566" lon="6.04703">
        <ele>210.39999389648</ele>
        <time>2013-08-07T08:52:57.000Z</time>
      </trkpt>
      <trkpt lat="47.7566" lon="6.04693">
        <ele>210.60000610352</ele>
        <time>2013-08-07T08:53:00.000Z</time>
      </trkpt>
      <trkpt lat="47.75651" lon="6.04685">
        <ele>211.19999694824</ele>
        <time>2013-08-07T08:53:04.000Z</time>
      </trkpt>
      <trkpt lat="47.7563" lon="6.04684">
        <ele>211.39999389648</ele>
        <time>2013-08-07T08:53:09.000Z</time>
      </trkpt>
      <trkpt lat="47.756" lon="6.04692">
        <ele>211.39999389648</ele>
        <time>2013-08-07T08:53:15.000Z</time>
      </trkpt>
      <trkpt lat="47.75565" lon="6.04716">
        <ele>210.80000305176</ele>
        <time>2013-08-07T08:53:22.000Z</time>
      </trkpt>
      <trkpt lat="47.7553" lon="6.04751">
        <ele>210.39999389648</ele>
        <time>2013-08-07T08:53:29.000Z</time>
      </trkpt>
      <trkpt lat="47.75495" lon="6.04784">
        <ele>210</ele>
        <time>2013-08-07T08:53:36.000Z</time>
      </trkpt>
      <trkpt lat="47.7546" lon="6.04817">
        <ele>210</ele>
        <time>2013-08-07T08:53:43.000Z</time>
      </trkpt>
      <trkpt lat="47.75425" lon="6.04848">
        <ele>211.39999389648</ele>
        <time>2013-08-07T08:53:51.000Z</time>
      </trkpt>
      <trkpt lat="47.75393" lon="6.04863">
        <ele>210.60000610352</ele>
        <time>2013-08-07T08:53:57.000Z</time>
      </trkpt>
      <trkpt lat="47.75337" lon="6.04882">
        <ele>209.39999389648</ele>
        <time>2013-08-07T08:54:07.000Z</time>
      </trkpt>
      <trkpt lat="47.75292" lon="6.04896">
        <ele>208.80000305176</ele>
        <time>2013-08-07T08:54:15.000Z</time>
      </trkpt>
      <trkpt lat="47.7525" lon="6.04909">
        <ele>208.80000305176</ele>
        <time>2013-08-07T08:54:23.000Z</time>
      </trkpt>
      <trkpt lat="47.75202" lon="6.04922">
        <ele>209</ele>
        <time>2013-08-07T08:54:32.000Z</time>
      </trkpt>
      <trkpt lat="47.75151" lon="6.04937">
        <ele>208.60000610352</ele>
        <time>2013-08-07T08:54:41.000Z</time>
      </trkpt>
      <trkpt lat="47.75099" lon="6.04949">
        <ele>208.39999389648</ele>
        <time>2013-08-07T08:54:50.000Z</time>
      </trkpt>
      <trkpt lat="47.75042" lon="6.04962">
        <ele>208.19999694824</ele>
        <time>2013-08-07T08:55:00.000Z</time>
      </trkpt>
      <trkpt lat="47.7501" lon="6.04969">
        <ele>208.39999389648</ele>
        <time>2013-08-07T08:55:06.000Z</time>
      </trkpt>
      <trkpt lat="47.74951" lon="6.04982">
        <ele>208.60000610352</ele>
        <time>2013-08-07T08:55:17.000Z</time>
      </trkpt>
      <trkpt lat="47.74946" lon="6.04984">
        <ele>208.80000305176</ele>
        <time>2013-08-07T08:55:18.000Z</time>
      </trkpt>
      <trkpt lat="47.74901" lon="6.04992">
        <ele>208.80000305176</ele>
        <time>2013-08-07T08:55:27.000Z</time>
      </trkpt>
      <trkpt lat="47.74863" lon="6.05">
        <ele>208.39999389648</ele>
        <time>2013-08-07T08:55:36.000Z</time>
      </trkpt>
      <trkpt lat="47.74824" lon="6.05009">
        <ele>208.39999389648</ele>
        <time>2013-08-07T08:55:45.000Z</time>
      </trkpt>
      <trkpt lat="47.74804" lon="6.05014">
        <ele>208</ele>
        <time>2013-08-07T08:55:50.000Z</time>
      </trkpt>
      <trkpt lat="47.74755" lon="6.05024">
        <ele>208.19999694824</ele>
        <time>2013-08-07T08:56:01.000Z</time>
      </trkpt>
      <trkpt lat="47.747" lon="6.05035">
        <ele>208.80000305176</ele>
        <time>2013-08-07T08:56:13.000Z</time>
      </trkpt>
      <trkpt lat="47.74656" lon="6.05046">
        <ele>209</ele>
        <time>2013-08-07T08:56:22.000Z</time>
      </trkpt>
      <trkpt lat="47.74616" lon="6.05066">
        <ele>209.19999694824</ele>
        <time>2013-08-07T08:56:31.000Z</time>
      </trkpt>
      <trkpt lat="47.74593" lon="6.05079">
        <ele>209</ele>
        <time>2013-08-07T08:56:37.000Z</time>
      </trkpt>
      <trkpt lat="47.7457" lon="6.05093">
        <ele>208.39999389648</ele>
        <time>2013-08-07T08:56:44.000Z</time>
      </trkpt>
      <trkpt lat="47.74558" lon="6.05086">
        <ele>208</ele>
        <time>2013-08-07T08:56:48.000Z</time>
      </trkpt>
      <trkpt lat="47.74555" lon="6.05075">
        <ele>207.80000305176</ele>
        <time>2013-08-07T08:56:50.000Z</time>
      </trkpt>
      <trkpt lat="47.74554" lon="6.05061">
        <ele>207.39999389648</ele>
        <time>2013-08-07T08:56:52.000Z</time>
      </trkpt>
      <trkpt lat="47.74545" lon="6.05035">
        <ele>207.19999694824</ele>
        <time>2013-08-07T08:56:56.000Z</time>
      </trkpt>
      <trkpt lat="47.74522" lon="6.05008">
        <ele>207.39999389648</ele>
        <time>2013-08-07T08:57:03.000Z</time>
      </trkpt>
      <trkpt lat="47.74508" lon="6.04997">
        <ele>207.19999694824</ele>
        <time>2013-08-07T08:57:09.000Z</time>
      </trkpt>
      <trkpt lat="47.74496" lon="6.04983">
        <ele>207</ele>
        <time>2013-08-07T08:57:15.000Z</time>
      </trkpt>
      <trkpt lat="47.74484" lon="6.04971">
        <ele>207</ele>
        <time>2013-08-07T08:57:21.000Z</time>
      </trkpt>
      <trkpt lat="47.7448" lon="6.04966">
        <ele>207.19999694824</ele>
        <time>2013-08-07T08:57:24.000Z</time>
      </trkpt>
      <trkpt lat="47.74473" lon="6.04956">
        <ele>207.19999694824</ele>
        <time>2013-08-07T08:57:29.000Z</time>
      </trkpt>
      <trkpt lat="47.74458" lon="6.04938">
        <ele>207.19999694824</ele>
        <time>2013-08-07T08:57:35.000Z</time>
      </trkpt>
      <trkpt lat="47.74443" lon="6.04921">
        <ele>207.39999389648</ele>
        <time>2013-08-07T08:57:41.000Z</time>
      </trkpt>
      <trkpt lat="47.7442" lon="6.04896">
        <ele>207.80000305176</ele>
        <time>2013-08-07T08:57:49.000Z</time>
      </trkpt>
      <trkpt lat="47.74398" lon="6.04876">
        <ele>207.39999389648</ele>
        <time>2013-08-07T08:57:56.000Z</time>
      </trkpt>
      <trkpt lat="47.74373" lon="6.04849">
        <ele>208</ele>
        <time>2013-08-07T08:58:04.000Z</time>
      </trkpt>
      <trkpt lat="47.74353" lon="6.04831">
        <ele>208</ele>
        <time>2013-08-07T08:58:10.000Z</time>
      </trkpt>
      <trkpt lat="47.74322" lon="6.04798">
        <ele>207.60000610352</ele>
        <time>2013-08-07T08:58:20.000Z</time>
      </trkpt>
      <trkpt lat="47.74295" lon="6.0477">
        <ele>207.39999389648</ele>
        <time>2013-08-07T08:58:29.000Z</time>
      </trkpt>
      <trkpt lat="47.74263" lon="6.04735">
        <ele>207.39999389648</ele>
        <time>2013-08-07T08:58:40.000Z</time>
      </trkpt>
      <trkpt lat="47.74228" lon="6.04699">
        <ele>207.80000305176</ele>
        <time>2013-08-07T08:58:52.000Z</time>
      </trkpt>
      <trkpt lat="47.74195" lon="6.04664">
        <ele>207.60000610352</ele>
        <time>2013-08-07T08:59:03.000Z</time>
      </trkpt>
      <trkpt lat="47.74163" lon="6.0463">
        <ele>208.19999694824</ele>
        <time>2013-08-07T08:59:14.000Z</time>
      </trkpt>
      <trkpt lat="47.74126" lon="6.04594">
        <ele>207.80000305176</ele>
        <time>2013-08-07T08:59:26.000Z</time>
      </trkpt>
      <trkpt lat="47.74094" lon="6.04557">
        <ele>207.60000610352</ele>
        <time>2013-08-07T08:59:37.000Z</time>
      </trkpt>
      <trkpt lat="47.74064" lon="6.04525">
        <ele>207.60000610352</ele>
        <time>2013-08-07T08:59:47.000Z</time>
      </trkpt>
      <trkpt lat="47.74034" lon="6.04491">
        <ele>207.19999694824</ele>
        <time>2013-08-07T08:59:57.000Z</time>
      </trkpt>
      <trkpt lat="47.74014" lon="6.0447">
        <ele>207</ele>
        <time>2013-08-07T09:00:04.000Z</time>
      </trkpt>
      <trkpt lat="47.7399" lon="6.04443">
        <ele>207</ele>
        <time>2013-08-07T09:00:12.000Z</time>
      </trkpt>
      <trkpt lat="47.73962" lon="6.04415">
        <ele>207.19999694824</ele>
        <time>2013-08-07T09:00:21.000Z</time>
      </trkpt>
      <trkpt lat="47.73931" lon="6.0438">
        <ele>207.60000610352</ele>
        <time>2013-08-07T09:00:32.000Z</time>
      </trkpt>
      <trkpt lat="47.73904" lon="6.04355">
        <ele>207.80000305176</ele>
        <time>2013-08-07T09:00:41.000Z</time>
      </trkpt>
      <trkpt lat="47.73873" lon="6.04324">
        <ele>207.60000610352</ele>
        <time>2013-08-07T09:00:51.000Z</time>
      </trkpt>
      <trkpt lat="47.73849" lon="6.04305">
        <ele>207.19999694824</ele>
        <time>2013-08-07T09:00:59.000Z</time>
      </trkpt>
      <trkpt lat="47.73815" lon="6.04285">
        <ele>207.19999694824</ele>
        <time>2013-08-07T09:01:09.000Z</time>
      </trkpt>
      <trkpt lat="47.73771" lon="6.04257">
        <ele>207.19999694824</ele>
        <time>2013-08-07T09:01:21.000Z</time>
      </trkpt>
      <trkpt lat="47.73735" lon="6.04235">
        <ele>207</ele>
        <time>2013-08-07T09:01:30.000Z</time>
      </trkpt>
      <trkpt lat="47.73706" lon="6.04234">
        <ele>207</ele>
        <time>2013-08-07T09:01:36.000Z</time>
      </trkpt>
      <trkpt lat="47.73674" lon="6.04249">
        <ele>206.60000610352</ele>
        <time>2013-08-07T09:01:43.000Z</time>
      </trkpt>
      <trkpt lat="47.73643" lon="6.04264">
        <ele>206.60000610352</ele>
        <time>2013-08-07T09:01:50.000Z</time>
      </trkpt>
      <trkpt lat="47.73607" lon="6.04281">
        <ele>206.80000305176</ele>
        <time>2013-08-07T09:01:58.000Z</time>
      </trkpt>
      <trkpt lat="47.7356" lon="6.04298">
        <ele>206.80000305176</ele>
        <time>2013-08-07T09:02:08.000Z</time>
      </trkpt>
      <trkpt lat="47.73555" lon="6.04298">
        <ele>206.80000305176</ele>
        <time>2013-08-07T09:02:09.000Z</time>
      </trkpt>
      <trkpt lat="47.73523" lon="6.04285">
        <ele>206</ele>
        <time>2013-08-07T09:02:16.000Z</time>
      </trkpt>
      <trkpt lat="47.73489" lon="6.0426">
        <ele>206</ele>
        <time>2013-08-07T09:02:24.000Z</time>
      </trkpt>
      <trkpt lat="47.73461" lon="6.0424">
        <ele>206</ele>
        <time>2013-08-07T09:02:31.000Z</time>
      </trkpt>
      <trkpt lat="47.73427" lon="6.04216">
        <ele>206</ele>
        <time>2013-08-07T09:02:39.000Z</time>
      </trkpt>
      <trkpt lat="47.7339" lon="6.04192">
        <ele>207.19999694824</ele>
        <time>2013-08-07T09:02:48.000Z</time>
      </trkpt>
      <trkpt lat="47.73366" lon="6.04179">
        <ele>208.39999389648</ele>
        <time>2013-08-07T09:02:55.000Z</time>
      </trkpt>
      <trkpt lat="47.73359" lon="6.04178">
        <ele>208.60000610352</ele>
        <time>2013-08-07T09:02:57.000Z</time>
      </trkpt>
      <trkpt lat="47.73349" lon="6.04189">
        <ele>209.19999694824</ele>
        <time>2013-08-07T09:03:01.000Z</time>
      </trkpt>
      <trkpt lat="47.73345" lon="6.042">
        <ele>209.39999389648</ele>
        <time>2013-08-07T09:03:03.000Z</time>
      </trkpt>
      <trkpt lat="47.73338" lon="6.0423">
        <ele>209.39999389648</ele>
        <time>2013-08-07T09:03:08.000Z</time>
      </trkpt>
      <trkpt lat="47.73328" lon="6.04264">
        <ele>209.60000610352</ele>
        <time>2013-08-07T09:03:13.000Z</time>
      </trkpt>
      <trkpt lat="47.73323" lon="6.04291">
        <ele>209.19999694824</ele>
        <time>2013-08-07T09:03:16.000Z</time>
      </trkpt>
      <trkpt lat="47.73316" lon="6.04341">
        <ele>208</ele>
        <time>2013-08-07T09:03:22.000Z</time>
      </trkpt>
      <trkpt lat="47.73308" lon="6.04399">
        <ele>208.19999694824</ele>
        <time>2013-08-07T09:03:30.000Z</time>
      </trkpt>
      <trkpt lat="47.73304" lon="6.04423">
        <ele>209.19999694824</ele>
        <time>2013-08-07T09:03:35.000Z</time>
      </trkpt>
      <trkpt lat="47.733" lon="6.04439">
        <ele>210</ele>
        <time>2013-08-07T09:03:40.000Z</time>
      </trkpt>
      <trkpt lat="47.73296" lon="6.04456">
        <ele>210</ele>
        <time>2013-08-07T09:03:48.000Z</time>
      </trkpt>
      <trkpt lat="47.73296" lon="6.04464">
        <ele>209.80000305176</ele>
        <time>2013-08-07T09:03:53.000Z</time>
      </trkpt>
      <trkpt lat="47.7329" lon="6.04477">
        <ele>209.39999389648</ele>
        <time>2013-08-07T09:03:59.000Z</time>
      </trkpt>
      <trkpt lat="47.73276" lon="6.04504">
        <ele>208.19999694824</ele>
        <time>2013-08-07T09:04:04.000Z</time>
      </trkpt>
      <trkpt lat="47.73265" lon="6.04534">
        <ele>207</ele>
        <time>2013-08-07T09:04:08.000Z</time>
      </trkpt>
      <trkpt lat="47.73252" lon="6.04561">
        <ele>205.19999694824</ele>
        <time>2013-08-07T09:04:13.000Z</time>
      </trkpt>
      <trkpt lat="47.7325" lon="6.04566">
        <ele>205</ele>
        <time>2013-08-07T09:04:14.000Z</time>
      </trkpt>
      <trkpt lat="47.73224" lon="6.04626">
        <ele>205</ele>
        <time>2013-08-07T09:04:26.000Z</time>
      </trkpt>
      <trkpt lat="47.73205" lon="6.04662">
        <ele>205</ele>
        <time>2013-08-07T09:04:34.000Z</time>
      </trkpt>
      <trkpt lat="47.73189" lon="6.04697">
        <ele>205.60000610352</ele>
        <time>2013-08-07T09:04:42.000Z</time>
      </trkpt>
      <trkpt lat="47.7317" lon="6.04745">
        <ele>206</ele>
        <time>2013-08-07T09:04:53.000Z</time>
      </trkpt>
      <trkpt lat="47.73161" lon="6.04778">
        <ele>206.19999694824</ele>
        <time>2013-08-07T09:05:00.000Z</time>
      </trkpt>
      <trkpt lat="47.73151" lon="6.04801">
        <ele>206.39999389648</ele>
        <time>2013-08-07T09:05:06.000Z</time>
      </trkpt>
      <trkpt lat="47.73138" lon="6.04822">
        <ele>206.80000305176</ele>
        <time>2013-08-07T09:05:12.000Z</time>
      </trkpt>
      <trkpt lat="47.73119" lon="6.04852">
        <ele>206.39999389648</ele>
        <time>2013-08-07T09:05:19.000Z</time>
      </trkpt>
      <trkpt lat="47.73099" lon="6.04879">
        <ele>206.39999389648</ele>
        <time>2013-08-07T09:05:26.000Z</time>
      </trkpt>
      <trkpt lat="47.73089" lon="6.04889">
        <ele>206.19999694824</ele>
        <time>2013-08-07T09:05:30.000Z</time>
      </trkpt>
      <trkpt lat="47.73071" lon="6.04906">
        <ele>206</ele>
        <time>2013-08-07T09:05:36.000Z</time>
      </trkpt>
      <trkpt lat="47.73048" lon="6.0492">
        <ele>205.80000305176</ele>
        <time>2013-08-07T09:05:44.000Z</time>
      </trkpt>
      <trkpt lat="47.7303" lon="6.04932">
        <ele>206</ele>
        <time>2013-08-07T09:05:51.000Z</time>
      </trkpt>
      <trkpt lat="47.7301" lon="6.04945">
        <ele>206.19999694824</ele>
        <time>2013-08-07T09:05:58.000Z</time>
      </trkpt>
      <trkpt lat="47.72991" lon="6.04951">
        <ele>206</ele>
        <time>2013-08-07T09:06:04.000Z</time>
      </trkpt>
      <trkpt lat="47.72973" lon="6.04957">
        <ele>206</ele>
        <time>2013-08-07T09:06:10.000Z</time>
      </trkpt>
      <trkpt lat="47.72949" lon="6.04961">
        <ele>206.19999694824</ele>
        <time>2013-08-07T09:06:17.000Z</time>
      </trkpt>
      <trkpt lat="47.72926" lon="6.04956">
        <ele>206.19999694824</ele>
        <time>2013-08-07T09:06:24.000Z</time>
      </trkpt>
      <trkpt lat="47.72911" lon="6.0495">
        <ele>206.19999694824</ele>
        <time>2013-08-07T09:06:30.000Z</time>
      </trkpt>
      <trkpt lat="47.72893" lon="6.04942">
        <ele>206.39999389648</ele>
        <time>2013-08-07T09:06:37.000Z</time>
      </trkpt>
      <trkpt lat="47.72875" lon="6.04936">
        <ele>206.60000610352</ele>
        <time>2013-08-07T09:06:43.000Z</time>
      </trkpt>
      <trkpt lat="47.72848" lon="6.04925">
        <ele>206.19999694824</ele>
        <time>2013-08-07T09:06:51.000Z</time>
      </trkpt>
      <trkpt lat="47.72817" lon="6.049">
        <ele>206</ele>
        <time>2013-08-07T09:07:02.000Z</time>
      </trkpt>
      <trkpt lat="47.72797" lon="6.04879">
        <ele>206</ele>
        <time>2013-08-07T09:07:10.000Z</time>
      </trkpt>
      <trkpt lat="47.72781" lon="6.04865">
        <ele>206</ele>
        <time>2013-08-07T09:07:16.000Z</time>
      </trkpt>
      <trkpt lat="47.72759" lon="6.04848">
        <ele>205.80000305176</ele>
        <time>2013-08-07T09:07:24.000Z</time>
      </trkpt>
      <trkpt lat="47.72733" lon="6.04832">
        <ele>206</ele>
        <time>2013-08-07T09:07:33.000Z</time>
      </trkpt>
      <trkpt lat="47.72702" lon="6.04815">
        <ele>206.39999389648</ele>
        <time>2013-08-07T09:07:43.000Z</time>
      </trkpt>
      <trkpt lat="47.72682" lon="6.04804">
        <ele>206.39999389648</ele>
        <time>2013-08-07T09:07:50.000Z</time>
      </trkpt>
      <trkpt lat="47.72657" lon="6.04789">
        <ele>206.19999694824</ele>
        <time>2013-08-07T09:07:59.000Z</time>
      </trkpt>
      <trkpt lat="47.72643" lon="6.04781">
        <ele>206.19999694824</ele>
        <time>2013-08-07T09:08:05.000Z</time>
      </trkpt>
      <trkpt lat="47.72631" lon="6.04772">
        <ele>206.39999389648</ele>
        <time>2013-08-07T09:08:10.000Z</time>
      </trkpt>
      <trkpt lat="47.72609" lon="6.04756">
        <ele>206.80000305176</ele>
        <time>2013-08-07T09:08:19.000Z</time>
      </trkpt>
      <trkpt lat="47.72589" lon="6.0474">
        <ele>207</ele>
        <time>2013-08-07T09:08:27.000Z</time>
      </trkpt>
      <trkpt lat="47.72561" lon="6.04715">
        <ele>207.39999389648</ele>
        <time>2013-08-07T09:08:38.000Z</time>
      </trkpt>
      <trkpt lat="47.72537" lon="6.0469">
        <ele>207.60000610352</ele>
        <time>2013-08-07T09:08:48.000Z</time>
      </trkpt>
      <trkpt lat="47.72514" lon="6.04665">
        <ele>206.80000305176</ele>
        <time>2013-08-07T09:08:58.000Z</time>
      </trkpt>
      <trkpt lat="47.72493" lon="6.04641">
        <ele>207.19999694824</ele>
        <time>2013-08-07T09:09:07.000Z</time>
      </trkpt>
      <trkpt lat="47.72474" lon="6.04618">
        <ele>207</ele>
        <time>2013-08-07T09:09:16.000Z</time>
      </trkpt>
      <trkpt lat="47.72456" lon="6.04598">
        <ele>206.60000610352</ele>
        <time>2013-08-07T09:09:24.000Z</time>
      </trkpt>
      <trkpt lat="47.72434" lon="6.04576">
        <ele>206.60000610352</ele>
        <time>2013-08-07T09:09:33.000Z</time>
      </trkpt>
      <trkpt lat="47.72407" lon="6.04549">
        <ele>207</ele>
        <time>2013-08-07T09:09:44.000Z</time>
      </trkpt>
      <trkpt lat="47.72387" lon="6.04528">
        <ele>207.19999694824</ele>
        <time>2013-08-07T09:09:52.000Z</time>
      </trkpt>
      <trkpt lat="47.72364" lon="6.04505">
        <ele>207</ele>
        <time>2013-08-07T09:10:01.000Z</time>
      </trkpt>
      <trkpt lat="47.7234" lon="6.04482">
        <ele>207</ele>
        <time>2013-08-07T09:10:10.000Z</time>
      </trkpt>
      <trkpt lat="47.72311" lon="6.04453">
        <ele>207.19999694824</ele>
        <time>2013-08-07T09:10:21.000Z</time>
      </trkpt>
      <trkpt lat="47.72288" lon="6.0443">
        <ele>207.19999694824</ele>
        <time>2013-08-07T09:10:30.000Z</time>
      </trkpt>
      <trkpt lat="47.72266" lon="6.04407">
        <ele>207</ele>
        <time>2013-08-07T09:10:39.000Z</time>
      </trkpt>
      <trkpt lat="47.7225" lon="6.0439">
        <ele>207</ele>
        <time>2013-08-07T09:10:45.000Z</time>
      </trkpt>
      <trkpt lat="47.72232" lon="6.04366">
        <ele>207.39999389648</ele>
        <time>2013-08-07T09:10:53.000Z</time>
      </trkpt>
      <trkpt lat="47.72219" lon="6.04339">
        <ele>207.60000610352</ele>
        <time>2013-08-07T09:11:01.000Z</time>
      </trkpt>
      <trkpt lat="47.72212" lon="6.04307">
        <ele>207.60000610352</ele>
        <time>2013-08-07T09:11:09.000Z</time>
      </trkpt>
      <trkpt lat="47.72211" lon="6.04272">
        <ele>207.80000305176</ele>
        <time>2013-08-07T09:11:17.000Z</time>
      </trkpt>
      <trkpt lat="47.72209" lon="6.0424">
        <ele>207.80000305176</ele>
        <time>2013-08-07T09:11:24.000Z</time>
      </trkpt>
      <trkpt lat="47.72206" lon="6.04209">
        <ele>207.60000610352</ele>
        <time>2013-08-07T09:11:32.000Z</time>
      </trkpt>
      <trkpt lat="47.72206" lon="6.04179">
        <ele>207.60000610352</ele>
        <time>2013-08-07T09:11:39.000Z</time>
      </trkpt>
      <trkpt lat="47.72207" lon="6.0415">
        <ele>207.39999389648</ele>
        <time>2013-08-07T09:11:46.000Z</time>
      </trkpt>
      <trkpt lat="47.72206" lon="6.04123">
        <ele>207.39999389648</ele>
        <time>2013-08-07T09:11:52.000Z</time>
      </trkpt>
      <trkpt lat="47.7221" lon="6.04092">
        <ele>207.39999389648</ele>
        <time>2013-08-07T09:12:00.000Z</time>
      </trkpt>
      <trkpt lat="47.72214" lon="6.0407">
        <ele>207.60000610352</ele>
        <time>2013-08-07T09:12:06.000Z</time>
      </trkpt>
      <trkpt lat="47.72212" lon="6.04041">
        <ele>207.39999389648</ele>
        <time>2013-08-07T09:12:12.000Z</time>
      </trkpt>
      <trkpt lat="47.72209" lon="6.04003">
        <ele>207.60000610352</ele>
        <time>2013-08-07T09:12:20.000Z</time>
      </trkpt>
      <trkpt lat="47.72208" lon="6.03969">
        <ele>207.60000610352</ele>
        <time>2013-08-07T09:12:27.000Z</time>
      </trkpt>
      <trkpt lat="47.72205" lon="6.03925">
        <ele>207.60000610352</ele>
        <time>2013-08-07T09:12:36.000Z</time>
      </trkpt>
      <trkpt lat="47.72203" lon="6.03895">
        <ele>207.60000610352</ele>
        <time>2013-08-07T09:12:43.000Z</time>
      </trkpt>
      <trkpt lat="47.72201" lon="6.03862">
        <ele>207.80000305176</ele>
        <time>2013-08-07T09:12:50.000Z</time>
      </trkpt>
      <trkpt lat="47.72196" lon="6.03826">
        <ele>208</ele>
        <time>2013-08-07T09:12:57.000Z</time>
      </trkpt>
      <trkpt lat="47.72191" lon="6.03783">
        <ele>208.19999694824</ele>
        <time>2013-08-07T09:13:05.000Z</time>
      </trkpt>
      <trkpt lat="47.72187" lon="6.03749">
        <ele>208</ele>
        <time>2013-08-07T09:13:11.000Z</time>
      </trkpt>
      <trkpt lat="47.7218" lon="6.0371">
        <ele>207.80000305176</ele>
        <time>2013-08-07T09:13:18.000Z</time>
      </trkpt>
      <trkpt lat="47.72173" lon="6.03664">
        <ele>207.60000610352</ele>
        <time>2013-08-07T09:13:27.000Z</time>
      </trkpt>
      <trkpt lat="47.72168" lon="6.0363">
        <ele>207.39999389648</ele>
        <time>2013-08-07T09:13:33.000Z</time>
      </trkpt>
      <trkpt lat="47.72163" lon="6.03599">
        <ele>207.60000610352</ele>
        <time>2013-08-07T09:13:39.000Z</time>
      </trkpt>
      <trkpt lat="47.7216" lon="6.03568">
        <ele>207.60000610352</ele>
        <time>2013-08-07T09:13:45.000Z</time>
      </trkpt>
      <trkpt lat="47.72158" lon="6.03552">
        <ele>207.60000610352</ele>
        <time>2013-08-07T09:13:50.000Z</time>
      </trkpt>
      <trkpt lat="47.72159" lon="6.03547">
        <ele>207.39999389648</ele>
        <time>2013-08-07T09:13:54.000Z</time>
      </trkpt>
      <trkpt lat="47.72164" lon="6.03543">
        <ele>207</ele>
        <time>2013-08-07T09:16:20.000Z</time>
      </trkpt>
      <trkpt lat="47.72165" lon="6.03531">
        <ele>207.19999694824</ele>
        <time>2013-08-07T09:16:24.000Z</time>
      </trkpt>
      <trkpt lat="47.72167" lon="6.03504">
        <ele>207.39999389648</ele>
        <time>2013-08-07T09:16:30.000Z</time>
      </trkpt>
      <trkpt lat="47.72171" lon="6.03474">
        <ele>207.39999389648</ele>
        <time>2013-08-07T09:16:36.000Z</time>
      </trkpt>
      <trkpt lat="47.72176" lon="6.0344">
        <ele>207.39999389648</ele>
        <time>2013-08-07T09:16:43.000Z</time>
      </trkpt>
      <trkpt lat="47.72183" lon="6.0341">
        <ele>207.19999694824</ele>
        <time>2013-08-07T09:16:49.000Z</time>
      </trkpt>
      <trkpt lat="47.72193" lon="6.03373">
        <ele>207</ele>
        <time>2013-08-07T09:16:56.000Z</time>
      </trkpt>
      <trkpt lat="47.72202" lon="6.03337">
        <ele>207.19999694824</ele>
        <time>2013-08-07T09:17:03.000Z</time>
      </trkpt>
      <trkpt lat="47.72207" lon="6.03318">
        <ele>207.19999694824</ele>
        <time>2013-08-07T09:17:07.000Z</time>
      </trkpt>
      <trkpt lat="47.72218" lon="6.03282">
        <ele>207</ele>
        <time>2013-08-07T09:17:15.000Z</time>
      </trkpt>
      <trkpt lat="47.72224" lon="6.03241">
        <ele>207.39999389648</ele>
        <time>2013-08-07T09:17:23.000Z</time>
      </trkpt>
      <trkpt lat="47.72224" lon="6.03206">
        <ele>207.39999389648</ele>
        <time>2013-08-07T09:17:31.000Z</time>
      </trkpt>
      <trkpt lat="47.7222" lon="6.03163">
        <ele>207.19999694824</ele>
        <time>2013-08-07T09:17:40.000Z</time>
      </trkpt>
      <trkpt lat="47.72209" lon="6.03128">
        <ele>207.19999694824</ele>
        <time>2013-08-07T09:17:47.000Z</time>
      </trkpt>
      <trkpt lat="47.72196" lon="6.03104">
        <ele>206.80000305176</ele>
        <time>2013-08-07T09:17:53.000Z</time>
      </trkpt>
      <trkpt lat="47.72178" lon="6.03078">
        <ele>207</ele>
        <time>2013-08-07T09:18:00.000Z</time>
      </trkpt>
      <trkpt lat="47.72155" lon="6.0305">
        <ele>207</ele>
        <time>2013-08-07T09:18:08.000Z</time>
      </trkpt>
      <trkpt lat="47.72141" lon="6.03038">
        <ele>207</ele>
        <time>2013-08-07T09:18:13.000Z</time>
      </trkpt>
      <trkpt lat="47.72118" lon="6.03022">
        <ele>207</ele>
        <time>2013-08-07T09:18:20.000Z</time>
      </trkpt>
      <trkpt lat="47.72089" lon="6.03006">
        <ele>207</ele>
        <time>2013-08-07T09:18:29.000Z</time>
      </trkpt>
      <trkpt lat="47.72068" lon="6.02993">
        <ele>207.19999694824</ele>
        <time>2013-08-07T09:18:37.000Z</time>
      </trkpt>
      <trkpt lat="47.72044" lon="6.0298">
        <ele>207.19999694824</ele>
        <time>2013-08-07T09:18:45.000Z</time>
      </trkpt>
      <trkpt lat="47.7201" lon="6.02969">
        <ele>207</ele>
        <time>2013-08-07T09:18:55.000Z</time>
      </trkpt>
      <trkpt lat="47.71978" lon="6.02958">
        <ele>207</ele>
        <time>2013-08-07T09:19:04.000Z</time>
      </trkpt>
      <trkpt lat="47.71953" lon="6.02944">
        <ele>206.80000305176</ele>
        <time>2013-08-07T09:19:12.000Z</time>
      </trkpt>
      <trkpt lat="47.7192" lon="6.02929">
        <ele>206.80000305176</ele>
        <time>2013-08-07T09:19:22.000Z</time>
      </trkpt>
      <trkpt lat="47.71886" lon="6.02922">
        <ele>206.60000610352</ele>
        <time>2013-08-07T09:19:32.000Z</time>
      </trkpt>
      <trkpt lat="47.71856" lon="6.0292">
        <ele>206.60000610352</ele>
        <time>2013-08-07T09:19:41.000Z</time>
      </trkpt>
      <trkpt lat="47.71821" lon="6.02922">
        <ele>206.80000305176</ele>
        <time>2013-08-07T09:19:51.000Z</time>
      </trkpt>
      <trkpt lat="47.7179" lon="6.02926">
        <ele>206.60000610352</ele>
        <time>2013-08-07T09:20:00.000Z</time>
      </trkpt>
      <trkpt lat="47.71754" lon="6.02931">
        <ele>206.60000610352</ele>
        <time>2013-08-07T09:20:10.000Z</time>
      </trkpt>
      <trkpt lat="47.71719" lon="6.02936">
        <ele>206.39999389648</ele>
        <time>2013-08-07T09:20:20.000Z</time>
      </trkpt>
      <trkpt lat="47.71697" lon="6.02941">
        <ele>206.60000610352</ele>
        <time>2013-08-07T09:20:28.000Z</time>
      </trkpt>
      <trkpt lat="47.71666" lon="6.02949">
        <ele>206.39999389648</ele>
        <time>2013-08-07T09:20:38.000Z</time>
      </trkpt>
      <trkpt lat="47.7164" lon="6.02955">
        <ele>206.39999389648</ele>
        <time>2013-08-07T09:20:46.000Z</time>
      </trkpt>
      <trkpt lat="47.71611" lon="6.02963">
        <ele>206.39999389648</ele>
        <time>2013-08-07T09:20:55.000Z</time>
      </trkpt>
      <trkpt lat="47.71578" lon="6.02973">
        <ele>206.39999389648</ele>
        <time>2013-08-07T09:21:05.000Z</time>
      </trkpt>
      <trkpt lat="47.71551" lon="6.02983">
        <ele>206.39999389648</ele>
        <time>2013-08-07T09:21:14.000Z</time>
      </trkpt>
      <trkpt lat="47.71527" lon="6.02993">
        <ele>206.80000305176</ele>
        <time>2013-08-07T09:21:22.000Z</time>
      </trkpt>
      <trkpt lat="47.71503" lon="6.03003">
        <ele>206.80000305176</ele>
        <time>2013-08-07T09:21:30.000Z</time>
      </trkpt>
      <trkpt lat="47.71468" lon="6.03017">
        <ele>206.80000305176</ele>
        <time>2013-08-07T09:21:41.000Z</time>
      </trkpt>
      <trkpt lat="47.71449" lon="6.03028">
        <ele>207</ele>
        <time>2013-08-07T09:21:48.000Z</time>
      </trkpt>
      <trkpt lat="47.71429" lon="6.03035">
        <ele>207</ele>
        <time>2013-08-07T09:21:54.000Z</time>
      </trkpt>
      <trkpt lat="47.71401" lon="6.03046">
        <ele>207</ele>
        <time>2013-08-07T09:22:03.000Z</time>
      </trkpt>
      <trkpt lat="47.71381" lon="6.03056">
        <ele>206.39999389648</ele>
        <time>2013-08-07T09:22:11.000Z</time>
      </trkpt>
      <trkpt lat="47.71367" lon="6.03062">
        <ele>206.39999389648</ele>
        <time>2013-08-07T09:22:16.000Z</time>
      </trkpt>
      <trkpt lat="47.71352" lon="6.03072">
        <ele>206.60000610352</ele>
        <time>2013-08-07T09:22:22.000Z</time>
      </trkpt>
      <trkpt lat="47.71336" lon="6.03083">
        <ele>206.39999389648</ele>
        <time>2013-08-07T09:22:28.000Z</time>
      </trkpt>
      <trkpt lat="47.71318" lon="6.03095">
        <ele>206.39999389648</ele>
        <time>2013-08-07T09:22:35.000Z</time>
      </trkpt>
      <trkpt lat="47.71301" lon="6.03108">
        <ele>206.19999694824</ele>
        <time>2013-08-07T09:22:42.000Z</time>
      </trkpt>
      <trkpt lat="47.71281" lon="6.0312">
        <ele>206.19999694824</ele>
        <time>2013-08-07T09:22:51.000Z</time>
      </trkpt>
      <trkpt lat="47.71259" lon="6.03135">
        <ele>206.19999694824</ele>
        <time>2013-08-07T09:23:01.000Z</time>
      </trkpt>
      <trkpt lat="47.71238" lon="6.0315">
        <ele>206.60000610352</ele>
        <time>2013-08-07T09:23:11.000Z</time>
      </trkpt>
      <trkpt lat="47.71219" lon="6.03163">
        <ele>206.19999694824</ele>
        <time>2013-08-07T09:23:20.000Z</time>
      </trkpt>
      <trkpt lat="47.712" lon="6.03177">
        <ele>206.19999694824</ele>
        <time>2013-08-07T09:23:29.000Z</time>
      </trkpt>
      <trkpt lat="47.71184" lon="6.03191">
        <ele>206</ele>
        <time>2013-08-07T09:23:37.000Z</time>
      </trkpt>
      <trkpt lat="47.71164" lon="6.03208">
        <ele>205.80000305176</ele>
        <time>2013-08-07T09:23:47.000Z</time>
      </trkpt>
      <trkpt lat="47.71146" lon="6.03223">
        <ele>205.39999389648</ele>
        <time>2013-08-07T09:23:56.000Z</time>
      </trkpt>
      <trkpt lat="47.71127" lon="6.03239">
        <ele>205.80000305176</ele>
        <time>2013-08-07T09:24:05.000Z</time>
      </trkpt>
      <trkpt lat="47.71106" lon="6.03257">
        <ele>206</ele>
        <time>2013-08-07T09:24:15.000Z</time>
      </trkpt>
      <trkpt lat="47.71085" lon="6.03275">
        <ele>206</ele>
        <time>2013-08-07T09:24:25.000Z</time>
      </trkpt>
      <trkpt lat="47.71061" lon="6.03296">
        <ele>205.80000305176</ele>
        <time>2013-08-07T09:24:36.000Z</time>
      </trkpt>
      <trkpt lat="47.71041" lon="6.03314">
        <ele>206.19999694824</ele>
        <time>2013-08-07T09:24:45.000Z</time>
      </trkpt>
      <trkpt lat="47.71022" lon="6.03331">
        <ele>206.19999694824</ele>
        <time>2013-08-07T09:24:53.000Z</time>
      </trkpt>
      <trkpt lat="47.71" lon="6.0335">
        <ele>205.80000305176</ele>
        <time>2013-08-07T09:25:02.000Z</time>
      </trkpt>
      <trkpt lat="47.70983" lon="6.03366">
        <ele>205.60000610352</ele>
        <time>2013-08-07T09:25:09.000Z</time>
      </trkpt>
      <trkpt lat="47.70967" lon="6.03393">
        <ele>205.19999694824</ele>
        <time>2013-08-07T09:25:17.000Z</time>
      </trkpt>
      <trkpt lat="47.70955" lon="6.03428">
        <ele>205</ele>
        <time>2013-08-07T09:25:26.000Z</time>
      </trkpt>
      <trkpt lat="47.70947" lon="6.03462">
        <ele>205.60000610352</ele>
        <time>2013-08-07T09:25:34.000Z</time>
      </trkpt>
      <trkpt lat="47.7094" lon="6.03496">
        <ele>205</ele>
        <time>2013-08-07T09:25:42.000Z</time>
      </trkpt>
      <trkpt lat="47.70934" lon="6.03531">
        <ele>204.80000305176</ele>
        <time>2013-08-07T09:25:50.000Z</time>
      </trkpt>
      <trkpt lat="47.7093" lon="6.03559">
        <ele>205</ele>
        <time>2013-08-07T09:25:56.000Z</time>
      </trkpt>
      <trkpt lat="47.70925" lon="6.03598">
        <ele>205.19999694824</ele>
        <time>2013-08-07T09:26:04.000Z</time>
      </trkpt>
      <trkpt lat="47.70924" lon="6.03638">
        <ele>205.19999694824</ele>
        <time>2013-08-07T09:26:12.000Z</time>
      </trkpt>
      <trkpt lat="47.70919" lon="6.03673">
        <ele>205.19999694824</ele>
        <time>2013-08-07T09:26:19.000Z</time>
      </trkpt>
      <trkpt lat="47.70911" lon="6.03716">
        <ele>204.80000305176</ele>
        <time>2013-08-07T09:26:28.000Z</time>
      </trkpt>
      <trkpt lat="47.709" lon="6.03751">
        <ele>204.60000610352</ele>
        <time>2013-08-07T09:26:36.000Z</time>
      </trkpt>
      <trkpt lat="47.70889" lon="6.03785">
        <ele>204.60000610352</ele>
        <time>2013-08-07T09:26:44.000Z</time>
      </trkpt>
      <trkpt lat="47.70876" lon="6.03812">
        <ele>205.39999389648</ele>
        <time>2013-08-07T09:26:51.000Z</time>
      </trkpt>
      <trkpt lat="47.70858" lon="6.03842">
        <ele>205.19999694824</ele>
        <time>2013-08-07T09:26:59.000Z</time>
      </trkpt>
      <trkpt lat="47.70842" lon="6.03865">
        <ele>204.39999389648</ele>
        <time>2013-08-07T09:27:06.000Z</time>
      </trkpt>
      <trkpt lat="47.70825" lon="6.03884">
        <ele>204.39999389648</ele>
        <time>2013-08-07T09:27:14.000Z</time>
      </trkpt>
      <trkpt lat="47.70812" lon="6.03901">
        <ele>204.60000610352</ele>
        <time>2013-08-07T09:27:21.000Z</time>
      </trkpt>
      <trkpt lat="47.70795" lon="6.03922">
        <ele>205</ele>
        <time>2013-08-07T09:27:29.000Z</time>
      </trkpt>
      <trkpt lat="47.7078" lon="6.03935">
        <ele>205</ele>
        <time>2013-08-07T09:27:36.000Z</time>
      </trkpt>
      <trkpt lat="47.70764" lon="6.03952">
        <ele>205.19999694824</ele>
        <time>2013-08-07T09:27:42.000Z</time>
      </trkpt>
      <trkpt lat="47.70744" lon="6.03979">
        <ele>205.80000305176</ele>
        <time>2013-08-07T09:27:50.000Z</time>
      </trkpt>
      <trkpt lat="47.70725" lon="6.03998">
        <ele>205.60000610352</ele>
        <time>2013-08-07T09:27:57.000Z</time>
      </trkpt>
      <trkpt lat="47.70703" lon="6.04017">
        <ele>205.39999389648</ele>
        <time>2013-08-07T09:28:04.000Z</time>
      </trkpt>
      <trkpt lat="47.70686" lon="6.04031">
        <ele>205.39999389648</ele>
        <time>2013-08-07T09:28:10.000Z</time>
      </trkpt>
      <trkpt lat="47.70667" lon="6.04041">
        <ele>205.80000305176</ele>
        <time>2013-08-07T09:28:16.000Z</time>
      </trkpt>
      <trkpt lat="47.7065" lon="6.04044">
        <ele>206.39999389648</ele>
        <time>2013-08-07T09:28:22.000Z</time>
      </trkpt>
      <trkpt lat="47.7063" lon="6.04046">
        <ele>206.60000610352</ele>
        <time>2013-08-07T09:28:29.000Z</time>
      </trkpt>
      <trkpt lat="47.70606" lon="6.04047">
        <ele>206.39999389648</ele>
        <time>2013-08-07T09:28:36.000Z</time>
      </trkpt>
      <trkpt lat="47.70571" lon="6.0404">
        <ele>206</ele>
        <time>2013-08-07T09:28:46.000Z</time>
      </trkpt>
      <trkpt lat="47.70537" lon="6.0404">
        <ele>206.19999694824</ele>
        <time>2013-08-07T09:28:55.000Z</time>
      </trkpt>
      <trkpt lat="47.70507" lon="6.04051">
        <ele>206.60000610352</ele>
        <time>2013-08-07T09:29:03.000Z</time>
      </trkpt>
      <trkpt lat="47.70475" lon="6.04063">
        <ele>206.80000305176</ele>
        <time>2013-08-07T09:29:12.000Z</time>
      </trkpt>
      <trkpt lat="47.70452" lon="6.04076">
        <ele>206.60000610352</ele>
        <time>2013-08-07T09:29:19.000Z</time>
      </trkpt>
      <trkpt lat="47.70415" lon="6.04102">
        <ele>206.80000305176</ele>
        <time>2013-08-07T09:29:30.000Z</time>
      </trkpt>
      <trkpt lat="47.70385" lon="6.04123">
        <ele>206.19999694824</ele>
        <time>2013-08-07T09:29:39.000Z</time>
      </trkpt>
      <trkpt lat="47.70362" lon="6.04148">
        <ele>206</ele>
        <time>2013-08-07T09:29:47.000Z</time>
      </trkpt>
      <trkpt lat="47.7033" lon="6.04182">
        <ele>206.60000610352</ele>
        <time>2013-08-07T09:29:58.000Z</time>
      </trkpt>
      <trkpt lat="47.70304" lon="6.04201">
        <ele>206.60000610352</ele>
        <time>2013-08-07T09:30:06.000Z</time>
      </trkpt>
      <trkpt lat="47.70279" lon="6.0422">
        <ele>206.80000305176</ele>
        <time>2013-08-07T09:30:14.000Z</time>
      </trkpt>
      <trkpt lat="47.70249" lon="6.04242">
        <ele>207</ele>
        <time>2013-08-07T09:30:23.000Z</time>
      </trkpt>
      <trkpt lat="47.70216" lon="6.04265">
        <ele>206.80000305176</ele>
        <time>2013-08-07T09:30:33.000Z</time>
      </trkpt>
      <trkpt lat="47.70191" lon="6.04286">
        <ele>206.60000610352</ele>
        <time>2013-08-07T09:30:41.000Z</time>
      </trkpt>
      <trkpt lat="47.70167" lon="6.04308">
        <ele>206.39999389648</ele>
        <time>2013-08-07T09:30:48.000Z</time>
      </trkpt>
      <trkpt lat="47.70146" lon="6.0433">
        <ele>206.39999389648</ele>
        <time>2013-08-07T09:30:55.000Z</time>
      </trkpt>
      <trkpt lat="47.70128" lon="6.04355">
        <ele>206.39999389648</ele>
        <time>2013-08-07T09:31:02.000Z</time>
      </trkpt>
      <trkpt lat="47.70107" lon="6.04381">
        <ele>207</ele>
        <time>2013-08-07T09:31:10.000Z</time>
      </trkpt>
      <trkpt lat="47.70089" lon="6.04401">
        <ele>207.19999694824</ele>
        <time>2013-08-07T09:31:16.000Z</time>
      </trkpt>
      <trkpt lat="47.70064" lon="6.04423">
        <ele>207.19999694824</ele>
        <time>2013-08-07T09:31:23.000Z</time>
      </trkpt>
      <trkpt lat="47.70042" lon="6.04438">
        <ele>207.60000610352</ele>
        <time>2013-08-07T09:31:30.000Z</time>
      </trkpt>
      <trkpt lat="47.70026" lon="6.04449">
        <ele>209.80000305176</ele>
        <time>2013-08-07T09:31:37.000Z</time>
      </trkpt>
      <trkpt lat="47.70019" lon="6.04451">
        <ele>211.19999694824</ele>
        <time>2013-08-07T09:31:42.000Z</time>
      </trkpt>
      <trkpt lat="47.70019" lon="6.04451">
        <ele>211.19999694824</ele>
        <time>2013-08-07T09:31:43.000Z</time>
      </trkpt>
      <trkpt lat="47.70016" lon="6.04454">
        <ele>210.19999694824</ele>
        <time>2013-08-07T09:32:54.000Z</time>
      </trkpt>
      <trkpt lat="47.69996" lon="6.04449">
        <ele>210.39999389648</ele>
        <time>2013-08-07T09:33:01.000Z</time>
      </trkpt>
      <trkpt lat="47.69966" lon="6.04444">
        <ele>210.60000610352</ele>
        <time>2013-08-07T09:33:08.000Z</time>
      </trkpt>
      <trkpt lat="47.69961" lon="6.04443">
        <ele>210.60000610352</ele>
        <time>2013-08-07T09:33:09.000Z</time>
      </trkpt>
      <trkpt lat="47.69913" lon="6.04439">
        <ele>210</ele>
        <time>2013-08-07T09:33:18.000Z</time>
      </trkpt>
      <trkpt lat="47.69871" lon="6.04437">
        <ele>209.80000305176</ele>
        <time>2013-08-07T09:33:26.000Z</time>
      </trkpt>
      <trkpt lat="47.6982" lon="6.04432">
        <ele>209.60000610352</ele>
        <time>2013-08-07T09:33:35.000Z</time>
      </trkpt>
      <trkpt lat="47.69782" lon="6.0443">
        <ele>209.39999389648</ele>
        <time>2013-08-07T09:33:41.000Z</time>
      </trkpt>
      <trkpt lat="47.69729" lon="6.04429">
        <ele>208.19999694824</ele>
        <time>2013-08-07T09:33:49.000Z</time>
      </trkpt>
      <trkpt lat="47.6969" lon="6.04431">
        <ele>208.19999694824</ele>
        <time>2013-08-07T09:33:56.000Z</time>
      </trkpt>
      <trkpt lat="47.69655" lon="6.04431">
        <ele>207.80000305176</ele>
        <time>2013-08-07T09:34:03.000Z</time>
      </trkpt>
      <trkpt lat="47.69612" lon="6.04433">
        <ele>207.80000305176</ele>
        <time>2013-08-07T09:34:12.000Z</time>
      </trkpt>
      <trkpt lat="47.69559" lon="6.04432">
        <ele>208.39999389648</ele>
        <time>2013-08-07T09:34:23.000Z</time>
      </trkpt>
      <trkpt lat="47.6951" lon="6.04431">
        <ele>208.19999694824</ele>
        <time>2013-08-07T09:34:33.000Z</time>
      </trkpt>
      <trkpt lat="47.69478" lon="6.04429">
        <ele>207.80000305176</ele>
        <time>2013-08-07T09:34:39.000Z</time>
      </trkpt>
      <trkpt lat="47.69439" lon="6.04425">
        <ele>207.80000305176</ele>
        <time>2013-08-07T09:34:47.000Z</time>
      </trkpt>
      <trkpt lat="47.6939" lon="6.04418">
        <ele>207.60000610352</ele>
        <time>2013-08-07T09:34:57.000Z</time>
      </trkpt>
      <trkpt lat="47.69328" lon="6.0441">
        <ele>208.19999694824</ele>
        <time>2013-08-07T09:35:09.000Z</time>
      </trkpt>
      <trkpt lat="47.69272" lon="6.04398">
        <ele>208.60000610352</ele>
        <time>2013-08-07T09:35:20.000Z</time>
      </trkpt>
      <trkpt lat="47.6923" lon="6.04382">
        <ele>208.60000610352</ele>
        <time>2013-08-07T09:35:28.000Z</time>
      </trkpt>
      <trkpt lat="47.6918" lon="6.04362">
        <ele>209.19999694824</ele>
        <time>2013-08-07T09:35:38.000Z</time>
      </trkpt>
      <trkpt lat="47.69165" lon="6.04355">
        <ele>209</ele>
        <time>2013-08-07T09:35:41.000Z</time>
      </trkpt>
      <trkpt lat="47.6913" lon="6.04347">
        <ele>208.39999389648</ele>
        <time>2013-08-07T09:35:48.000Z</time>
      </trkpt>
      <trkpt lat="47.69096" lon="6.04341">
        <ele>208.19999694824</ele>
        <time>2013-08-07T09:35:56.000Z</time>
      </trkpt>
      <trkpt lat="47.69061" lon="6.04331">
        <ele>208.60000610352</ele>
        <time>2013-08-07T09:36:04.000Z</time>
      </trkpt>
      <trkpt lat="47.69043" lon="6.04328">
        <ele>209</ele>
        <time>2013-08-07T09:36:08.000Z</time>
      </trkpt>
      <trkpt lat="47.69011" lon="6.04318">
        <ele>209</ele>
        <time>2013-08-07T09:36:16.000Z</time>
      </trkpt>
      <trkpt lat="47.68992" lon="6.04317">
        <ele>209.60000610352</ele>
        <time>2013-08-07T09:36:22.000Z</time>
      </trkpt>
      <trkpt lat="47.68974" lon="6.04321">
        <ele>210</ele>
        <time>2013-08-07T09:36:28.000Z</time>
      </trkpt>
      <trkpt lat="47.68962" lon="6.04324">
        <ele>210.80000305176</ele>
        <time>2013-08-07T09:36:33.000Z</time>
      </trkpt>
      <trkpt lat="47.68955" lon="6.04329">
        <ele>211.19999694824</ele>
        <time>2013-08-07T09:36:38.000Z</time>
      </trkpt>
      <trkpt lat="47.68939" lon="6.04334">
        <ele>211.60000610352</ele>
        <time>2013-08-07T09:36:44.000Z</time>
      </trkpt>
      <trkpt lat="47.68921" lon="6.04339">
        <ele>212</ele>
        <time>2013-08-07T09:36:49.000Z</time>
      </trkpt>
      <trkpt lat="47.68899" lon="6.04337">
        <ele>212.19999694824</ele>
        <time>2013-08-07T09:36:55.000Z</time>
      </trkpt>
      <trkpt lat="47.68897" lon="6.04335">
        <ele>212</ele>
        <time>2013-08-07T09:36:56.000Z</time>
      </trkpt>
      <trkpt lat="47.68894" lon="6.04333">
        <ele>211.80000305176</ele>
        <time>2013-08-07T09:36:59.000Z</time>
      </trkpt>
      <trkpt lat="47.68889" lon="6.0433">
        <ele>211.80000305176</ele>
        <time>2013-08-07T09:37:02.000Z</time>
      </trkpt>
      <trkpt lat="47.6888" lon="6.04341">
        <ele>211.80000305176</ele>
        <time>2013-08-07T09:37:08.000Z</time>
      </trkpt>
      <trkpt lat="47.68881" lon="6.04343">
        <ele>211.80000305176</ele>
        <time>2013-08-07T09:37:09.000Z</time>
      </trkpt>
      <trkpt lat="47.6888" lon="6.04357">
        <ele>212.19999694824</ele>
        <time>2013-08-07T09:37:41.000Z</time>
      </trkpt>
      <trkpt lat="47.68872" lon="6.04371">
        <ele>212.80000305176</ele>
        <time>2013-08-07T09:37:45.000Z</time>
      </trkpt>
      <trkpt lat="47.68858" lon="6.04397">
        <ele>213.80000305176</ele>
        <time>2013-08-07T09:37:52.000Z</time>
      </trkpt>
      <trkpt lat="47.6885" lon="6.04427">
        <ele>215</ele>
        <time>2013-08-07T09:37:59.000Z</time>
      </trkpt>
      <trkpt lat="47.6884" lon="6.04462">
        <ele>216.60000610352</ele>
        <time>2013-08-07T09:38:08.000Z</time>
      </trkpt>
      <trkpt lat="47.68836" lon="6.04487">
        <ele>217.39999389648</ele>
        <time>2013-08-07T09:38:14.000Z</time>
      </trkpt>
      <trkpt lat="47.68832" lon="6.04516">
        <ele>217.80000305176</ele>
        <time>2013-08-07T09:38:21.000Z</time>
      </trkpt>
      <trkpt lat="47.68831" lon="6.04546">
        <ele>218.80000305176</ele>
        <time>2013-08-07T09:38:28.000Z</time>
      </trkpt>
      <trkpt lat="47.68828" lon="6.04592">
        <ele>219.60000610352</ele>
        <time>2013-08-07T09:38:38.000Z</time>
      </trkpt>
      <trkpt lat="47.68827" lon="6.04629">
        <ele>220.19999694824</ele>
        <time>2013-08-07T09:38:45.000Z</time>
      </trkpt>
      <trkpt lat="47.68826" lon="6.04671">
        <ele>221</ele>
        <time>2013-08-07T09:38:51.000Z</time>
      </trkpt>
      <trkpt lat="47.68826" lon="6.04714">
        <ele>221.60000610352</ele>
        <time>2013-08-07T09:38:57.000Z</time>
      </trkpt>
      <trkpt lat="47.68825" lon="6.04792">
        <ele>222</ele>
        <time>2013-08-07T09:39:07.000Z</time>
      </trkpt>
      <trkpt lat="47.68818" lon="6.04845">
        <ele>223.39999389648</ele>
        <time>2013-08-07T09:39:14.000Z</time>
      </trkpt>
      <trkpt lat="47.68815" lon="6.04867">
        <ele>223.80000305176</ele>
        <time>2013-08-07T09:39:17.000Z</time>
      </trkpt>
      <trkpt lat="47.68798" lon="6.04878">
        <ele>225.19999694824</ele>
        <time>2013-08-07T09:39:21.000Z</time>
      </trkpt>
      <trkpt lat="47.6879" lon="6.0488">
        <ele>226</ele>
        <time>2013-08-07T09:39:23.000Z</time>
      </trkpt>
      <trkpt lat="47.68779" lon="6.04865">
        <ele>227.39999389648</ele>
        <time>2013-08-07T09:39:27.000Z</time>
      </trkpt>
      <trkpt lat="47.68767" lon="6.04819">
        <ele>228.80000305176</ele>
        <time>2013-08-07T09:39:34.000Z</time>
      </trkpt>
      <trkpt lat="47.68752" lon="6.04759">
        <ele>231</ele>
        <time>2013-08-07T09:39:43.000Z</time>
      </trkpt>
      <trkpt lat="47.6874" lon="6.0472">
        <ele>231.80000305176</ele>
        <time>2013-08-07T09:39:49.000Z</time>
      </trkpt>
      <trkpt lat="47.68718" lon="6.0467">
        <ele>232.19999694824</ele>
        <time>2013-08-07T09:39:57.000Z</time>
      </trkpt>
      <trkpt lat="47.687" lon="6.04629">
        <ele>232.80000305176</ele>
        <time>2013-08-07T09:40:04.000Z</time>
      </trkpt>
      <trkpt lat="47.68687" lon="6.04593">
        <ele>232.60000610352</ele>
        <time>2013-08-07T09:40:09.000Z</time>
      </trkpt>
      <trkpt lat="47.68685" lon="6.04585">
        <ele>232.39999389648</ele>
        <time>2013-08-07T09:40:10.000Z</time>
      </trkpt>
      <trkpt lat="47.68669" lon="6.0456">
        <ele>231.60000610352</ele>
        <time>2013-08-07T09:40:14.000Z</time>
      </trkpt>
      <trkpt lat="47.68648" lon="6.04542">
        <ele>230.60000610352</ele>
        <time>2013-08-07T09:40:18.000Z</time>
      </trkpt>
      <trkpt lat="47.6863" lon="6.04539">
        <ele>229</ele>
        <time>2013-08-07T09:40:22.000Z</time>
      </trkpt>
      <trkpt lat="47.68626" lon="6.04547">
        <ele>228.39999389648</ele>
        <time>2013-08-07T09:40:26.000Z</time>
      </trkpt>
      <trkpt lat="47.68627" lon="6.04548">
        <ele>228.39999389648</ele>
        <time>2013-08-07T09:40:28.000Z</time>
      </trkpt>
    </trkseg>
  </trk>
</gpx>